PWSweather.com
Personal Weather Stations
Station Observations
KMNHANSK2
Andys Live Weather Stations, Hanska, MN 56041

Andys Live Weather StationsHanska, MN 56041

Lat: 44.170119, Lon: -94.381619

Elevation: 1004

Station Type: Davis Instruments Vantage Pro2 Plus

http://www.madeliasliveweather.com/thompsonfarms/

High Low Average
Temperature 26.4°F-3.1°F 3.5°F-15.8°F 21.0°F-6.1°F
Dew Point 25.0°F-3.9°F 0.8°F-17.3°F 19.1°F-7.2°F
Winds 26.0 mph NW41.8 mph NW 4.0 mph 6.4 mph 12.4 mph 20.0 mph
Wind Gusts 26.0 mph41.8 mph 7.0 mph11.3 mph 16.6 mph26.7 mph
Humidity 96% 80% 92%
Pressure 30.51 in1033.20 in 30.01 in1016.30 in -
Precipitation 0.00 in0.00 in - -
Hour Temp Dew Point Humidity Winds Wind Gusts Pressure Precip Precip Rate Daily Precip Total
12:00 AM 24.9°F-3.9°C 20.5°F-6.4°C 83% 7.0 mph SE11.3 kmh SE 12.0 mph19.3 kmh 30.02 in1016.6 mb 0.00 in0.0 mm 0.00 in/hr0.0 mm/hr 0.00 in0.0 mm
12:01 AM 24.9°F-3.9°C 20.5°F-6.4°C 83% 9.0 mph SE14.5 kmh SE 12.0 mph19.3 kmh 30.02 in1016.6 mb 0.00 in0.0 mm 0.00 in/hr0.0 mm/hr 0.00 in0.0 mm
12:02 AM 24.9°F-3.9°C 20.5°F-6.4°C 83% 7.0 mph SE11.3 kmh SE 8.0 mph12.9 kmh 30.02 in1016.6 mb 0.00 in0.0 mm 0.00 in/hr0.0 mm/hr 0.00 in0.0 mm
12:03 AM 24.9°F-3.9°C 20.5°F-6.4°C 83% 7.0 mph SE11.3 kmh SE 8.0 mph12.9 kmh 30.02 in1016.6 mb 0.00 in0.0 mm 0.00 in/hr0.0 mm/hr 0.00 in0.0 mm
12:04 AM 24.9°F-3.9°C 20.5°F-6.4°C 83% 6.0 mph SSE9.7 kmh SSE 9.0 mph14.5 kmh 30.02 in1016.6 mb 0.00 in0.0 mm 0.00 in/hr0.0 mm/hr 0.00 in0.0 mm
12:05 AM 24.9°F-3.9°C 20.5°F-6.4°C 83% 7.0 mph SE11.3 kmh SE 9.0 mph14.5 kmh 30.02 in1016.6 mb 0.00 in0.0 mm 0.00 in/hr0.0 mm/hr 0.00 in0.0 mm
12:06 AM 24.9°F-3.9°C 20.5°F-6.4°C 83% 7.0 mph SE11.3 kmh SE 9.0 mph14.5 kmh 30.02 in1016.6 mb 0.00 in0.0 mm 0.00 in/hr0.0 mm/hr 0.00 in0.0 mm
12:07 AM 24.9°F-3.9°C 20.5°F-6.4°C 83% 8.0 mph SE12.9 kmh SE 9.0 mph14.5 kmh 30.02 in1016.6 mb 0.00 in0.0 mm 0.00 in/hr0.0 mm/hr 0.00 in0.0 mm
12:08 AM 24.9°F-3.9°C 20.5°F-6.4°C 83% 8.0 mph SE12.9 kmh SE 10.0 mph16.1 kmh 30.02 in1016.6 mb 0.00 in0.0 mm 0.00 in/hr0.0 mm/hr 0.00 in0.0 mm
12:09 AM 24.9°F-3.9°C 20.5°F-6.4°C 83% 7.0 mph SE11.3 kmh SE 10.0 mph16.1 kmh 30.02 in1016.6 mb 0.00 in0.0 mm 0.00 in/hr0.0 mm/hr 0.00 in0.0 mm
12:10 AM 24.9°F-3.9°C 20.5°F-6.4°C 83% 6.0 mph SE9.7 kmh SE 10.0 mph16.1 kmh 30.02 in1016.6 mb 0.00 in0.0 mm 0.00 in/hr0.0 mm/hr 0.00 in0.0 mm
12:11 AM 24.9°F-3.9°C 20.5°F-6.4°C 83% 6.0 mph SE9.7 kmh SE 10.0 mph16.1 kmh 30.02 in1016.6 mb 0.00 in0.0 mm 0.00 in/hr0.0 mm/hr 0.00 in0.0 mm
12:12 AM 24.9°F-3.9°C 20.5°F-6.4°C 83% 7.0 mph SE11.3 kmh SE 10.0 mph16.1 kmh 30.02 in1016.6 mb 0.00 in0.0 mm 0.00 in/hr0.0 mm/hr 0.00 in0.0 mm
12:13 AM 24.9°F-3.9°C 20.5°F-6.4°C 83% 6.0 mph SE9.7 kmh SE 10.0 mph16.1 kmh 30.02 in1016.6 mb 0.00 in0.0 mm 0.00 in/hr0.0 mm/hr 0.00 in0.0 mm
12:14 AM 25.0°F-3.9°C 20.6°F-6.3°C 83% 8.0 mph SE12.9 kmh SE 10.0 mph16.1 kmh 30.02 in1016.6 mb 0.00 in0.0 mm 0.00 in/hr0.0 mm/hr 0.00 in0.0 mm
12:15 AM 25.0°F-3.9°C 20.6°F-6.3°C 83% 8.0 mph SE12.9 kmh SE 10.0 mph16.1 kmh 30.02 in1016.6 mb 0.00 in0.0 mm 0.00 in/hr0.0 mm/hr 0.00 in0.0 mm
12:16 AM 25.0°F-3.9°C 20.6°F-6.3°C 83% 7.0 mph SE11.3 kmh SE 10.0 mph16.1 kmh 30.02 in1016.6 mb 0.00 in0.0 mm 0.00 in/hr0.0 mm/hr 0.00 in0.0 mm
12:17 AM 25.0°F-3.9°C 20.6°F-6.3°C 83% 6.0 mph SE9.7 kmh SE 10.0 mph16.1 kmh 30.02 in1016.6 mb 0.00 in0.0 mm 0.00 in/hr0.0 mm/hr 0.00 in0.0 mm
12:18 AM 25.1°F-3.8°C 20.7°F-6.3°C 83% 6.0 mph SE9.7 kmh SE 10.0 mph16.1 kmh 30.02 in1016.6 mb 0.00 in0.0 mm 0.00 in/hr0.0 mm/hr 0.00 in0.0 mm
12:19 AM 25.1°F-3.8°C 20.7°F-6.3°C 83% 9.0 mph SE14.5 kmh SE 10.0 mph16.1 kmh 30.02 in1016.6 mb 0.00 in0.0 mm 0.00 in/hr0.0 mm/hr 0.00 in0.0 mm
12:20 AM 25.1°F-3.8°C 20.7°F-6.3°C 83% 7.0 mph SE11.3 kmh SE 10.0 mph16.1 kmh 30.02 in1016.6 mb 0.00 in0.0 mm 0.00 in/hr0.0 mm/hr 0.00 in0.0 mm
12:21 AM 25.1°F-3.8°C 20.7°F-6.3°C 83% 6.0 mph SE9.7 kmh SE 10.0 mph16.1 kmh 30.02 in1016.6 mb 0.00 in0.0 mm 0.00 in/hr0.0 mm/hr 0.00 in0.0 mm
12:22 AM 25.1°F-3.8°C 20.7°F-6.3°C 83% 7.0 mph SE11.3 kmh SE 10.0 mph16.1 kmh 30.02 in1016.6 mb 0.00 in0.0 mm 0.00 in/hr0.0 mm/hr 0.00 in0.0 mm
12:23 AM 25.2°F-3.8°C 20.8°F-6.2°C 83% 7.0 mph SE11.3 kmh SE 10.0 mph16.1 kmh 30.02 in1016.6 mb 0.00 in0.0 mm 0.00 in/hr0.0 mm/hr 0.00 in0.0 mm
12:24 AM 25.2°F-3.8°C 20.8°F-6.2°C 83% 7.0 mph SE11.3 kmh SE 10.0 mph16.1 kmh 30.02 in1016.6 mb 0.00 in0.0 mm 0.00 in/hr0.0 mm/hr 0.00 in0.0 mm
12:25 AM 25.2°F-3.8°C 20.8°F-6.2°C 83% 6.0 mph SE9.7 kmh SE 10.0 mph16.1 kmh 30.02 in1016.6 mb 0.00 in0.0 mm 0.00 in/hr0.0 mm/hr 0.00 in0.0 mm
12:26 AM 25.2°F-3.8°C 20.8°F-6.2°C 83% 7.0 mph SE11.3 kmh SE 10.0 mph16.1 kmh 30.02 in1016.6 mb 0.00 in0.0 mm 0.00 in/hr0.0 mm/hr 0.00 in0.0 mm
12:27 AM 25.2°F-3.8°C 20.8°F-6.2°C 83% 7.0 mph SE11.3 kmh SE 10.0 mph16.1 kmh 30.02 in1016.6 mb 0.00 in0.0 mm 0.00 in/hr0.0 mm/hr 0.00 in0.0 mm
12:28 AM 25.2°F-3.8°C 20.8°F-6.2°C 83% 6.0 mph SE9.7 kmh SE 10.0 mph16.1 kmh 30.02 in1016.6 mb 0.00 in0.0 mm 0.00 in/hr0.0 mm/hr 0.00 in0.0 mm
12:29 AM 25.2°F-3.8°C 20.8°F-6.2°C 83% 8.0 mph SE12.9 kmh SE 10.0 mph16.1 kmh 30.02 in1016.6 mb 0.00 in0.0 mm 0.00 in/hr0.0 mm/hr 0.00 in0.0 mm
12:30 AM 25.2°F-3.8°C 20.8°F-6.2°C 83% 7.0 mph SE11.3 kmh SE 10.0 mph16.1 kmh 30.02 in1016.6 mb 0.00 in0.0 mm 0.00 in/hr0.0 mm/hr 0.00 in0.0 mm
12:31 AM 25.3°F-3.7°C 20.9°F-6.2°C 83% 7.0 mph SE11.3 kmh SE 10.0 mph16.1 kmh 30.02 in1016.6 mb 0.00 in0.0 mm 0.00 in/hr0.0 mm/hr 0.00 in0.0 mm
12:32 AM 25.3°F-3.7°C 20.9°F-6.2°C 83% 7.0 mph SE11.3 kmh SE 7.0 mph11.3 kmh 30.02 in1016.6 mb 0.00 in0.0 mm 0.00 in/hr0.0 mm/hr 0.00 in0.0 mm
12:33 AM 25.3°F-3.7°C 20.9°F-6.2°C 83% 7.0 mph SE11.3 kmh SE 8.0 mph12.9 kmh 30.02 in1016.6 mb 0.00 in0.0 mm 0.00 in/hr0.0 mm/hr 0.00 in0.0 mm
12:34 AM 25.3°F-3.7°C 20.9°F-6.2°C 83% 6.0 mph SE9.7 kmh SE 10.0 mph16.1 kmh 30.02 in1016.6 mb 0.00 in0.0 mm 0.00 in/hr0.0 mm/hr 0.00 in0.0 mm
12:35 AM 25.4°F-3.7°C 21.0°F-6.1°C 83% 7.0 mph SE11.3 kmh SE 10.0 mph16.1 kmh 30.02 in1016.6 mb 0.00 in0.0 mm 0.00 in/hr0.0 mm/hr 0.00 in0.0 mm
12:36 AM 25.4°F-3.7°C 21.0°F-6.1°C 83% 7.0 mph SE11.3 kmh SE 10.0 mph16.1 kmh 30.02 in1016.6 mb 0.00 in0.0 mm 0.00 in/hr0.0 mm/hr 0.00 in0.0 mm
12:37 AM 25.4°F-3.7°C 21.0°F-6.1°C 83% 7.0 mph SE11.3 kmh SE 10.0 mph16.1 kmh 30.01 in1016.3 mb 0.00 in0.0 mm 0.00 in/hr0.0 mm/hr 0.00 in0.0 mm
12:38 AM 25.4°F-3.7°C 21.0°F-6.1°C 83% 8.0 mph SE12.9 kmh SE 10.0 mph16.1 kmh 30.02 in1016.6 mb 0.00 in0.0 mm 0.00 in/hr0.0 mm/hr 0.00 in0.0 mm
12:39 AM 25.5°F-3.6°C 21.1°F-6.1°C 83% 6.0 mph SE9.7 kmh SE 10.0 mph16.1 kmh 30.02 in1016.6 mb 0.00 in0.0 mm 0.00 in/hr0.0 mm/hr 0.00 in0.0 mm
12:40 AM 25.5°F-3.6°C 21.1°F-6.1°C 83% 6.0 mph SE9.7 kmh SE 10.0 mph16.1 kmh 30.02 in1016.6 mb 0.00 in0.0 mm 0.00 in/hr0.0 mm/hr 0.00 in0.0 mm
12:41 AM 25.5°F-3.6°C 21.1°F-6.1°C 83% 8.0 mph SE12.9 kmh SE 10.0 mph16.1 kmh 30.02 in1016.6 mb 0.00 in0.0 mm 0.00 in/hr0.0 mm/hr 0.00 in0.0 mm
12:42 AM 25.6°F-3.6°C 21.2°F-6.0°C 83% 6.0 mph SE9.7 kmh SE 10.0 mph16.1 kmh 30.02 in1016.6 mb 0.00 in0.0 mm 0.00 in/hr0.0 mm/hr 0.00 in0.0 mm
12:43 AM 25.6°F-3.6°C 21.2°F-6.0°C 83% 5.0 mph SE8.0 kmh SE 10.0 mph16.1 kmh 30.02 in1016.6 mb 0.00 in0.0 mm 0.00 in/hr0.0 mm/hr 0.00 in0.0 mm
12:44 AM 25.6°F-3.6°C 21.2°F-6.0°C 83% 6.0 mph SE9.7 kmh SE 10.0 mph16.1 kmh 30.01 in1016.3 mb 0.00 in0.0 mm 0.00 in/hr0.0 mm/hr 0.00 in0.0 mm
12:45 AM 25.7°F-3.5°C 21.3°F-5.9°C 83% 7.0 mph SE11.3 kmh SE 10.0 mph16.1 kmh 30.02 in1016.6 mb 0.00 in0.0 mm 0.00 in/hr0.0 mm/hr 0.00 in0.0 mm
12:46 AM 25.7°F-3.5°C 21.0°F-6.1°C 82% 7.0 mph SE11.3 kmh SE 10.0 mph16.1 kmh 30.01 in1016.3 mb 0.00 in0.0 mm 0.00 in/hr0.0 mm/hr 0.00 in0.0 mm
12:47 AM 25.7°F-3.5°C 21.0°F-6.1°C 82% 10.0 mph SE16.1 kmh SE 10.0 mph16.1 kmh 30.02 in1016.6 mb 0.00 in0.0 mm 0.00 in/hr0.0 mm/hr 0.00 in0.0 mm
12:48 AM 25.7°F-3.5°C 21.0°F-6.1°C 82% 8.0 mph SE12.9 kmh SE 10.0 mph16.1 kmh 30.01 in1016.3 mb 0.00 in0.0 mm 0.00 in/hr0.0 mm/hr 0.00 in0.0 mm
12:49 AM 25.8°F-3.4°C 21.1°F-6.1°C 82% 7.0 mph SE11.3 kmh SE 10.0 mph16.1 kmh 30.01 in1016.3 mb 0.00 in0.0 mm 0.00 in/hr0.0 mm/hr 0.00 in0.0 mm
12:50 AM 25.8°F-3.4°C 21.1°F-6.1°C 82% 8.0 mph SE12.9 kmh SE 10.0 mph16.1 kmh 30.01 in1016.3 mb 0.00 in0.0 mm 0.00 in/hr0.0 mm/hr 0.00 in0.0 mm
12:51 AM 25.8°F-3.4°C 21.1°F-6.1°C 82% 8.0 mph SE12.9 kmh SE 10.0 mph16.1 kmh 30.02 in1016.6 mb 0.00 in0.0 mm 0.00 in/hr0.0 mm/hr 0.00 in0.0 mm
12:52 AM 25.8°F-3.4°C 21.1°F-6.1°C 82% 8.0 mph SE12.9 kmh SE 10.0 mph16.1 kmh 30.02 in1016.6 mb 0.00 in0.0 mm 0.00 in/hr0.0 mm/hr 0.00 in0.0 mm
12:53 AM 25.9°F-3.4°C 21.2°F-6.0°C 82% 10.0 mph SE16.1 kmh SE 10.0 mph16.1 kmh 30.02 in1016.6 mb 0.00 in0.0 mm 0.00 in/hr0.0 mm/hr 0.00 in0.0 mm
12:54 AM 25.9°F-3.4°C 21.2°F-6.0°C 82% 9.0 mph SE14.5 kmh SE 11.0 mph17.7 kmh 30.02 in1016.6 mb 0.00 in0.0 mm 0.00 in/hr0.0 mm/hr 0.00 in0.0 mm
12:55 AM 25.9°F-3.4°C 20.9°F-6.2°C 81% 7.0 mph SE11.3 kmh SE 11.0 mph17.7 kmh 30.02 in1016.6 mb 0.00 in0.0 mm 0.00 in/hr0.0 mm/hr 0.00 in0.0 mm
12:56 AM 26.0°F-3.3°C 21.0°F-6.1°C 81% 9.0 mph SE14.5 kmh SE 11.0 mph17.7 kmh 30.02 in1016.6 mb 0.00 in0.0 mm 0.00 in/hr0.0 mm/hr 0.00 in0.0 mm
12:57 AM 26.0°F-3.3°C 21.0°F-6.1°C 81% 10.0 mph SE16.1 kmh SE 12.0 mph19.3 kmh 30.02 in1016.6 mb 0.00 in0.0 mm 0.00 in/hr0.0 mm/hr 0.00 in0.0 mm
12:58 AM 26.1°F-3.3°C 21.1°F-6.1°C 81% 8.0 mph SE12.9 kmh SE 12.0 mph19.3 kmh 30.02 in1016.6 mb 0.00 in0.0 mm 0.00 in/hr0.0 mm/hr 0.00 in0.0 mm
12:59 AM 26.1°F-3.3°C 21.1°F-6.1°C 81% 9.0 mph SE14.5 kmh SE 12.0 mph19.3 kmh 30.02 in1016.6 mb 0.00 in0.0 mm 0.00 in/hr0.0 mm/hr 0.00 in0.0 mm
01:00 AM 26.1°F-3.3°C 21.1°F-6.1°C 81% 9.0 mph SE14.5 kmh SE 12.0 mph19.3 kmh 30.01 in1016.3 mb 0.00 in0.0 mm 0.00 in/hr0.0 mm/hr 0.00 in0.0 mm
01:01 AM 26.1°F-3.3°C 21.1°F-6.1°C 81% 11.0 mph SE17.7 kmh SE 12.0 mph19.3 kmh 30.01 in1016.3 mb 0.00 in0.0 mm 0.00 in/hr0.0 mm/hr 0.00 in0.0 mm
01:02 AM 26.1°F-3.3°C 21.1°F-6.1°C 81% 9.0 mph SE14.5 kmh SE 9.0 mph14.5 kmh 30.01 in1016.3 mb 0.00 in0.0 mm 0.00 in/hr0.0 mm/hr 0.00 in0.0 mm
01:03 AM 26.2°F-3.2°C 21.2°F-6.0°C 81% 10.0 mph SE16.1 kmh SE 13.0 mph20.9 kmh 30.01 in1016.3 mb 0.00 in0.0 mm 0.00 in/hr0.0 mm/hr 0.00 in0.0 mm
01:04 AM 26.2°F-3.2°C 21.2°F-6.0°C 81% 10.0 mph SE16.1 kmh SE 13.0 mph20.9 kmh 30.01 in1016.3 mb 0.00 in0.0 mm 0.00 in/hr0.0 mm/hr 0.00 in0.0 mm
01:05 AM 26.2°F-3.2°C 20.9°F-6.2°C 80% 7.0 mph SE11.3 kmh SE 13.0 mph20.9 kmh 30.01 in1016.3 mb 0.00 in0.0 mm 0.00 in/hr0.0 mm/hr 0.00 in0.0 mm
01:06 AM 26.3°F-3.2°C 21.0°F-6.1°C 80% 10.0 mph SE16.1 kmh SE 15.0 mph24.1 kmh 30.01 in1016.3 mb 0.00 in0.0 mm 0.00 in/hr0.0 mm/hr 0.00 in0.0 mm
01:07 AM 26.3°F-3.2°C 21.0°F-6.1°C 80% 8.0 mph SE12.9 kmh SE 15.0 mph24.1 kmh 30.01 in1016.3 mb 0.00 in0.0 mm 0.00 in/hr0.0 mm/hr 0.00 in0.0 mm
01:08 AM 26.3°F-3.2°C 21.0°F-6.1°C 80% 8.0 mph SE12.9 kmh SE 15.0 mph24.1 kmh 30.01 in1016.3 mb 0.00 in0.0 mm 0.00 in/hr0.0 mm/hr 0.00 in0.0 mm
01:09 AM 26.3°F-3.2°C 21.0°F-6.1°C 80% 11.0 mph SE17.7 kmh SE 15.0 mph24.1 kmh 30.01 in1016.3 mb 0.00 in0.0 mm 0.00 in/hr0.0 mm/hr 0.00 in0.0 mm
01:10 AM 26.3°F-3.2°C 21.0°F-6.1°C 80% 9.0 mph SE14.5 kmh SE 15.0 mph24.1 kmh 30.01 in1016.3 mb 0.00 in0.0 mm 0.00 in/hr0.0 mm/hr 0.00 in0.0 mm
01:11 AM 26.4°F-3.1°C 21.1°F-6.1°C 80% 8.0 mph SE12.9 kmh SE 15.0 mph24.1 kmh 30.01 in1016.3 mb 0.00 in0.0 mm 0.00 in/hr0.0 mm/hr 0.00 in0.0 mm
01:12 AM 26.3°F-3.2°C 21.0°F-6.1°C 80% 8.0 mph SE12.9 kmh SE 15.0 mph24.1 kmh 30.01 in1016.3 mb 0.00 in0.0 mm 0.00 in/hr0.0 mm/hr 0.00 in0.0 mm
01:13 AM 26.3°F-3.2°C 21.0°F-6.1°C 80% 7.0 mph SE11.3 kmh SE 15.0 mph24.1 kmh 30.01 in1016.3 mb 0.00 in0.0 mm 0.00 in/hr0.0 mm/hr 0.00 in0.0 mm
01:14 AM 26.4°F-3.1°C 21.1°F-6.1°C 80% 9.0 mph SE14.5 kmh SE 15.0 mph24.1 kmh 30.01 in1016.3 mb 0.00 in0.0 mm 0.00 in/hr0.0 mm/hr 0.00 in0.0 mm
01:15 AM 26.4°F-3.1°C 21.1°F-6.1°C 80% 8.0 mph SE12.9 kmh SE 15.0 mph24.1 kmh 30.01 in1016.3 mb 0.00 in0.0 mm 0.00 in/hr0.0 mm/hr 0.00 in0.0 mm
01:16 AM 26.4°F-3.1°C 21.1°F-6.1°C 80% 10.0 mph SSE16.1 kmh SSE 15.0 mph24.1 kmh 30.01 in1016.3 mb 0.00 in0.0 mm 0.00 in/hr0.0 mm/hr 0.00 in0.0 mm
01:17 AM 26.4°F-3.1°C 21.1°F-6.1°C 80% 7.0 mph SE11.3 kmh SE 15.0 mph24.1 kmh 30.01 in1016.3 mb 0.00 in0.0 mm 0.00 in/hr0.0 mm/hr 0.00 in0.0 mm
01:18 AM 26.4°F-3.1°C 21.1°F-6.1°C 80% 9.0 mph SE14.5 kmh SE 15.0 mph24.1 kmh 30.01 in1016.3 mb 0.00 in0.0 mm 0.00 in/hr0.0 mm/hr 0.00 in0.0 mm
01:19 AM 26.4°F-3.1°C 21.1°F-6.1°C 80% 8.0 mph SE12.9 kmh SE 15.0 mph24.1 kmh 30.01 in1016.3 mb 0.00 in0.0 mm 0.00 in/hr0.0 mm/hr 0.00 in0.0 mm
01:20 AM 26.4°F-3.1°C 21.1°F-6.1°C 80% 10.0 mph SE16.1 kmh SE 15.0 mph24.1 kmh 30.01 in1016.3 mb 0.00 in0.0 mm 0.00 in/hr0.0 mm/hr 0.00 in0.0 mm
01:21 AM 26.4°F-3.1°C 21.1°F-6.1°C 80% 8.0 mph SSE12.9 kmh SSE 15.0 mph24.1 kmh 30.01 in1016.3 mb 0.00 in0.0 mm 0.00 in/hr0.0 mm/hr 0.00 in0.0 mm
01:22 AM 26.4°F-3.1°C 21.1°F-6.1°C 80% 11.0 mph SE17.7 kmh SE 15.0 mph24.1 kmh 30.01 in1016.3 mb 0.00 in0.0 mm 0.00 in/hr0.0 mm/hr 0.00 in0.0 mm
01:23 AM 26.4°F-3.1°C 21.1°F-6.1°C 80% 10.0 mph SE16.1 kmh SE 15.0 mph24.1 kmh 30.01 in1016.3 mb 0.00 in0.0 mm 0.00 in/hr0.0 mm/hr 0.00 in0.0 mm
01:24 AM 26.4°F-3.1°C 21.1°F-6.1°C 80% 11.0 mph SE17.7 kmh SE 15.0 mph24.1 kmh 30.01 in1016.3 mb 0.00 in0.0 mm 0.00 in/hr0.0 mm/hr 0.00 in0.0 mm
01:25 AM 26.4°F-3.1°C 21.1°F-6.1°C 80% 8.0 mph SE12.9 kmh SE 15.0 mph24.1 kmh 30.01 in1016.3 mb 0.00 in0.0 mm 0.00 in/hr0.0 mm/hr 0.00 in0.0 mm
01:26 AM 26.4°F-3.1°C 21.1°F-6.1°C 80% 11.0 mph SE17.7 kmh SE 15.0 mph24.1 kmh 30.01 in1016.3 mb 0.00 in0.0 mm 0.00 in/hr0.0 mm/hr 0.00 in0.0 mm
01:27 AM 26.4°F-3.1°C 21.4°F-5.9°C 81% 11.0 mph SE17.7 kmh SE 15.0 mph24.1 kmh 30.01 in1016.3 mb 0.00 in0.0 mm 0.00 in/hr0.0 mm/hr 0.00 in0.0 mm
01:28 AM 26.3°F-3.2°C 21.6°F-5.8°C 82% 7.0 mph SE11.3 kmh SE 15.0 mph24.1 kmh 30.01 in1016.3 mb 0.00 in0.0 mm 0.00 in/hr0.0 mm/hr 0.00 in0.0 mm
01:29 AM 26.4°F-3.1°C 21.7°F-5.7°C 82% 11.0 mph SE17.7 kmh SE 15.0 mph24.1 kmh 30.01 in1016.3 mb 0.00 in0.0 mm 0.00 in/hr0.0 mm/hr 0.00 in0.0 mm
01:30 AM 26.3°F-3.2°C 21.6°F-5.8°C 82% 11.0 mph SE17.7 kmh SE 15.0 mph24.1 kmh 30.01 in1016.3 mb 0.00 in0.0 mm 0.00 in/hr0.0 mm/hr 0.00 in0.0 mm
01:31 AM 26.3°F-3.2°C 21.6°F-5.8°C 82% 8.0 mph SE12.9 kmh SE 15.0 mph24.1 kmh 30.01 in1016.3 mb 0.00 in0.0 mm 0.00 in/hr0.0 mm/hr 0.00 in0.0 mm
01:32 AM 26.3°F-3.2°C 21.9°F-5.6°C 83% 8.0 mph SE12.9 kmh SE 9.0 mph14.5 kmh 30.01 in1016.3 mb 0.00 in0.0 mm 0.00 in/hr0.0 mm/hr 0.00 in0.0 mm
01:33 AM 26.2°F-3.2°C 21.8°F-5.7°C 83% 10.0 mph SE16.1 kmh SE 10.0 mph16.1 kmh 30.01 in1016.3 mb 0.00 in0.0 mm 0.00 in/hr0.0 mm/hr 0.00 in0.0 mm
01:34 AM 26.2°F-3.2°C 21.8°F-5.7°C 83% 7.0 mph SE11.3 kmh SE 11.0 mph17.7 kmh 30.01 in1016.3 mb 0.00 in0.0 mm 0.00 in/hr0.0 mm/hr 0.00 in0.0 mm
01:35 AM 26.2°F-3.2°C 22.0°F-5.6°C 84% 10.0 mph SE16.1 kmh SE 11.0 mph17.7 kmh 30.01 in1016.3 mb 0.00 in0.0 mm 0.00 in/hr0.0 mm/hr 0.00 in0.0 mm
01:36 AM 26.1°F-3.3°C 21.9°F-5.6°C 84% 13.0 mph SE20.9 kmh SE 13.0 mph20.9 kmh 30.01 in1016.3 mb 0.00 in0.0 mm 0.00 in/hr0.0 mm/hr 0.00 in0.0 mm
01:37 AM 26.1°F-3.3°C 21.9°F-5.6°C 84% 11.0 mph SE17.7 kmh SE 14.0 mph22.5 kmh 30.01 in1016.3 mb 0.00 in0.0 mm 0.00 in/hr0.0 mm/hr 0.00 in0.0 mm
01:38 AM 26.0°F-3.3°C 21.8°F-5.7°C 84% 9.0 mph SE14.5 kmh SE 14.0 mph22.5 kmh 30.01 in1016.3 mb 0.00 in0.0 mm 0.00 in/hr0.0 mm/hr 0.00 in0.0 mm
01:39 AM 26.0°F-3.3°C 22.1°F-5.5°C 85% 9.0 mph SE14.5 kmh SE 14.0 mph22.5 kmh 30.01 in1016.3 mb 0.00 in0.0 mm 0.00 in/hr0.0 mm/hr 0.00 in0.0 mm
01:40 AM 26.0°F-3.3°C 22.1°F-5.5°C 85% 10.0 mph SE16.1 kmh SE 14.0 mph22.5 kmh 30.01 in1016.3 mb 0.00 in0.0 mm 0.00 in/hr0.0 mm/hr 0.00 in0.0 mm
01:41 AM 25.9°F-3.4°C 22.0°F-5.6°C 85% 11.0 mph ESE17.7 kmh ESE 14.0 mph22.5 kmh 30.01 in1016.3 mb 0.00 in0.0 mm 0.00 in/hr0.0 mm/hr 0.00 in0.0 mm
01:42 AM 25.9°F-3.4°C 22.3°F-5.4°C 86% 10.0 mph SE16.1 kmh SE 14.0 mph22.5 kmh 30.01 in1016.3 mb 0.00 in0.0 mm 0.00 in/hr0.0 mm/hr 0.00 in0.0 mm
01:43 AM 25.8°F-3.4°C 22.2°F-5.4°C 86% 10.0 mph SE16.1 kmh SE 14.0 mph22.5 kmh 30.01 in1016.3 mb 0.00 in0.0 mm 0.00 in/hr0.0 mm/hr 0.00 in0.0 mm
01:44 AM 25.8°F-3.4°C 22.2°F-5.4°C 86% 10.0 mph SE16.1 kmh SE 14.0 mph22.5 kmh 30.01 in1016.3 mb 0.00 in0.0 mm 0.00 in/hr0.0 mm/hr 0.00 in0.0 mm
01:45 AM 25.8°F-3.4°C 22.5°F-5.3°C 87% 8.0 mph SE12.9 kmh SE 14.0 mph22.5 kmh 30.01 in1016.3 mb 0.00 in0.0 mm 0.00 in/hr0.0 mm/hr 0.00 in0.0 mm
01:46 AM 25.7°F-3.5°C 22.4°F-5.3°C 87% 8.0 mph SE12.9 kmh SE 14.0 mph22.5 kmh 30.01 in1016.3 mb 0.00 in0.0 mm 0.00 in/hr0.0 mm/hr 0.00 in0.0 mm
01:47 AM 25.7°F-3.5°C 22.4°F-5.3°C 87% 10.0 mph ESE16.1 kmh ESE 14.0 mph22.5 kmh 30.01 in1016.3 mb 0.00 in0.0 mm 0.00 in/hr0.0 mm/hr 0.00 in0.0 mm
01:48 AM 25.7°F-3.5°C 22.7°F-5.2°C 88% 8.0 mph ESE12.9 kmh ESE 14.0 mph22.5 kmh 30.01 in1016.3 mb 0.00 in0.0 mm 0.00 in/hr0.0 mm/hr 0.00 in0.0 mm
01:49 AM 25.7°F-3.5°C 22.7°F-5.2°C 88% 8.0 mph SE12.9 kmh SE 14.0 mph22.5 kmh 30.01 in1016.3 mb 0.00 in0.0 mm 0.00 in/hr0.0 mm/hr 0.00 in0.0 mm
01:50 AM 25.7°F-3.5°C 22.7°F-5.2°C 88% 8.0 mph SE12.9 kmh SE 14.0 mph22.5 kmh 30.01 in1016.3 mb 0.00 in0.0 mm 0.00 in/hr0.0 mm/hr 0.00 in0.0 mm
01:51 AM 25.7°F-3.5°C 22.7°F-5.2°C 88% 9.0 mph SE14.5 kmh SE 14.0 mph22.5 kmh 30.01 in1016.3 mb 0.00 in0.0 mm 0.00 in/hr0.0 mm/hr 0.00 in0.0 mm
01:52 AM 25.7°F-3.5°C 22.7°F-5.2°C 88% 7.0 mph SE11.3 kmh SE 14.0 mph22.5 kmh 30.01 in1016.3 mb 0.00 in0.0 mm 0.00 in/hr0.0 mm/hr 0.00 in0.0 mm
01:53 AM 25.7°F-3.5°C 22.7°F-5.2°C 88% 9.0 mph SE14.5 kmh SE 14.0 mph22.5 kmh 30.01 in1016.3 mb 0.00 in0.0 mm 0.00 in/hr0.0 mm/hr 0.00 in0.0 mm
01:54 AM 25.8°F-3.4°C 22.7°F-5.2°C 88% 8.0 mph SE12.9 kmh SE 14.0 mph22.5 kmh 30.01 in1016.3 mb 0.00 in0.0 mm 0.00 in/hr0.0 mm/hr 0.00 in0.0 mm
01:55 AM 25.8°F-3.4°C 22.7°F-5.2°C 88% 13.0 mph SE20.9 kmh SE 14.0 mph22.5 kmh 30.01 in1016.3 mb 0.00 in0.0 mm 0.00 in/hr0.0 mm/hr 0.00 in0.0 mm
01:56 AM 25.8°F-3.4°C 22.7°F-5.2°C 88% 11.0 mph SE17.7 kmh SE 14.0 mph22.5 kmh 30.01 in1016.3 mb 0.00 in0.0 mm 0.00 in/hr0.0 mm/hr 0.00 in0.0 mm
01:57 AM 25.9°F-3.4°C 22.6°F-5.2°C 87% 11.0 mph ESE17.7 kmh ESE 14.0 mph22.5 kmh 30.01 in1016.3 mb 0.00 in0.0 mm 0.00 in/hr0.0 mm/hr 0.00 in0.0 mm
01:58 AM 25.9°F-3.4°C 22.6°F-5.2°C 87% 8.0 mph SE12.9 kmh SE 14.0 mph22.5 kmh 30.01 in1016.3 mb 0.00 in0.0 mm 0.00 in/hr0.0 mm/hr 0.00 in0.0 mm
01:59 AM 26.0°F-3.3°C 22.7°F-5.2°C 87% 11.0 mph ESE17.7 kmh ESE 14.0 mph22.5 kmh 30.01 in1016.3 mb 0.00 in0.0 mm 0.00 in/hr0.0 mm/hr 0.00 in0.0 mm
02:00 AM 26.0°F-3.3°C 22.7°F-5.2°C 87% 8.0 mph SE12.9 kmh SE 14.0 mph22.5 kmh 30.01 in1016.3 mb 0.00 in0.0 mm 0.00 in/hr0.0 mm/hr 0.00 in0.0 mm
02:01 AM 26.0°F-3.3°C 22.7°F-5.2°C 87% 9.0 mph SE14.5 kmh SE 14.0 mph22.5 kmh 30.01 in1016.3 mb 0.00 in0.0 mm 0.00 in/hr0.0 mm/hr 0.00 in0.0 mm
02:02 AM 26.1°F-3.3°C 22.8°F-5.1°C 87% 11.0 mph ESE17.7 kmh ESE 12.0 mph19.3 kmh 30.01 in1016.3 mb 0.00 in0.0 mm 0.00 in/hr0.0 mm/hr 0.00 in0.0 mm
02:03 AM 26.1°F-3.3°C 22.8°F-5.1°C 87% 10.0 mph ESE16.1 kmh ESE 12.0 mph19.3 kmh 30.01 in1016.3 mb 0.00 in0.0 mm 0.00 in/hr0.0 mm/hr 0.00 in0.0 mm
02:04 AM 26.1°F-3.3°C 22.8°F-5.1°C 87% 11.0 mph ESE17.7 kmh ESE 13.0 mph20.9 kmh 30.01 in1016.3 mb 0.00 in0.0 mm 0.00 in/hr0.0 mm/hr 0.00 in0.0 mm
02:05 AM 26.1°F-3.3°C 22.8°F-5.1°C 87% 13.0 mph ESE20.9 kmh ESE 14.0 mph22.5 kmh 30.01 in1016.3 mb 0.00 in0.0 mm 0.00 in/hr0.0 mm/hr 0.00 in0.0 mm
02:06 AM 26.1°F-3.3°C 22.8°F-5.1°C 87% 9.0 mph SE14.5 kmh SE 14.0 mph22.5 kmh 30.01 in1016.3 mb 0.00 in0.0 mm 0.00 in/hr0.0 mm/hr 0.00 in0.0 mm
02:07 AM 26.1°F-3.3°C 22.8°F-5.1°C 87% 11.0 mph ESE17.7 kmh ESE 14.0 mph22.5 kmh 30.01 in1016.3 mb 0.00 in0.0 mm 0.00 in/hr0.0 mm/hr 0.00 in0.0 mm
02:08 AM 26.1°F-3.3°C 22.8°F-5.1°C 87% 9.0 mph ESE14.5 kmh ESE 14.0 mph22.5 kmh 30.01 in1016.3 mb 0.00 in0.0 mm 0.00 in/hr0.0 mm/hr 0.00 in0.0 mm
02:09 AM 26.1°F-3.3°C 22.8°F-5.1°C 87% 9.0 mph E14.5 kmh E 14.0 mph22.5 kmh 30.01 in1016.3 mb 0.00 in0.0 mm 0.00 in/hr0.0 mm/hr 0.00 in0.0 mm
02:10 AM 26.1°F-3.3°C 22.8°F-5.1°C 87% 9.0 mph ESE14.5 kmh ESE 14.0 mph22.5 kmh 30.01 in1016.3 mb 0.00 in0.0 mm 0.00 in/hr0.0 mm/hr 0.00 in0.0 mm
02:11 AM 26.1°F-3.3°C 23.0°F-5.0°C 88% 8.0 mph E12.9 kmh E 14.0 mph22.5 kmh 30.01 in1016.3 mb 0.00 in0.0 mm 0.00 in/hr0.0 mm/hr 0.00 in0.0 mm
02:12 AM 26.1°F-3.3°C 23.0°F-5.0°C 88% 9.0 mph ESE14.5 kmh ESE 14.0 mph22.5 kmh 30.01 in1016.3 mb 0.00 in0.0 mm 0.00 in/hr0.0 mm/hr 0.00 in0.0 mm
02:13 AM 26.0°F-3.3°C 22.9°F-5.1°C 88% 9.0 mph E14.5 kmh E 14.0 mph22.5 kmh 30.01 in1016.3 mb 0.00 in0.0 mm 0.00 in/hr0.0 mm/hr 0.00 in0.0 mm
02:14 AM 26.0°F-3.3°C 22.9°F-5.1°C 88% 10.0 mph ESE16.1 kmh ESE 14.0 mph22.5 kmh 30.01 in1016.3 mb 0.00 in0.0 mm 0.00 in/hr0.0 mm/hr 0.00 in0.0 mm
02:15 AM 26.0°F-3.3°C 22.9°F-5.1°C 88% 10.0 mph ESE16.1 kmh ESE 14.0 mph22.5 kmh 30.01 in1016.3 mb 0.00 in0.0 mm 0.00 in/hr0.0 mm/hr 0.00 in0.0 mm
02:16 AM 26.0°F-3.3°C 22.9°F-5.1°C 88% 9.0 mph ESE14.5 kmh ESE 14.0 mph22.5 kmh 30.01 in1016.3 mb 0.00 in0.0 mm 0.00 in/hr0.0 mm/hr 0.00 in0.0 mm
02:17 AM 25.9°F-3.4°C 22.8°F-5.1°C 88% 10.0 mph SE16.1 kmh SE 14.0 mph22.5 kmh 30.01 in1016.3 mb 0.00 in0.0 mm 0.00 in/hr0.0 mm/hr 0.00 in0.0 mm
02:18 AM 25.9°F-3.4°C 22.8°F-5.1°C 88% 7.0 mph ESE11.3 kmh ESE 14.0 mph22.5 kmh 30.01 in1016.3 mb 0.00 in0.0 mm 0.00 in/hr0.0 mm/hr 0.00 in0.0 mm
02:19 AM 25.9°F-3.4°C 22.8°F-5.1°C 88% 10.0 mph ESE16.1 kmh ESE 14.0 mph22.5 kmh 30.01 in1016.3 mb 0.00 in0.0 mm 0.00 in/hr0.0 mm/hr 0.00 in0.0 mm
02:20 AM 25.8°F-3.4°C 22.7°F-5.2°C 88% 9.0 mph ESE14.5 kmh ESE 14.0 mph22.5 kmh 30.01 in1016.3 mb 0.00 in0.0 mm 0.00 in/hr0.0 mm/hr 0.00 in0.0 mm
02:21 AM 25.8°F-3.4°C 22.7°F-5.2°C 88% 9.0 mph ESE14.5 kmh ESE 14.0 mph22.5 kmh 30.01 in1016.3 mb 0.00 in0.0 mm 0.00 in/hr0.0 mm/hr 0.00 in0.0 mm
02:22 AM 25.8°F-3.4°C 22.7°F-5.2°C 88% 10.0 mph ESE16.1 kmh ESE 14.0 mph22.5 kmh 30.01 in1016.3 mb 0.00 in0.0 mm 0.00 in/hr0.0 mm/hr 0.00 in0.0 mm
02:23 AM 25.8°F-3.4°C 22.7°F-5.2°C 88% 11.0 mph SE17.7 kmh SE 14.0 mph22.5 kmh 30.01 in1016.3 mb 0.00 in0.0 mm 0.00 in/hr0.0 mm/hr 0.00 in0.0 mm
02:24 AM 25.8°F-3.4°C 23.0°F-5.0°C 89% 8.0 mph ESE12.9 kmh ESE 14.0 mph22.5 kmh 30.01 in1016.3 mb 0.00 in0.0 mm 0.00 in/hr0.0 mm/hr 0.00 in0.0 mm
02:25 AM 25.8°F-3.4°C 23.0°F-5.0°C 89% 8.0 mph ESE12.9 kmh ESE 14.0 mph22.5 kmh 30.01 in1016.3 mb 0.00 in0.0 mm 0.00 in/hr0.0 mm/hr 0.00 in0.0 mm
02:26 AM 25.8°F-3.4°C 23.0°F-5.0°C 89% 10.0 mph ESE16.1 kmh ESE 14.0 mph22.5 kmh 30.01 in1016.3 mb 0.00 in0.0 mm 0.00 in/hr0.0 mm/hr 0.00 in0.0 mm
02:27 AM 25.8°F-3.4°C 23.0°F-5.0°C 89% 12.0 mph ESE19.3 kmh ESE 14.0 mph22.5 kmh 30.01 in1016.3 mb 0.00 in0.0 mm 0.00 in/hr0.0 mm/hr 0.00 in0.0 mm
02:28 AM 25.8°F-3.4°C 23.0°F-5.0°C 89% 8.0 mph ESE12.9 kmh ESE 14.0 mph22.5 kmh 30.01 in1016.3 mb 0.00 in0.0 mm 0.00 in/hr0.0 mm/hr 0.00 in0.0 mm
02:29 AM 25.8°F-3.4°C 23.0°F-5.0°C 89% 10.0 mph ESE16.1 kmh ESE 14.0 mph22.5 kmh 30.01 in1016.3 mb 0.00 in0.0 mm 0.00 in/hr0.0 mm/hr 0.00 in0.0 mm
02:30 AM 25.8°F-3.4°C 23.0°F-5.0°C 89% 8.0 mph ESE12.9 kmh ESE 14.0 mph22.5 kmh 30.01 in1016.3 mb 0.00 in0.0 mm 0.00 in/hr0.0 mm/hr 0.00 in0.0 mm
02:31 AM 25.8°F-3.4°C 23.0°F-5.0°C 89% 11.0 mph ESE17.7 kmh ESE 14.0 mph22.5 kmh 30.01 in1016.3 mb 0.00 in0.0 mm 0.00 in/hr0.0 mm/hr 0.00 in0.0 mm
02:32 AM 25.8°F-3.4°C 23.0°F-5.0°C 89% 8.0 mph SE12.9 kmh SE 11.0 mph17.7 kmh 30.01 in1016.3 mb 0.00 in0.0 mm 0.00 in/hr0.0 mm/hr 0.00 in0.0 mm
02:33 AM 25.8°F-3.4°C 23.0°F-5.0°C 89% 8.0 mph ESE12.9 kmh ESE 11.0 mph17.7 kmh 30.01 in1016.3 mb 0.00 in0.0 mm 0.00 in/hr0.0 mm/hr 0.00 in0.0 mm
02:34 AM 25.8°F-3.4°C 23.0°F-5.0°C 89% 11.0 mph ESE17.7 kmh ESE 12.0 mph19.3 kmh 30.01 in1016.3 mb 0.00 in0.0 mm 0.00 in/hr0.0 mm/hr 0.00 in0.0 mm
02:35 AM 25.8°F-3.4°C 23.0°F-5.0°C 89% 10.0 mph ESE16.1 kmh ESE 12.0 mph19.3 kmh 30.01 in1016.3 mb 0.00 in0.0 mm 0.00 in/hr0.0 mm/hr 0.00 in0.0 mm
02:36 AM 25.8°F-3.4°C 23.0°F-5.0°C 89% 11.0 mph ESE17.7 kmh ESE 12.0 mph19.3 kmh 30.01 in1016.3 mb 0.00 in0.0 mm 0.00 in/hr0.0 mm/hr 0.00 in0.0 mm
02:37 AM 25.9°F-3.4°C 23.1°F-4.9°C 89% 12.0 mph SE19.3 kmh SE 13.0 mph20.9 kmh 30.01 in1016.3 mb 0.00 in0.0 mm 0.00 in/hr0.0 mm/hr 0.00 in0.0 mm
02:38 AM 25.9°F-3.4°C 23.1°F-4.9°C 89% 8.0 mph SE12.9 kmh SE 13.0 mph20.9 kmh 30.01 in1016.3 mb 0.00 in0.0 mm 0.00 in/hr0.0 mm/hr 0.00 in0.0 mm
02:39 AM 25.9°F-3.4°C 23.1°F-4.9°C 89% 11.0 mph ESE17.7 kmh ESE 13.0 mph20.9 kmh 30.01 in1016.3 mb 0.00 in0.0 mm 0.00 in/hr0.0 mm/hr 0.00 in0.0 mm
02:40 AM 25.9°F-3.4°C 23.1°F-4.9°C 89% 9.0 mph SE14.5 kmh SE 13.0 mph20.9 kmh 30.01 in1016.3 mb 0.00 in0.0 mm 0.00 in/hr0.0 mm/hr 0.00 in0.0 mm
02:41 AM 25.9°F-3.4°C 23.1°F-4.9°C 89% 13.0 mph ESE20.9 kmh ESE 13.0 mph20.9 kmh 30.01 in1016.3 mb 0.00 in0.0 mm 0.00 in/hr0.0 mm/hr 0.00 in0.0 mm
02:42 AM 25.9°F-3.4°C 23.1°F-4.9°C 89% 10.0 mph SE16.1 kmh SE 13.0 mph20.9 kmh 30.01 in1016.3 mb 0.00 in0.0 mm 0.00 in/hr0.0 mm/hr 0.00 in0.0 mm
02:43 AM 26.0°F-3.3°C 23.2°F-4.9°C 89% 8.0 mph SE12.9 kmh SE 13.0 mph20.9 kmh 30.01 in1016.3 mb 0.00 in0.0 mm 0.00 in/hr0.0 mm/hr 0.00 in0.0 mm
02:44 AM 26.0°F-3.3°C 23.2°F-4.9°C 89% 10.0 mph ESE16.1 kmh ESE 13.0 mph20.9 kmh 30.01 in1016.3 mb 0.00 in0.0 mm 0.00 in/hr0.0 mm/hr 0.00 in0.0 mm
02:45 AM 26.0°F-3.3°C 23.2°F-4.9°C 89% 10.0 mph SE16.1 kmh SE 13.0 mph20.9 kmh 30.01 in1016.3 mb 0.00 in0.0 mm 0.00 in/hr0.0 mm/hr 0.00 in0.0 mm
02:46 AM 25.9°F-3.4°C 23.1°F-4.9°C 89% 11.0 mph SE17.7 kmh SE 13.0 mph20.9 kmh 30.01 in1016.3 mb 0.00 in0.0 mm 0.00 in/hr0.0 mm/hr 0.00 in0.0 mm
02:47 AM 25.9°F-3.4°C 23.1°F-4.9°C 89% 10.0 mph E16.1 kmh E 13.0 mph20.9 kmh 30.01 in1016.3 mb 0.00 in0.0 mm 0.00 in/hr0.0 mm/hr 0.00 in0.0 mm
02:48 AM 25.9°F-3.4°C 23.4°F-4.8°C 90% 10.0 mph SE16.1 kmh SE 13.0 mph20.9 kmh 30.01 in1016.3 mb 0.00 in0.0 mm 0.00 in/hr0.0 mm/hr 0.00 in0.0 mm
02:49 AM 25.9°F-3.4°C 23.4°F-4.8°C 90% 8.0 mph ESE12.9 kmh ESE 13.0 mph20.9 kmh 30.01 in1016.3 mb 0.00 in0.0 mm 0.00 in/hr0.0 mm/hr 0.00 in0.0 mm
02:50 AM 25.9°F-3.4°C 23.4°F-4.8°C 90% 8.0 mph ESE12.9 kmh ESE 13.0 mph20.9 kmh 30.01 in1016.3 mb 0.00 in0.0 mm 0.00 in/hr0.0 mm/hr 0.00 in0.0 mm
02:51 AM 25.9°F-3.4°C 23.4°F-4.8°C 90% 11.0 mph SE17.7 kmh SE 13.0 mph20.9 kmh 30.01 in1016.3 mb 0.00 in0.0 mm 0.00 in/hr0.0 mm/hr 0.00 in0.0 mm
02:52 AM 25.9°F-3.4°C 23.4°F-4.8°C 90% 9.0 mph ESE14.5 kmh ESE 13.0 mph20.9 kmh 30.01 in1016.3 mb 0.00 in0.0 mm 0.00 in/hr0.0 mm/hr 0.00 in0.0 mm
02:53 AM 25.8°F-3.4°C 23.3°F-4.8°C 90% 12.0 mph SE19.3 kmh SE 13.0 mph20.9 kmh 30.01 in1016.3 mb 0.00 in0.0 mm 0.00 in/hr0.0 mm/hr 0.00 in0.0 mm
02:54 AM 25.8°F-3.4°C 23.3°F-4.8°C 90% 8.0 mph SE12.9 kmh SE 13.0 mph20.9 kmh 30.01 in1016.3 mb 0.00 in0.0 mm 0.00 in/hr0.0 mm/hr 0.00 in0.0 mm
02:55 AM 25.8°F-3.4°C 23.3°F-4.8°C 90% 10.0 mph ESE16.1 kmh ESE 13.0 mph20.9 kmh 30.01 in1016.3 mb 0.00 in0.0 mm 0.00 in/hr0.0 mm/hr 0.00 in0.0 mm
02:56 AM 25.8°F-3.4°C 23.3°F-4.8°C 90% 9.0 mph ESE14.5 kmh ESE 13.0 mph20.9 kmh 30.01 in1016.3 mb 0.00 in0.0 mm 0.00 in/hr0.0 mm/hr 0.00 in0.0 mm
02:57 AM 25.8°F-3.4°C 23.5°F-4.7°C 91% 9.0 mph SE14.5 kmh SE 13.0 mph20.9 kmh 30.01 in1016.3 mb 0.00 in0.0 mm 0.00 in/hr0.0 mm/hr 0.00 in0.0 mm
02:58 AM 25.8°F-3.4°C 23.3°F-4.8°C 90% 8.0 mph ESE12.9 kmh ESE 13.0 mph20.9 kmh 30.01 in1016.3 mb 0.00 in0.0 mm 0.00 in/hr0.0 mm/hr 0.00 in0.0 mm
02:59 AM 25.8°F-3.4°C 23.5°F-4.7°C 91% 9.0 mph E14.5 kmh E 13.0 mph20.9 kmh 30.01 in1016.3 mb 0.00 in0.0 mm 0.00 in/hr0.0 mm/hr 0.00 in0.0 mm
03:00 AM 25.7°F-3.5°C 23.4°F-4.8°C 91% 11.0 mph ESE17.7 kmh ESE 13.0 mph20.9 kmh 30.01 in1016.3 mb 0.00 in0.0 mm 0.00 in/hr0.0 mm/hr 0.00 in0.0 mm
03:01 AM 25.7°F-3.5°C 23.4°F-4.8°C 91% 9.0 mph ESE14.5 kmh ESE 13.0 mph20.9 kmh 30.01 in1016.3 mb 0.00 in0.0 mm 0.00 in/hr0.0 mm/hr 0.00 in0.0 mm
03:02 AM 25.7°F-3.5°C 23.4°F-4.8°C 91% 9.0 mph SE14.5 kmh SE 11.0 mph17.7 kmh 30.01 in1016.3 mb 0.00 in0.0 mm 0.00 in/hr0.0 mm/hr 0.00 in0.0 mm
03:03 AM 25.7°F-3.5°C 23.4°F-4.8°C 91% 10.0 mph ESE16.1 kmh ESE 11.0 mph17.7 kmh 30.01 in1016.3 mb 0.00 in0.0 mm 0.00 in/hr0.0 mm/hr 0.00 in0.0 mm
03:04 AM 25.7°F-3.5°C 23.4°F-4.8°C 91% 10.0 mph ESE16.1 kmh ESE 11.0 mph17.7 kmh 30.01 in1016.3 mb 0.00 in0.0 mm 0.00 in/hr0.0 mm/hr 0.00 in0.0 mm
03:05 AM 25.6°F-3.6°C 23.3°F-4.8°C 91% 8.0 mph ESE12.9 kmh ESE 11.0 mph17.7 kmh 30.01 in1016.3 mb 0.00 in0.0 mm 0.00 in/hr0.0 mm/hr 0.00 in0.0 mm
03:06 AM 25.7°F-3.5°C 23.4°F-4.8°C 91% 9.0 mph ESE14.5 kmh ESE 11.0 mph17.7 kmh 30.01 in1016.3 mb 0.00 in0.0 mm 0.00 in/hr0.0 mm/hr 0.00 in0.0 mm
03:07 AM 25.7°F-3.5°C 23.4°F-4.8°C 91% 9.0 mph ESE14.5 kmh ESE 11.0 mph17.7 kmh 30.01 in1016.3 mb 0.00 in0.0 mm 0.00 in/hr0.0 mm/hr 0.00 in0.0 mm
03:08 AM 25.7°F-3.5°C 23.4°F-4.8°C 91% 10.0 mph ESE16.1 kmh ESE 11.0 mph17.7 kmh 30.01 in1016.3 mb 0.00 in0.0 mm 0.00 in/hr0.0 mm/hr 0.00 in0.0 mm
03:09 AM 25.6°F-3.6°C 23.3°F-4.8°C 91% 12.0 mph ESE19.3 kmh ESE 13.0 mph20.9 kmh 30.01 in1016.3 mb 0.00 in0.0 mm 0.00 in/hr0.0 mm/hr 0.00 in0.0 mm
03:10 AM 25.6°F-3.6°C 23.3°F-4.8°C 91% 9.0 mph ESE14.5 kmh ESE 13.0 mph20.9 kmh 30.01 in1016.3 mb 0.00 in0.0 mm 0.00 in/hr0.0 mm/hr 0.00 in0.0 mm
03:11 AM 25.6°F-3.6°C 23.3°F-4.8°C 91% 10.0 mph ESE16.1 kmh ESE 13.0 mph20.9 kmh 30.01 in1016.3 mb 0.00 in0.0 mm 0.00 in/hr0.0 mm/hr 0.00 in0.0 mm
03:12 AM 25.6°F-3.6°C 23.6°F-4.7°C 92% 9.0 mph ESE14.5 kmh ESE 13.0 mph20.9 kmh 30.01 in1016.3 mb 0.00 in0.0 mm 0.00 in/hr0.0 mm/hr 0.00 in0.0 mm
03:13 AM 25.6°F-3.6°C 23.6°F-4.7°C 92% 8.0 mph ESE12.9 kmh ESE 13.0 mph20.9 kmh 30.01 in1016.3 mb 0.00 in0.0 mm 0.00 in/hr0.0 mm/hr 0.00 in0.0 mm
03:14 AM 25.6°F-3.6°C 23.6°F-4.7°C 92% 12.0 mph ESE19.3 kmh ESE 13.0 mph20.9 kmh 30.01 in1016.3 mb 0.00 in0.0 mm 0.00 in/hr0.0 mm/hr 0.00 in0.0 mm
03:15 AM 25.6°F-3.6°C 23.6°F-4.7°C 92% 10.0 mph ESE16.1 kmh ESE 13.0 mph20.9 kmh 30.01 in1016.3 mb 0.00 in0.0 mm 0.00 in/hr0.0 mm/hr 0.00 in0.0 mm
03:16 AM 25.6°F-3.6°C 23.6°F-4.7°C 92% 11.0 mph ESE17.7 kmh ESE 13.0 mph20.9 kmh 30.01 in1016.3 mb 0.00 in0.0 mm 0.00 in/hr0.0 mm/hr 0.00 in0.0 mm
03:17 AM 25.6°F-3.6°C 23.6°F-4.7°C 92% 12.0 mph ESE19.3 kmh ESE 13.0 mph20.9 kmh 30.01 in1016.3 mb 0.00 in0.0 mm 0.00 in/hr0.0 mm/hr 0.00 in0.0 mm
03:18 AM 25.6°F-3.6°C 23.6°F-4.7°C 92% 11.0 mph ESE17.7 kmh ESE 14.0 mph22.5 kmh 30.01 in1016.3 mb 0.00 in0.0 mm 0.00 in/hr0.0 mm/hr 0.00 in0.0 mm
03:19 AM 25.6°F-3.6°C 23.6°F-4.7°C 92% 11.0 mph ESE17.7 kmh ESE 14.0 mph22.5 kmh 30.01 in1016.3 mb 0.00 in0.0 mm 0.00 in/hr0.0 mm/hr 0.00 in0.0 mm
03:20 AM 25.6°F-3.6°C 23.6°F-4.7°C 92% 9.0 mph ESE14.5 kmh ESE 14.0 mph22.5 kmh 30.01 in1016.3 mb 0.00 in0.0 mm 0.00 in/hr0.0 mm/hr 0.00 in0.0 mm
03:21 AM 25.6°F-3.6°C 23.6°F-4.7°C 92% 9.0 mph ESE14.5 kmh ESE 14.0 mph22.5 kmh 30.01 in1016.3 mb 0.00 in0.0 mm 0.00 in/hr0.0 mm/hr 0.00 in0.0 mm
03:22 AM 25.6°F-3.6°C 23.6°F-4.7°C 92% 9.0 mph ESE14.5 kmh ESE 14.0 mph22.5 kmh 30.01 in1016.3 mb 0.00 in0.0 mm 0.00 in/hr0.0 mm/hr 0.00 in0.0 mm
03:23 AM 25.6°F-3.6°C 23.6°F-4.7°C 92% 10.0 mph E16.1 kmh E 14.0 mph22.5 kmh 30.01 in1016.3 mb 0.00 in0.0 mm 0.00 in/hr0.0 mm/hr 0.00 in0.0 mm
03:24 AM 25.6°F-3.6°C 23.6°F-4.7°C 92% 8.0 mph ESE12.9 kmh ESE 14.0 mph22.5 kmh 30.01 in1016.3 mb 0.00 in0.0 mm 0.00 in/hr0.0 mm/hr 0.00 in0.0 mm
03:25 AM 25.6°F-3.6°C 23.6°F-4.7°C 92% 8.0 mph ESE12.9 kmh ESE 14.0 mph22.5 kmh 30.01 in1016.3 mb 0.00 in0.0 mm 0.00 in/hr0.0 mm/hr 0.00 in0.0 mm
03:26 AM 25.6°F-3.6°C 23.6°F-4.7°C 92% 9.0 mph E14.5 kmh E 14.0 mph22.5 kmh 30.01 in1016.3 mb 0.00 in0.0 mm 0.00 in/hr0.0 mm/hr 0.00 in0.0 mm
03:27 AM 25.6°F-3.6°C 23.6°F-4.7°C 92% 11.0 mph E17.7 kmh E 14.0 mph22.5 kmh 30.01 in1016.3 mb 0.00 in0.0 mm 0.00 in/hr0.0 mm/hr 0.00 in0.0 mm
03:28 AM 25.5°F-3.6°C 23.5°F-4.7°C 92% 7.0 mph E11.3 kmh E 14.0 mph22.5 kmh 30.01 in1016.3 mb 0.00 in0.0 mm 0.00 in/hr0.0 mm/hr 0.00 in0.0 mm
03:29 AM 25.6°F-3.6°C 23.9°F-4.5°C 93% 10.0 mph E16.1 kmh E 14.0 mph22.5 kmh 30.01 in1016.3 mb 0.00 in0.0 mm 0.00 in/hr0.0 mm/hr 0.00 in0.0 mm
03:30 AM 25.6°F-3.6°C 23.9°F-4.5°C 93% 8.0 mph E12.9 kmh E 14.0 mph22.5 kmh 30.01 in1016.3 mb 0.00 in0.0 mm 0.00 in/hr0.0 mm/hr 0.00 in0.0 mm
03:31 AM 25.5°F-3.6°C 23.8°F-4.6°C 93% 7.0 mph E11.3 kmh E 14.0 mph22.5 kmh 30.01 in1016.3 mb 0.00 in0.0 mm 0.00 in/hr0.0 mm/hr 0.00 in0.0 mm
03:32 AM 25.6°F-3.6°C 23.9°F-4.5°C 93% 6.0 mph E9.7 kmh E 9.0 mph14.5 kmh 30.01 in1016.3 mb 0.00 in0.0 mm 0.00 in/hr0.0 mm/hr 0.00 in0.0 mm
03:33 AM 25.5°F-3.6°C 23.8°F-4.6°C 93% 13.0 mph E20.9 kmh E 13.0 mph20.9 kmh 30.01 in1016.3 mb 0.00 in0.0 mm 0.00 in/hr0.0 mm/hr 0.00 in0.0 mm
03:34 AM 25.5°F-3.6°C 23.8°F-4.6°C 93% 6.0 mph E9.7 kmh E 13.0 mph20.9 kmh 30.01 in1016.3 mb 0.00 in0.0 mm 0.00 in/hr0.0 mm/hr 0.00 in0.0 mm
03:35 AM 25.5°F-3.6°C 23.8°F-4.6°C 93% 8.0 mph ESE12.9 kmh ESE 13.0 mph20.9 kmh 30.01 in1016.3 mb 0.00 in0.0 mm 0.00 in/hr0.0 mm/hr 0.00 in0.0 mm
03:36 AM 25.6°F-3.6°C 23.9°F-4.5°C 93% 8.0 mph ESE12.9 kmh ESE 13.0 mph20.9 kmh 30.01 in1016.3 mb 0.00 in0.0 mm 0.00 in/hr0.0 mm/hr 0.00 in0.0 mm
03:37 AM 25.5°F-3.6°C 23.8°F-4.6°C 93% 9.0 mph E14.5 kmh E 13.0 mph20.9 kmh 30.01 in1016.3 mb 0.00 in0.0 mm 0.00 in/hr0.0 mm/hr 0.00 in0.0 mm
03:38 AM 25.5°F-3.6°C 23.8°F-4.6°C 93% 8.0 mph ESE12.9 kmh ESE 13.0 mph20.9 kmh 30.01 in1016.3 mb 0.00 in0.0 mm 0.00 in/hr0.0 mm/hr 0.00 in0.0 mm
03:39 AM 25.5°F-3.6°C 23.8°F-4.6°C 93% 10.0 mph E16.1 kmh E 13.0 mph20.9 kmh 30.01 in1016.3 mb 0.00 in0.0 mm 0.00 in/hr0.0 mm/hr 0.00 in0.0 mm
03:40 AM 25.5°F-3.6°C 23.8°F-4.6°C 93% 10.0 mph ESE16.1 kmh ESE 14.0 mph22.5 kmh 30.01 in1016.3 mb 0.00 in0.0 mm 0.00 in/hr0.0 mm/hr 0.00 in0.0 mm
03:41 AM 25.5°F-3.6°C 23.8°F-4.6°C 93% 9.0 mph ESE14.5 kmh ESE 14.0 mph22.5 kmh 30.01 in1016.3 mb 0.00 in0.0 mm 0.00 in/hr0.0 mm/hr 0.00 in0.0 mm
03:42 AM 25.5°F-3.6°C 23.8°F-4.6°C 93% 8.0 mph E12.9 kmh E 14.0 mph22.5 kmh 30.01 in1016.3 mb 0.00 in0.0 mm 0.00 in/hr0.0 mm/hr 0.00 in0.0 mm
03:43 AM 25.5°F-3.6°C 23.8°F-4.6°C 93% 9.0 mph E14.5 kmh E 14.0 mph22.5 kmh 30.01 in1016.3 mb 0.00 in0.0 mm 0.00 in/hr0.0 mm/hr 0.00 in0.0 mm
03:44 AM 25.5°F-3.6°C 23.8°F-4.6°C 93% 11.0 mph E17.7 kmh E 14.0 mph22.5 kmh 30.01 in1016.3 mb 0.00 in0.0 mm 0.00 in/hr0.0 mm/hr 0.00 in0.0 mm
03:45 AM 25.5°F-3.6°C 23.8°F-4.6°C 93% 8.0 mph E12.9 kmh E 14.0 mph22.5 kmh 30.01 in1016.3 mb 0.00 in0.0 mm 0.00 in/hr0.0 mm/hr 0.00 in0.0 mm
03:46 AM 25.5°F-3.6°C 23.8°F-4.6°C 93% 11.0 mph E17.7 kmh E 14.0 mph22.5 kmh 30.01 in1016.3 mb 0.00 in0.0 mm 0.00 in/hr0.0 mm/hr 0.00 in0.0 mm
03:47 AM 25.5°F-3.6°C 23.8°F-4.6°C 93% 7.0 mph E11.3 kmh E 14.0 mph22.5 kmh 30.01 in1016.3 mb 0.00 in0.0 mm 0.00 in/hr0.0 mm/hr 0.00 in0.0 mm
03:48 AM 25.5°F-3.6°C 23.8°F-4.6°C 93% 11.0 mph E17.7 kmh E 14.0 mph22.5 kmh 30.01 in1016.3 mb 0.00 in0.0 mm 0.00 in/hr0.0 mm/hr 0.00 in0.0 mm
03:49 AM 25.5°F-3.6°C 23.8°F-4.6°C 93% 10.0 mph ESE16.1 kmh ESE 14.0 mph22.5 kmh 30.01 in1016.3 mb 0.00 in0.0 mm 0.00 in/hr0.0 mm/hr 0.00 in0.0 mm
03:50 AM 25.5°F-3.6°C 24.0°F-4.4°C 94% 7.0 mph E11.3 kmh E 14.0 mph22.5 kmh 30.01 in1016.3 mb 0.00 in0.0 mm 0.00 in/hr0.0 mm/hr 0.00 in0.0 mm
03:51 AM 25.5°F-3.6°C 24.0°F-4.4°C 94% 12.0 mph ESE19.3 kmh ESE 14.0 mph22.5 kmh 30.01 in1016.3 mb 0.00 in0.0 mm 0.00 in/hr0.0 mm/hr 0.00 in0.0 mm
03:52 AM 25.5°F-3.6°C 24.0°F-4.4°C 94% 11.0 mph E17.7 kmh E 14.0 mph22.5 kmh 30.01 in1016.3 mb 0.00 in0.0 mm 0.00 in/hr0.0 mm/hr 0.00 in0.0 mm
03:53 AM 25.5°F-3.6°C 24.0°F-4.4°C 94% 10.0 mph E16.1 kmh E 14.0 mph22.5 kmh 30.01 in1016.3 mb 0.00 in0.0 mm 0.00 in/hr0.0 mm/hr 0.00 in0.0 mm
03:54 AM 25.5°F-3.6°C 23.8°F-4.6°C 93% 12.0 mph ESE19.3 kmh ESE 14.0 mph22.5 kmh 30.01 in1016.3 mb 0.00 in0.0 mm 0.00 in/hr0.0 mm/hr 0.00 in0.0 mm
03:55 AM 25.5°F-3.6°C 24.0°F-4.4°C 94% 11.0 mph ESE17.7 kmh ESE 14.0 mph22.5 kmh 30.01 in1016.3 mb 0.00 in0.0 mm 0.00 in/hr0.0 mm/hr 0.00 in0.0 mm
03:56 AM 25.5°F-3.6°C 24.0°F-4.4°C 94% 10.0 mph ESE16.1 kmh ESE 14.0 mph22.5 kmh 30.01 in1016.3 mb 0.00 in0.0 mm 0.00 in/hr0.0 mm/hr 0.00 in0.0 mm
03:57 AM 25.6°F-3.6°C 24.1°F-4.4°C 94% 8.0 mph E12.9 kmh E 14.0 mph22.5 kmh 30.01 in1016.3 mb 0.00 in0.0 mm 0.00 in/hr0.0 mm/hr 0.00 in0.0 mm
03:58 AM 25.6°F-3.6°C 24.1°F-4.4°C 94% 8.0 mph E12.9 kmh E 14.0 mph22.5 kmh 30.01 in1016.3 mb 0.00 in0.0 mm 0.00 in/hr0.0 mm/hr 0.00 in0.0 mm
03:59 AM 25.6°F-3.6°C 24.1°F-4.4°C 94% 10.0 mph E16.1 kmh E 14.0 mph22.5 kmh 30.01 in1016.3 mb 0.00 in0.0 mm 0.00 in/hr0.0 mm/hr 0.00 in0.0 mm
04:00 AM 25.6°F-3.6°C 24.1°F-4.4°C 94% 10.0 mph E16.1 kmh E 14.0 mph22.5 kmh 30.01 in1016.3 mb 0.00 in0.0 mm 0.00 in/hr0.0 mm/hr 0.00 in0.0 mm
04:01 AM 25.6°F-3.6°C 24.1°F-4.4°C 94% 10.0 mph E16.1 kmh E 14.0 mph22.5 kmh 30.01 in1016.3 mb 0.00 in0.0 mm 0.00 in/hr0.0 mm/hr 0.00 in0.0 mm
04:02 AM 25.6°F-3.6°C 24.1°F-4.4°C 94% 11.0 mph E17.7 kmh E 11.0 mph17.7 kmh 30.01 in1016.3 mb 0.00 in0.0 mm 0.00 in/hr0.0 mm/hr 0.00 in0.0 mm
04:03 AM 25.6°F-3.6°C 24.1°F-4.4°C 94% 9.0 mph E14.5 kmh E 11.0 mph17.7 kmh 30.02 in1016.6 mb 0.00 in0.0 mm 0.00 in/hr0.0 mm/hr 0.00 in0.0 mm
04:04 AM 25.6°F-3.6°C 24.1°F-4.4°C 94% 7.0 mph E11.3 kmh E 11.0 mph17.7 kmh 30.01 in1016.3 mb 0.00 in0.0 mm 0.00 in/hr0.0 mm/hr 0.00 in0.0 mm
04:05 AM 25.6°F-3.6°C 24.1°F-4.4°C 94% 8.0 mph E12.9 kmh E 11.0 mph17.7 kmh 30.02 in1016.6 mb 0.00 in0.0 mm 0.00 in/hr0.0 mm/hr 0.00 in0.0 mm
04:06 AM 25.6°F-3.6°C 24.1°F-4.4°C 94% 8.0 mph E12.9 kmh E 11.0 mph17.7 kmh 30.01 in1016.3 mb 0.00 in0.0 mm 0.00 in/hr0.0 mm/hr 0.00 in0.0 mm
04:07 AM 25.6°F-3.6°C 24.1°F-4.4°C 94% 8.0 mph E12.9 kmh E 11.0 mph17.7 kmh 30.02 in1016.6 mb 0.00 in0.0 mm 0.00 in/hr0.0 mm/hr 0.00 in0.0 mm
04:08 AM 25.6°F-3.6°C 24.1°F-4.4°C 94% 8.0 mph E12.9 kmh E 11.0 mph17.7 kmh 30.02 in1016.6 mb 0.00 in0.0 mm 0.00 in/hr0.0 mm/hr 0.00 in0.0 mm
04:09 AM 25.6°F-3.6°C 24.1°F-4.4°C 94% 10.0 mph E16.1 kmh E 12.0 mph19.3 kmh 30.01 in1016.3 mb 0.00 in0.0 mm 0.00 in/hr0.0 mm/hr 0.00 in0.0 mm
04:10 AM 25.6°F-3.6°C 24.1°F-4.4°C 94% 8.0 mph E12.9 kmh E 12.0 mph19.3 kmh 30.01 in1016.3 mb 0.00 in0.0 mm 0.00 in/hr0.0 mm/hr 0.00 in0.0 mm
04:11 AM 25.6°F-3.6°C 24.1°F-4.4°C 94% 8.0 mph ENE12.9 kmh ENE 12.0 mph19.3 kmh 30.01 in1016.3 mb 0.00 in0.0 mm 0.00 in/hr0.0 mm/hr 0.00 in0.0 mm
04:12 AM 25.6°F-3.6°C 24.1°F-4.4°C 94% 10.0 mph E16.1 kmh E 12.0 mph19.3 kmh 30.02 in1016.6 mb 0.00 in0.0 mm 0.00 in/hr0.0 mm/hr 0.00 in0.0 mm
04:13 AM 25.6°F-3.6°C 24.1°F-4.4°C 94% 9.0 mph ENE14.5 kmh ENE 12.0 mph19.3 kmh 30.01 in1016.3 mb 0.00 in0.0 mm 0.00 in/hr0.0 mm/hr 0.00 in0.0 mm
04:14 AM 25.6°F-3.6°C 24.1°F-4.4°C 94% 9.0 mph E14.5 kmh E 12.0 mph19.3 kmh 30.01 in1016.3 mb 0.00 in0.0 mm 0.00 in/hr0.0 mm/hr 0.00 in0.0 mm
04:15 AM 25.6°F-3.6°C 24.1°F-4.4°C 94% 10.0 mph E16.1 kmh E 13.0 mph20.9 kmh 30.01 in1016.3 mb 0.00 in0.0 mm 0.00 in/hr0.0 mm/hr 0.00 in0.0 mm
04:16 AM 25.6°F-3.6°C 24.1°F-4.4°C 94% 10.0 mph E16.1 kmh E 13.0 mph20.9 kmh 30.01 in1016.3 mb 0.00 in0.0 mm 0.00 in/hr0.0 mm/hr 0.00 in0.0 mm
04:17 AM 25.6°F-3.6°C 24.1°F-4.4°C 94% 9.0 mph E14.5 kmh E 13.0 mph20.9 kmh 30.01 in1016.3 mb 0.00 in0.0 mm 0.00 in/hr0.0 mm/hr 0.00 in0.0 mm
04:18 AM 25.6°F-3.6°C 24.1°F-4.4°C 94% 9.0 mph ENE14.5 kmh ENE 13.0 mph20.9 kmh 30.01 in1016.3 mb 0.00 in0.0 mm 0.00 in/hr0.0 mm/hr 0.00 in0.0 mm
04:19 AM 25.6°F-3.6°C 24.1°F-4.4°C 94% 7.0 mph E11.3 kmh E 13.0 mph20.9 kmh 30.01 in1016.3 mb 0.00 in0.0 mm 0.00 in/hr0.0 mm/hr 0.00 in0.0 mm
04:20 AM 25.6°F-3.6°C 24.1°F-4.4°C 94% 8.0 mph E12.9 kmh E 13.0 mph20.9 kmh 30.01 in1016.3 mb 0.00 in0.0 mm 0.00 in/hr0.0 mm/hr 0.00 in0.0 mm
04:21 AM 25.6°F-3.6°C 24.1°F-4.4°C 94% 9.0 mph E14.5 kmh E 13.0 mph20.9 kmh 30.01 in1016.3 mb 0.00 in0.0 mm 0.00 in/hr0.0 mm/hr 0.00 in0.0 mm
04:22 AM 25.6°F-3.6°C 24.1°F-4.4°C 94% 8.0 mph ENE12.9 kmh ENE 13.0 mph20.9 kmh 30.01 in1016.3 mb 0.00 in0.0 mm 0.00 in/hr0.0 mm/hr 0.00 in0.0 mm
04:23 AM 25.6°F-3.6°C 24.1°F-4.4°C 94% 7.0 mph ENE11.3 kmh ENE 13.0 mph20.9 kmh 30.01 in1016.3 mb 0.00 in0.0 mm 0.00 in/hr0.0 mm/hr 0.00 in0.0 mm
04:24 AM 25.6°F-3.6°C 24.1°F-4.4°C 94% 8.0 mph ENE12.9 kmh ENE 13.0 mph20.9 kmh 30.02 in1016.6 mb 0.00 in0.0 mm 0.00 in/hr0.0 mm/hr 0.00 in0.0 mm
04:25 AM 25.5°F-3.6°C 24.0°F-4.4°C 94% 5.0 mph ENE8.0 kmh ENE 13.0 mph20.9 kmh 30.01 in1016.3 mb 0.00 in0.0 mm 0.00 in/hr0.0 mm/hr 0.00 in0.0 mm
04:26 AM 25.5°F-3.6°C 24.0°F-4.4°C 94% 8.0 mph ENE12.9 kmh ENE 13.0 mph20.9 kmh 30.02 in1016.6 mb 0.00 in0.0 mm 0.00 in/hr0.0 mm/hr 0.00 in0.0 mm
04:27 AM 25.5°F-3.6°C 24.0°F-4.4°C 94% 7.0 mph ENE11.3 kmh ENE 13.0 mph20.9 kmh 30.01 in1016.3 mb 0.00 in0.0 mm 0.00 in/hr0.0 mm/hr 0.00 in0.0 mm
04:28 AM 25.5°F-3.6°C 24.0°F-4.4°C 94% 9.0 mph ENE14.5 kmh ENE 13.0 mph20.9 kmh 30.02 in1016.6 mb 0.00 in0.0 mm 0.00 in/hr0.0 mm/hr 0.00 in0.0 mm
04:29 AM 25.5°F-3.6°C 24.0°F-4.4°C 94% 8.0 mph ENE12.9 kmh ENE 13.0 mph20.9 kmh 30.01 in1016.3 mb 0.00 in0.0 mm 0.00 in/hr0.0 mm/hr 0.00 in0.0 mm
04:30 AM 25.5°F-3.6°C 24.0°F-4.4°C 94% 7.0 mph ENE11.3 kmh ENE 13.0 mph20.9 kmh 30.01 in1016.3 mb 0.00 in0.0 mm 0.00 in/hr0.0 mm/hr 0.00 in0.0 mm
04:31 AM 25.5°F-3.6°C 24.0°F-4.4°C 94% 7.0 mph ENE11.3 kmh ENE 13.0 mph20.9 kmh 30.02 in1016.6 mb 0.00 in0.0 mm 0.00 in/hr0.0 mm/hr 0.00 in0.0 mm
04:32 AM 25.5°F-3.6°C 24.0°F-4.4°C 94% 8.0 mph ENE12.9 kmh ENE 9.0 mph14.5 kmh 30.02 in1016.6 mb 0.00 in0.0 mm 0.00 in/hr0.0 mm/hr 0.00 in0.0 mm
04:33 AM 25.5°F-3.6°C 24.0°F-4.4°C 94% 8.0 mph ENE12.9 kmh ENE 10.0 mph16.1 kmh 30.02 in1016.6 mb 0.00 in0.0 mm 0.00 in/hr0.0 mm/hr 0.00 in0.0 mm
04:34 AM 25.5°F-3.6°C 24.3°F-4.3°C 95% 7.0 mph ENE11.3 kmh ENE 10.0 mph16.1 kmh 30.02 in1016.6 mb 0.00 in0.0 mm 0.00 in/hr0.0 mm/hr 0.00 in0.0 mm
04:35 AM 25.5°F-3.6°C 24.3°F-4.3°C 95% 8.0 mph ENE12.9 kmh ENE 10.0 mph16.1 kmh 30.02 in1016.6 mb 0.00 in0.0 mm 0.00 in/hr0.0 mm/hr 0.00 in0.0 mm
04:36 AM 25.5°F-3.6°C 24.0°F-4.4°C 94% 8.0 mph ENE12.9 kmh ENE 10.0 mph16.1 kmh 30.02 in1016.6 mb 0.00 in0.0 mm 0.00 in/hr0.0 mm/hr 0.00 in0.0 mm
04:37 AM 25.5°F-3.6°C 24.0°F-4.4°C 94% 7.0 mph ENE11.3 kmh ENE 10.0 mph16.1 kmh 30.02 in1016.6 mb 0.00 in0.0 mm 0.00 in/hr0.0 mm/hr 0.00 in0.0 mm
04:38 AM 25.5°F-3.6°C 24.0°F-4.4°C 94% 5.0 mph NE8.0 kmh NE 10.0 mph16.1 kmh 30.02 in1016.6 mb 0.00 in0.0 mm 0.00 in/hr0.0 mm/hr 0.00 in0.0 mm
04:39 AM 25.5°F-3.6°C 24.0°F-4.4°C 94% 5.0 mph ENE8.0 kmh ENE 10.0 mph16.1 kmh 30.02 in1016.6 mb 0.00 in0.0 mm 0.00 in/hr0.0 mm/hr 0.00 in0.0 mm
04:40 AM 25.5°F-3.6°C 24.0°F-4.4°C 94% 7.0 mph NE11.3 kmh NE 10.0 mph16.1 kmh 30.02 in1016.6 mb 0.00 in0.0 mm 0.00 in/hr0.0 mm/hr 0.00 in0.0 mm
04:41 AM 25.5°F-3.6°C 24.0°F-4.4°C 94% 7.0 mph NE11.3 kmh NE 10.0 mph16.1 kmh 30.02 in1016.6 mb 0.00 in0.0 mm 0.00 in/hr0.0 mm/hr 0.00 in0.0 mm
04:42 AM 25.5°F-3.6°C 24.0°F-4.4°C 94% 5.0 mph NE8.0 kmh NE 10.0 mph16.1 kmh 30.02 in1016.6 mb 0.00 in0.0 mm 0.00 in/hr0.0 mm/hr 0.00 in0.0 mm
04:43 AM 25.4°F-3.7°C 23.9°F-4.5°C 94% 6.0 mph NE9.7 kmh NE 10.0 mph16.1 kmh 30.02 in1016.6 mb 0.00 in0.0 mm 0.00 in/hr0.0 mm/hr 0.00 in0.0 mm
04:44 AM 25.4°F-3.7°C 23.9°F-4.5°C 94% 4.0 mph NE6.4 kmh NE 10.0 mph16.1 kmh 30.02 in1016.6 mb 0.00 in0.0 mm 0.00 in/hr0.0 mm/hr 0.00 in0.0 mm
04:45 AM 25.4°F-3.7°C 23.9°F-4.5°C 94% 4.0 mph ENE6.4 kmh ENE 10.0 mph16.1 kmh 30.02 in1016.6 mb 0.00 in0.0 mm 0.00 in/hr0.0 mm/hr 0.00 in0.0 mm
04:46 AM 25.4°F-3.7°C 24.2°F-4.3°C 95% 4.0 mph NE6.4 kmh NE 10.0 mph16.1 kmh 30.02 in1016.6 mb 0.00 in0.0 mm 0.00 in/hr0.0 mm/hr 0.00 in0.0 mm
04:47 AM 25.4°F-3.7°C 24.2°F-4.3°C 95% 5.0 mph NE8.0 kmh NE 10.0 mph16.1 kmh 30.03 in1016.9 mb 0.00 in0.0 mm 0.00 in/hr0.0 mm/hr 0.00 in0.0 mm
04:48 AM 25.5°F-3.6°C 24.3°F-4.3°C 95% 5.0 mph NE8.0 kmh NE 10.0 mph16.1 kmh 30.02 in1016.6 mb 0.00 in0.0 mm 0.00 in/hr0.0 mm/hr 0.00 in0.0 mm
04:49 AM 25.4°F-3.7°C 24.2°F-4.3°C 95% 5.0 mph NE8.0 kmh NE 10.0 mph16.1 kmh 30.03 in1016.9 mb 0.00 in0.0 mm 0.00 in/hr0.0 mm/hr 0.00 in0.0 mm
04:50 AM 25.4°F-3.7°C 24.2°F-4.3°C 95% 5.0 mph NE8.0 kmh NE 10.0 mph16.1 kmh 30.03 in1016.9 mb 0.00 in0.0 mm 0.00 in/hr0.0 mm/hr 0.00 in0.0 mm
04:51 AM 25.4°F-3.7°C 24.2°F-4.3°C 95% 7.0 mph NE11.3 kmh NE 10.0 mph16.1 kmh 30.03 in1016.9 mb 0.00 in0.0 mm 0.00 in/hr0.0 mm/hr 0.00 in0.0 mm
04:52 AM 25.4°F-3.7°C 24.2°F-4.3°C 95% 6.0 mph NE9.7 kmh NE 10.0 mph16.1 kmh 30.03 in1016.9 mb 0.00 in0.0 mm 0.00 in/hr0.0 mm/hr 0.00 in0.0 mm
04:53 AM 25.5°F-3.6°C 24.3°F-4.3°C 95% 5.0 mph NE8.0 kmh NE 10.0 mph16.1 kmh 30.03 in1016.9 mb 0.00 in0.0 mm 0.00 in/hr0.0 mm/hr 0.00 in0.0 mm
04:54 AM 25.4°F-3.7°C 24.2°F-4.3°C 95% 6.0 mph NE9.7 kmh NE 10.0 mph16.1 kmh 30.03 in1016.9 mb 0.00 in0.0 mm 0.00 in/hr0.0 mm/hr 0.00 in0.0 mm
04:55 AM 25.4°F-3.7°C 24.2°F-4.3°C 95% 5.0 mph NE8.0 kmh NE 10.0 mph16.1 kmh 30.03 in1016.9 mb 0.00 in0.0 mm 0.00 in/hr0.0 mm/hr 0.00 in0.0 mm
04:56 AM 25.5°F-3.6°C 24.3°F-4.3°C 95% 7.0 mph NE11.3 kmh NE 10.0 mph16.1 kmh 30.03 in1016.9 mb 0.00 in0.0 mm 0.00 in/hr0.0 mm/hr 0.00 in0.0 mm
04:57 AM 25.4°F-3.7°C 24.2°F-4.3°C 95% 7.0 mph NE11.3 kmh NE 10.0 mph16.1 kmh 30.03 in1016.9 mb 0.00 in0.0 mm 0.00 in/hr0.0 mm/hr 0.00 in0.0 mm
04:58 AM 25.4°F-3.7°C 24.2°F-4.3°C 95% 7.0 mph NE11.3 kmh NE 10.0 mph16.1 kmh 30.03 in1016.9 mb 0.00 in0.0 mm 0.00 in/hr0.0 mm/hr 0.00 in0.0 mm
04:59 AM 25.4°F-3.7°C 24.2°F-4.3°C 95% 7.0 mph NE11.3 kmh NE 10.0 mph16.1 kmh 30.03 in1016.9 mb 0.00 in0.0 mm 0.00 in/hr0.0 mm/hr 0.00 in0.0 mm
05:00 AM 25.4°F-3.7°C 24.2°F-4.3°C 95% 4.0 mph NE6.4 kmh NE 10.0 mph16.1 kmh 30.03 in1016.9 mb 0.00 in0.0 mm 0.00 in/hr0.0 mm/hr 0.00 in0.0 mm
05:01 AM 25.4°F-3.7°C 24.2°F-4.3°C 95% 7.0 mph NE11.3 kmh NE 10.0 mph16.1 kmh 30.03 in1016.9 mb 0.00 in0.0 mm 0.00 in/hr0.0 mm/hr 0.00 in0.0 mm
05:02 AM 25.5°F-3.6°C 24.3°F-4.3°C 95% 6.0 mph NE9.7 kmh NE 7.0 mph11.3 kmh 30.03 in1016.9 mb 0.00 in0.0 mm 0.00 in/hr0.0 mm/hr 0.00 in0.0 mm
05:03 AM 25.5°F-3.6°C 24.3°F-4.3°C 95% 5.0 mph NE8.0 kmh NE 7.0 mph11.3 kmh 30.03 in1016.9 mb 0.00 in0.0 mm 0.00 in/hr0.0 mm/hr 0.00 in0.0 mm
05:04 AM 25.5°F-3.6°C 24.3°F-4.3°C 95% 5.0 mph NE8.0 kmh NE 8.0 mph12.9 kmh 30.03 in1016.9 mb 0.00 in0.0 mm 0.00 in/hr0.0 mm/hr 0.00 in0.0 mm
05:05 AM 25.5°F-3.6°C 24.3°F-4.3°C 95% 7.0 mph NE11.3 kmh NE 8.0 mph12.9 kmh 30.03 in1016.9 mb 0.00 in0.0 mm 0.00 in/hr0.0 mm/hr 0.00 in0.0 mm
05:06 AM 25.5°F-3.6°C 24.3°F-4.3°C 95% 8.0 mph NE12.9 kmh NE 8.0 mph12.9 kmh 30.03 in1016.9 mb 0.00 in0.0 mm 0.00 in/hr0.0 mm/hr 0.00 in0.0 mm
05:07 AM 25.5°F-3.6°C 24.3°F-4.3°C 95% 6.0 mph NE9.7 kmh NE 8.0 mph12.9 kmh 30.03 in1016.9 mb 0.00 in0.0 mm 0.00 in/hr0.0 mm/hr 0.00 in0.0 mm
05:08 AM 25.5°F-3.6°C 24.3°F-4.3°C 95% 6.0 mph NE9.7 kmh NE 8.0 mph12.9 kmh 30.03 in1016.9 mb 0.00 in0.0 mm 0.00 in/hr0.0 mm/hr 0.00 in0.0 mm
05:09 AM 25.5°F-3.6°C 24.3°F-4.3°C 95% 7.0 mph NE11.3 kmh NE 9.0 mph14.5 kmh 30.03 in1016.9 mb 0.00 in0.0 mm 0.00 in/hr0.0 mm/hr 0.00 in0.0 mm
05:10 AM 25.5°F-3.6°C 24.3°F-4.3°C 95% 6.0 mph NE9.7 kmh NE 9.0 mph14.5 kmh 30.03 in1016.9 mb 0.00 in0.0 mm 0.00 in/hr0.0 mm/hr 0.00 in0.0 mm
05:11 AM 25.5°F-3.6°C 24.3°F-4.3°C 95% 6.0 mph NE9.7 kmh NE 9.0 mph14.5 kmh 30.03 in1016.9 mb 0.00 in0.0 mm 0.00 in/hr0.0 mm/hr 0.00 in0.0 mm
05:12 AM 25.6°F-3.6°C 24.4°F-4.2°C 95% 7.0 mph NE11.3 kmh NE 9.0 mph14.5 kmh 30.04 in1017.3 mb 0.00 in0.0 mm 0.00 in/hr0.0 mm/hr 0.00 in0.0 mm
05:13 AM 25.5°F-3.6°C 24.3°F-4.3°C 95% 6.0 mph NNE9.7 kmh NNE 9.0 mph14.5 kmh 30.03 in1016.9 mb 0.00 in0.0 mm 0.00 in/hr0.0 mm/hr 0.00 in0.0 mm
05:14 AM 25.5°F-3.6°C 24.3°F-4.3°C 95% 6.0 mph NE9.7 kmh NE 9.0 mph14.5 kmh 30.03 in1016.9 mb 0.00 in0.0 mm 0.00 in/hr0.0 mm/hr 0.00 in0.0 mm
05:15 AM 25.6°F-3.6°C 24.4°F-4.2°C 95% 5.0 mph NE8.0 kmh NE 9.0 mph14.5 kmh 30.04 in1017.3 mb 0.00 in0.0 mm 0.00 in/hr0.0 mm/hr 0.00 in0.0 mm
05:16 AM 25.5°F-3.6°C 24.3°F-4.3°C 95% 7.0 mph NNE11.3 kmh NNE 9.0 mph14.5 kmh 30.04 in1017.3 mb 0.00 in0.0 mm 0.00 in/hr0.0 mm/hr 0.00 in0.0 mm
05:17 AM 25.5°F-3.6°C 24.3°F-4.3°C 95% 6.0 mph NE9.7 kmh NE 9.0 mph14.5 kmh 30.04 in1017.3 mb 0.00 in0.0 mm 0.00 in/hr0.0 mm/hr 0.00 in0.0 mm
05:18 AM 25.6°F-3.6°C 24.4°F-4.2°C 95% 6.0 mph NE9.7 kmh NE 9.0 mph14.5 kmh 30.04 in1017.3 mb 0.00 in0.0 mm 0.00 in/hr0.0 mm/hr 0.00 in0.0 mm
05:19 AM 25.6°F-3.6°C 24.4°F-4.2°C 95% 5.0 mph NNE8.0 kmh NNE 9.0 mph14.5 kmh 30.04 in1017.3 mb 0.00 in0.0 mm 0.00 in/hr0.0 mm/hr 0.00 in0.0 mm
05:20 AM 25.6°F-3.6°C 24.4°F-4.2°C 95% 7.0 mph NNE11.3 kmh NNE 9.0 mph14.5 kmh 30.04 in1017.3 mb 0.00 in0.0 mm 0.00 in/hr0.0 mm/hr 0.00 in0.0 mm
05:21 AM 25.6°F-3.6°C 24.4°F-4.2°C 95% 7.0 mph NNE11.3 kmh NNE 9.0 mph14.5 kmh 30.04 in1017.3 mb 0.00 in0.0 mm 0.00 in/hr0.0 mm/hr 0.00 in0.0 mm
05:22 AM 25.6°F-3.6°C 24.4°F-4.2°C 95% 7.0 mph NNE11.3 kmh NNE 9.0 mph14.5 kmh 30.04 in1017.3 mb 0.00 in0.0 mm 0.00 in/hr0.0 mm/hr 0.00 in0.0 mm
05:23 AM 25.5°F-3.6°C 24.3°F-4.3°C 95% 6.0 mph NNE9.7 kmh NNE 9.0 mph14.5 kmh 30.04 in1017.3 mb 0.00 in0.0 mm 0.00 in/hr0.0 mm/hr 0.00 in0.0 mm
05:24 AM 25.5°F-3.6°C 24.3°F-4.3°C 95% 6.0 mph NE9.7 kmh NE 9.0 mph14.5 kmh 30.04 in1017.3 mb 0.00 in0.0 mm 0.00 in/hr0.0 mm/hr 0.00 in0.0 mm
05:25 AM 25.5°F-3.6°C 24.3°F-4.3°C 95% 7.0 mph NE11.3 kmh NE 9.0 mph14.5 kmh 30.04 in1017.3 mb 0.00 in0.0 mm 0.00 in/hr0.0 mm/hr 0.00 in0.0 mm
05:26 AM 25.5°F-3.6°C 24.3°F-4.3°C 95% 7.0 mph NE11.3 kmh NE 9.0 mph14.5 kmh 30.04 in1017.3 mb 0.00 in0.0 mm 0.00 in/hr0.0 mm/hr 0.00 in0.0 mm
05:27 AM 25.5°F-3.6°C 24.3°F-4.3°C 95% 7.0 mph NNE11.3 kmh NNE 9.0 mph14.5 kmh 30.04 in1017.3 mb 0.00 in0.0 mm 0.00 in/hr0.0 mm/hr 0.00 in0.0 mm
05:28 AM 25.5°F-3.6°C 24.3°F-4.3°C 95% 7.0 mph NNE11.3 kmh NNE 9.0 mph14.5 kmh 30.04 in1017.3 mb 0.00 in0.0 mm 0.00 in/hr0.0 mm/hr 0.00 in0.0 mm
05:29 AM 25.5°F-3.6°C 24.3°F-4.3°C 95% 7.0 mph NNE11.3 kmh NNE 9.0 mph14.5 kmh 30.04 in1017.3 mb 0.00 in0.0 mm 0.00 in/hr0.0 mm/hr 0.00 in0.0 mm
05:30 AM 25.5°F-3.6°C 24.3°F-4.3°C 95% 7.0 mph NE11.3 kmh NE 9.0 mph14.5 kmh 30.04 in1017.3 mb 0.00 in0.0 mm 0.00 in/hr0.0 mm/hr 0.00 in0.0 mm
05:31 AM 25.5°F-3.6°C 24.3°F-4.3°C 95% 9.0 mph NE14.5 kmh NE 9.0 mph14.5 kmh 30.04 in1017.3 mb 0.00 in0.0 mm 0.00 in/hr0.0 mm/hr 0.00 in0.0 mm
05:32 AM 25.4°F-3.7°C 24.2°F-4.3°C 95% 6.0 mph NNE9.7 kmh NNE 8.0 mph12.9 kmh 30.04 in1017.3 mb 0.00 in0.0 mm 0.00 in/hr0.0 mm/hr 0.00 in0.0 mm
05:33 AM 25.5°F-3.6°C 24.3°F-4.3°C 95% 8.0 mph NE12.9 kmh NE 9.0 mph14.5 kmh 30.04 in1017.3 mb 0.00 in0.0 mm 0.00 in/hr0.0 mm/hr 0.00 in0.0 mm
05:34 AM 25.4°F-3.7°C 24.2°F-4.3°C 95% 9.0 mph NNE14.5 kmh NNE 9.0 mph14.5 kmh 30.04 in1017.3 mb 0.00 in0.0 mm 0.00 in/hr0.0 mm/hr 0.00 in0.0 mm
05:35 AM 25.4°F-3.7°C 24.2°F-4.3°C 95% 9.0 mph NNE14.5 kmh NNE 9.0 mph14.5 kmh 30.04 in1017.3 mb 0.00 in0.0 mm 0.00 in/hr0.0 mm/hr 0.00 in0.0 mm
05:36 AM 25.5°F-3.6°C 24.3°F-4.3°C 95% 7.0 mph NNE11.3 kmh NNE 9.0 mph14.5 kmh 30.05 in1017.6 mb 0.00 in0.0 mm 0.00 in/hr0.0 mm/hr 0.00 in0.0 mm
05:37 AM 25.4°F-3.7°C 24.2°F-4.3°C 95% 8.0 mph NNE12.9 kmh NNE 10.0 mph16.1 kmh 30.04 in1017.3 mb 0.00 in0.0 mm 0.00 in/hr0.0 mm/hr 0.00 in0.0 mm
05:38 AM 25.4°F-3.7°C 24.2°F-4.3°C 95% 9.0 mph NE14.5 kmh NE 10.0 mph16.1 kmh 30.05 in1017.6 mb 0.00 in0.0 mm 0.00 in/hr0.0 mm/hr 0.00 in0.0 mm
05:39 AM 25.4°F-3.7°C 24.2°F-4.3°C 95% 6.0 mph NNE9.7 kmh NNE 10.0 mph16.1 kmh 30.05 in1017.6 mb 0.00 in0.0 mm 0.00 in/hr0.0 mm/hr 0.00 in0.0 mm
05:40 AM 25.4°F-3.7°C 24.2°F-4.3°C 95% 7.0 mph NNE11.3 kmh NNE 10.0 mph16.1 kmh 30.05 in1017.6 mb 0.00 in0.0 mm 0.00 in/hr0.0 mm/hr 0.00 in0.0 mm
05:41 AM 25.4°F-3.7°C 24.2°F-4.3°C 95% 9.0 mph NE14.5 kmh NE 10.0 mph16.1 kmh 30.05 in1017.6 mb 0.00 in0.0 mm 0.00 in/hr0.0 mm/hr 0.00 in0.0 mm
05:42 AM 25.4°F-3.7°C 24.2°F-4.3°C 95% 7.0 mph NNE11.3 kmh NNE 10.0 mph16.1 kmh 30.05 in1017.6 mb 0.00 in0.0 mm 0.00 in/hr0.0 mm/hr 0.00 in0.0 mm
05:43 AM 25.4°F-3.7°C 24.2°F-4.3°C 95% 8.0 mph NE12.9 kmh NE 10.0 mph16.1 kmh 30.05 in1017.6 mb 0.00 in0.0 mm 0.00 in/hr0.0 mm/hr 0.00 in0.0 mm
05:44 AM 25.4°F-3.7°C 24.2°F-4.3°C 95% 8.0 mph NNE12.9 kmh NNE 10.0 mph16.1 kmh 30.05 in1017.6 mb 0.00 in0.0 mm 0.00 in/hr0.0 mm/hr 0.00 in0.0 mm
05:45 AM 25.4°F-3.7°C 24.2°F-4.3°C 95% 7.0 mph NNE11.3 kmh NNE 10.0 mph16.1 kmh 30.05 in1017.6 mb 0.00 in0.0 mm 0.00 in/hr0.0 mm/hr 0.00 in0.0 mm
05:46 AM 25.4°F-3.7°C 24.2°F-4.3°C 95% 8.0 mph NNE12.9 kmh NNE 10.0 mph16.1 kmh 30.05 in1017.6 mb 0.00 in0.0 mm 0.00 in/hr0.0 mm/hr 0.00 in0.0 mm
05:47 AM 25.4°F-3.7°C 24.2°F-4.3°C 95% 8.0 mph NE12.9 kmh NE 10.0 mph16.1 kmh 30.05 in1017.6 mb 0.00 in0.0 mm 0.00 in/hr0.0 mm/hr 0.00 in0.0 mm
05:48 AM 25.4°F-3.7°C 24.2°F-4.3°C 95% 11.0 mph NNE17.7 kmh NNE 11.0 mph17.7 kmh 30.05 in1017.6 mb 0.00 in0.0 mm 0.00 in/hr0.0 mm/hr 0.00 in0.0 mm
05:49 AM 25.4°F-3.7°C 24.2°F-4.3°C 95% 10.0 mph NE16.1 kmh NE 11.0 mph17.7 kmh 30.05 in1017.6 mb 0.00 in0.0 mm 0.00 in/hr0.0 mm/hr 0.00 in0.0 mm
05:50 AM 25.4°F-3.7°C 24.2°F-4.3°C 95% 9.0 mph NE14.5 kmh NE 11.0 mph17.7 kmh 30.05 in1017.6 mb 0.00 in0.0 mm 0.00 in/hr0.0 mm/hr 0.00 in0.0 mm
05:51 AM 25.4°F-3.7°C 24.2°F-4.3°C 95% 9.0 mph NE14.5 kmh NE 11.0 mph17.7 kmh 30.05 in1017.6 mb 0.00 in0.0 mm 0.00 in/hr0.0 mm/hr 0.00 in0.0 mm
05:52 AM 25.4°F-3.7°C 24.2°F-4.3°C 95% 10.0 mph NE16.1 kmh NE 11.0 mph17.7 kmh 30.05 in1017.6 mb 0.00 in0.0 mm 0.00 in/hr0.0 mm/hr 0.00 in0.0 mm
05:53 AM 25.4°F-3.7°C 24.2°F-4.3°C 95% 10.0 mph NE16.1 kmh NE 11.0 mph17.7 kmh 30.05 in1017.6 mb 0.00 in0.0 mm 0.00 in/hr0.0 mm/hr 0.00 in0.0 mm
05:54 AM 25.4°F-3.7°C 24.2°F-4.3°C 95% 8.0 mph NNE12.9 kmh NNE 11.0 mph17.7 kmh 30.05 in1017.6 mb 0.00 in0.0 mm 0.00 in/hr0.0 mm/hr 0.00 in0.0 mm
05:55 AM 25.4°F-3.7°C 24.2°F-4.3°C 95% 8.0 mph NNE12.9 kmh NNE 11.0 mph17.7 kmh 30.05 in1017.6 mb 0.00 in0.0 mm 0.00 in/hr0.0 mm/hr 0.00 in0.0 mm
05:56 AM 25.4°F-3.7°C 24.2°F-4.3°C 95% 7.0 mph NNE11.3 kmh NNE 11.0 mph17.7 kmh 30.05 in1017.6 mb 0.00 in0.0 mm 0.00 in/hr0.0 mm/hr 0.00 in0.0 mm
05:57 AM 25.4°F-3.7°C 24.2°F-4.3°C 95% 9.0 mph NE14.5 kmh NE 11.0 mph17.7 kmh 30.05 in1017.6 mb 0.00 in0.0 mm 0.00 in/hr0.0 mm/hr 0.00 in0.0 mm
05:58 AM 25.4°F-3.7°C 24.2°F-4.3°C 95% 8.0 mph NE12.9 kmh NE 11.0 mph17.7 kmh 30.05 in1017.6 mb 0.00 in0.0 mm 0.00 in/hr0.0 mm/hr 0.00 in0.0 mm
05:59 AM 25.4°F-3.7°C 24.2°F-4.3°C 95% 10.0 mph NNE16.1 kmh NNE 11.0 mph17.7 kmh 30.05 in1017.6 mb 0.00 in0.0 mm 0.00 in/hr0.0 mm/hr 0.00 in0.0 mm
06:00 AM 25.5°F-3.6°C 24.3°F-4.3°C 95% 8.0 mph NNE12.9 kmh NNE 11.0 mph17.7 kmh 30.06 in1017.9 mb 0.00 in0.0 mm 0.00 in/hr0.0 mm/hr 0.00 in0.0 mm
06:01 AM 25.5°F-3.6°C 24.3°F-4.3°C 95% 9.0 mph NE14.5 kmh NE 11.0 mph17.7 kmh 30.06 in1017.9 mb 0.00 in0.0 mm 0.00 in/hr0.0 mm/hr 0.00 in0.0 mm
06:02 AM 25.5°F-3.6°C 24.3°F-4.3°C 95% 7.0 mph NNE11.3 kmh NNE 10.0 mph16.1 kmh 30.06 in1017.9 mb 0.00 in0.0 mm 0.00 in/hr0.0 mm/hr 0.00 in0.0 mm
06:03 AM 25.5°F-3.6°C 24.3°F-4.3°C 95% 7.0 mph NNE11.3 kmh NNE 10.0 mph16.1 kmh 30.06 in1017.9 mb 0.00 in0.0 mm 0.00 in/hr0.0 mm/hr 0.00 in0.0 mm
06:04 AM 25.5°F-3.6°C 24.3°F-4.3°C 95% 9.0 mph NNE14.5 kmh NNE 10.0 mph16.1 kmh 30.06 in1017.9 mb 0.00 in0.0 mm 0.00 in/hr0.0 mm/hr 0.00 in0.0 mm
06:05 AM 25.5°F-3.6°C 24.3°F-4.3°C 95% 8.0 mph NE12.9 kmh NE 10.0 mph16.1 kmh 30.06 in1017.9 mb 0.00 in0.0 mm 0.00 in/hr0.0 mm/hr 0.00 in0.0 mm
06:06 AM 25.5°F-3.6°C 24.3°F-4.3°C 95% 7.0 mph NNE11.3 kmh NNE 10.0 mph16.1 kmh 30.06 in1017.9 mb 0.00 in0.0 mm 0.00 in/hr0.0 mm/hr 0.00 in0.0 mm
06:07 AM 25.5°F-3.6°C 24.3°F-4.3°C 95% 9.0 mph NNE14.5 kmh NNE 10.0 mph16.1 kmh 30.06 in1017.9 mb 0.00 in0.0 mm 0.00 in/hr0.0 mm/hr 0.00 in0.0 mm
06:08 AM 25.6°F-3.6°C 24.4°F-4.2°C 95% 9.0 mph NE14.5 kmh NE 10.0 mph16.1 kmh 30.06 in1017.9 mb 0.00 in0.0 mm 0.00 in/hr0.0 mm/hr 0.00 in0.0 mm
06:09 AM 25.6°F-3.6°C 24.4°F-4.2°C 95% 6.0 mph NE9.7 kmh NE 10.0 mph16.1 kmh 30.06 in1017.9 mb 0.00 in0.0 mm 0.00 in/hr0.0 mm/hr 0.00 in0.0 mm
06:10 AM 25.6°F-3.6°C 24.4°F-4.2°C 95% 9.0 mph NE14.5 kmh NE 10.0 mph16.1 kmh 30.06 in1017.9 mb 0.00 in0.0 mm 0.00 in/hr0.0 mm/hr 0.00 in0.0 mm
06:11 AM 25.6°F-3.6°C 24.4°F-4.2°C 95% 10.0 mph NNE16.1 kmh NNE 10.0 mph16.1 kmh 30.06 in1017.9 mb 0.00 in0.0 mm 0.00 in/hr0.0 mm/hr 0.00 in0.0 mm
06:12 AM 25.6°F-3.6°C 24.4°F-4.2°C 95% 9.0 mph NNE14.5 kmh NNE 11.0 mph17.7 kmh 30.06 in1017.9 mb 0.00 in0.0 mm 0.00 in/hr0.0 mm/hr 0.00 in0.0 mm
06:13 AM 25.6°F-3.6°C 24.4°F-4.2°C 95% 9.0 mph NNE14.5 kmh NNE 11.0 mph17.7 kmh 30.06 in1017.9 mb 0.00 in0.0 mm 0.00 in/hr0.0 mm/hr 0.00 in0.0 mm
06:14 AM 25.7°F-3.5°C 24.5°F-4.2°C 95% 7.0 mph NE11.3 kmh NE 11.0 mph17.7 kmh 30.06 in1017.9 mb 0.00 in0.0 mm 0.00 in/hr0.0 mm/hr 0.00 in0.0 mm
06:15 AM 25.7°F-3.5°C 24.5°F-4.2°C 95% 8.0 mph NE12.9 kmh NE 11.0 mph17.7 kmh 30.06 in1017.9 mb 0.00 in0.0 mm 0.00 in/hr0.0 mm/hr 0.00 in0.0 mm
06:16 AM 25.7°F-3.5°C 24.5°F-4.2°C 95% 8.0 mph NNE12.9 kmh NNE 11.0 mph17.7 kmh 30.06 in1017.9 mb 0.00 in0.0 mm 0.00 in/hr0.0 mm/hr 0.00 in0.0 mm
06:17 AM 25.7°F-3.5°C 24.5°F-4.2°C 95% 7.0 mph NE11.3 kmh NE 11.0 mph17.7 kmh 30.07 in1018.3 mb 0.00 in0.0 mm 0.00 in/hr0.0 mm/hr 0.00 in0.0 mm
06:18 AM 25.7°F-3.5°C 24.5°F-4.2°C 95% 9.0 mph N14.5 kmh N 11.0 mph17.7 kmh 30.06 in1017.9 mb 0.00 in0.0 mm 0.00 in/hr0.0 mm/hr 0.00 in0.0 mm
06:19 AM 25.7°F-3.5°C 24.5°F-4.2°C 95% 9.0 mph NNE14.5 kmh NNE 11.0 mph17.7 kmh 30.07 in1018.3 mb 0.00 in0.0 mm 0.00 in/hr0.0 mm/hr 0.00 in0.0 mm
06:20 AM 25.7°F-3.5°C 24.5°F-4.2°C 95% 9.0 mph NNE14.5 kmh NNE 11.0 mph17.7 kmh 30.07 in1018.3 mb 0.00 in0.0 mm 0.00 in/hr0.0 mm/hr 0.00 in0.0 mm
06:21 AM 25.7°F-3.5°C 24.7°F-4.1°C 96% 10.0 mph NNE16.1 kmh NNE 11.0 mph17.7 kmh 30.07 in1018.3 mb 0.00 in0.0 mm 0.00 in/hr0.0 mm/hr 0.00 in0.0 mm
06:22 AM 25.7°F-3.5°C 24.5°F-4.2°C 95% 9.0 mph NNE14.5 kmh NNE 11.0 mph17.7 kmh 30.07 in1018.3 mb 0.00 in0.0 mm 0.00 in/hr0.0 mm/hr 0.00 in0.0 mm
06:23 AM 25.7°F-3.5°C 24.5°F-4.2°C 95% 9.0 mph NNE14.5 kmh NNE 12.0 mph19.3 kmh 30.07 in1018.3 mb 0.00 in0.0 mm 0.00 in/hr0.0 mm/hr 0.00 in0.0 mm
06:24 AM 25.7°F-3.5°C 24.5°F-4.2°C 95% 9.0 mph NNE14.5 kmh NNE 12.0 mph19.3 kmh 30.07 in1018.3 mb 0.00 in0.0 mm 0.00 in/hr0.0 mm/hr 0.00 in0.0 mm
06:25 AM 25.7°F-3.5°C 24.5°F-4.2°C 95% 9.0 mph NNE14.5 kmh NNE 12.0 mph19.3 kmh 30.06 in1017.9 mb 0.00 in0.0 mm 0.00 in/hr0.0 mm/hr 0.00 in0.0 mm
06:26 AM 25.7°F-3.5°C 24.7°F-4.1°C 96% 9.0 mph NNE14.5 kmh NNE 12.0 mph19.3 kmh 30.06 in1017.9 mb 0.00 in0.0 mm 0.00 in/hr0.0 mm/hr 0.00 in0.0 mm
06:27 AM 25.8°F-3.4°C 24.8°F-4.0°C 96% 10.0 mph NNE16.1 kmh NNE 12.0 mph19.3 kmh 30.07 in1018.3 mb 0.00 in0.0 mm 0.00 in/hr0.0 mm/hr 0.00 in0.0 mm
06:28 AM 25.7°F-3.5°C 24.7°F-4.1°C 96% 9.0 mph NNE14.5 kmh NNE 12.0 mph19.3 kmh 30.07 in1018.3 mb 0.00 in0.0 mm 0.00 in/hr0.0 mm/hr 0.00 in0.0 mm
06:29 AM 25.7°F-3.5°C 24.7°F-4.1°C 96% 11.0 mph NNE17.7 kmh NNE 12.0 mph19.3 kmh 30.07 in1018.3 mb 0.00 in0.0 mm 0.00 in/hr0.0 mm/hr 0.00 in0.0 mm
06:30 AM 25.8°F-3.4°C 24.8°F-4.0°C 96% 9.0 mph NNE14.5 kmh NNE 12.0 mph19.3 kmh 30.07 in1018.3 mb 0.00 in0.0 mm 0.00 in/hr0.0 mm/hr 0.00 in0.0 mm
06:31 AM 25.8°F-3.4°C 24.8°F-4.0°C 96% 12.0 mph NNE19.3 kmh NNE 12.0 mph19.3 kmh 30.07 in1018.3 mb 0.00 in0.0 mm 0.00 in/hr0.0 mm/hr 0.00 in0.0 mm
06:32 AM 25.8°F-3.4°C 24.8°F-4.0°C 96% 11.0 mph NNE17.7 kmh NNE 11.0 mph17.7 kmh 30.07 in1018.3 mb 0.00 in0.0 mm 0.00 in/hr0.0 mm/hr 0.00 in0.0 mm
06:33 AM 25.8°F-3.4°C 24.8°F-4.0°C 96% 10.0 mph NNE16.1 kmh NNE 11.0 mph17.7 kmh 30.07 in1018.3 mb 0.00 in0.0 mm 0.00 in/hr0.0 mm/hr 0.00 in0.0 mm
06:34 AM 25.8°F-3.4°C 24.8°F-4.0°C 96% 9.0 mph NNE14.5 kmh NNE 11.0 mph17.7 kmh 30.07 in1018.3 mb 0.00 in0.0 mm 0.00 in/hr0.0 mm/hr 0.00 in0.0 mm
06:35 AM 25.8°F-3.4°C 24.8°F-4.0°C 96% 10.0 mph NNE16.1 kmh NNE 12.0 mph19.3 kmh 30.07 in1018.3 mb 0.00 in0.0 mm 0.00 in/hr0.0 mm/hr 0.00 in0.0 mm
06:36 AM 25.8°F-3.4°C 24.8°F-4.0°C 96% 10.0 mph NNE16.1 kmh NNE 12.0 mph19.3 kmh 30.07 in1018.3 mb 0.00 in0.0 mm 0.00 in/hr0.0 mm/hr 0.00 in0.0 mm
06:37 AM 25.8°F-3.4°C 24.8°F-4.0°C 96% 11.0 mph NNE17.7 kmh NNE 12.0 mph19.3 kmh 30.07 in1018.3 mb 0.00 in0.0 mm 0.00 in/hr0.0 mm/hr 0.00 in0.0 mm
06:38 AM 25.8°F-3.4°C 24.8°F-4.0°C 96% 11.0 mph NNE17.7 kmh NNE 12.0 mph19.3 kmh 30.07 in1018.3 mb 0.00 in0.0 mm 0.00 in/hr0.0 mm/hr 0.00 in0.0 mm
06:39 AM 25.8°F-3.4°C 24.8°F-4.0°C 96% 9.0 mph NNE14.5 kmh NNE 12.0 mph19.3 kmh 30.07 in1018.3 mb 0.00 in0.0 mm 0.00 in/hr0.0 mm/hr 0.00 in0.0 mm
06:40 AM 25.8°F-3.4°C 24.8°F-4.0°C 96% 11.0 mph NNE17.7 kmh NNE 12.0 mph19.3 kmh 30.07 in1018.3 mb 0.00 in0.0 mm 0.00 in/hr0.0 mm/hr 0.00 in0.0 mm
06:41 AM 25.8°F-3.4°C 24.8°F-4.0°C 96% 9.0 mph NNE14.5 kmh NNE 12.0 mph19.3 kmh 30.07 in1018.3 mb 0.00 in0.0 mm 0.00 in/hr0.0 mm/hr 0.00 in0.0 mm
06:42 AM 25.8°F-3.4°C 24.8°F-4.0°C 96% 10.0 mph NNE16.1 kmh NNE 12.0 mph19.3 kmh 30.07 in1018.3 mb 0.00 in0.0 mm 0.00 in/hr0.0 mm/hr 0.00 in0.0 mm
06:43 AM 25.8°F-3.4°C 24.8°F-4.0°C 96% 8.0 mph NNE12.9 kmh NNE 12.0 mph19.3 kmh 30.07 in1018.3 mb 0.00 in0.0 mm 0.00 in/hr0.0 mm/hr 0.00 in0.0 mm
06:44 AM 25.8°F-3.4°C 24.8°F-4.0°C 96% 10.0 mph NE16.1 kmh NE 12.0 mph19.3 kmh 30.07 in1018.3 mb 0.00 in0.0 mm 0.00 in/hr0.0 mm/hr 0.00 in0.0 mm
06:45 AM 25.8°F-3.4°C 24.8°F-4.0°C 96% 9.0 mph NE14.5 kmh NE 12.0 mph19.3 kmh 30.07 in1018.3 mb 0.00 in0.0 mm 0.00 in/hr0.0 mm/hr 0.00 in0.0 mm
06:46 AM 25.9°F-3.4°C 24.9°F-3.9°C 96% 10.0 mph NNE16.1 kmh NNE 12.0 mph19.3 kmh 30.07 in1018.3 mb 0.00 in0.0 mm 0.00 in/hr0.0 mm/hr 0.00 in0.0 mm
06:47 AM 25.9°F-3.4°C 24.9°F-3.9°C 96% 9.0 mph NNE14.5 kmh NNE 12.0 mph19.3 kmh 30.07 in1018.3 mb 0.00 in0.0 mm 0.00 in/hr0.0 mm/hr 0.00 in0.0 mm
06:48 AM 25.9°F-3.4°C 24.9°F-3.9°C 96% 9.0 mph NNE14.5 kmh NNE 13.0 mph20.9 kmh 30.07 in1018.3 mb 0.00 in0.0 mm 0.00 in/hr0.0 mm/hr 0.00 in0.0 mm
06:49 AM 25.9°F-3.4°C 24.9°F-3.9°C 96% 8.0 mph N12.9 kmh N 13.0 mph20.9 kmh 30.08 in1018.6 mb 0.00 in0.0 mm 0.00 in/hr0.0 mm/hr 0.00 in0.0 mm
06:50 AM 25.9°F-3.4°C 24.9°F-3.9°C 96% 10.0 mph NNE16.1 kmh NNE 13.0 mph20.9 kmh 30.08 in1018.6 mb 0.00 in0.0 mm 0.00 in/hr0.0 mm/hr 0.00 in0.0 mm
06:51 AM 25.9°F-3.4°C 24.9°F-3.9°C 96% 10.0 mph NNE16.1 kmh NNE 13.0 mph20.9 kmh 30.08 in1018.6 mb 0.00 in0.0 mm 0.00 in/hr0.0 mm/hr 0.00 in0.0 mm
06:52 AM 25.9°F-3.4°C 24.9°F-3.9°C 96% 7.0 mph NNE11.3 kmh NNE 13.0 mph20.9 kmh 30.08 in1018.6 mb 0.00 in0.0 mm 0.00 in/hr0.0 mm/hr 0.00 in0.0 mm
06:53 AM 26.0°F-3.3°C 25.0°F-3.9°C 96% 8.0 mph NNE12.9 kmh NNE 13.0 mph20.9 kmh 30.08 in1018.6 mb 0.00 in0.0 mm 0.00 in/hr0.0 mm/hr 0.00 in0.0 mm
06:54 AM 25.9°F-3.4°C 24.9°F-3.9°C 96% 9.0 mph NNE14.5 kmh NNE 13.0 mph20.9 kmh 30.08 in1018.6 mb 0.00 in0.0 mm 0.00 in/hr0.0 mm/hr 0.00 in0.0 mm
06:55 AM 26.0°F-3.3°C 25.0°F-3.9°C 96% 10.0 mph NNE16.1 kmh NNE 13.0 mph20.9 kmh 30.08 in1018.6 mb 0.00 in0.0 mm 0.00 in/hr0.0 mm/hr 0.00 in0.0 mm
06:56 AM 25.9°F-3.4°C 24.9°F-3.9°C 96% 10.0 mph NNE16.1 kmh NNE 13.0 mph20.9 kmh 30.08 in1018.6 mb 0.00 in0.0 mm 0.00 in/hr0.0 mm/hr 0.00 in0.0 mm
06:57 AM 26.0°F-3.3°C 25.0°F-3.9°C 96% 10.0 mph NE16.1 kmh NE 13.0 mph20.9 kmh 30.08 in1018.6 mb 0.00 in0.0 mm 0.00 in/hr0.0 mm/hr 0.00 in0.0 mm
06:58 AM 25.9°F-3.4°C 24.9°F-3.9°C 96% 9.0 mph NNE14.5 kmh NNE 13.0 mph20.9 kmh 30.08 in1018.6 mb 0.00 in0.0 mm 0.00 in/hr0.0 mm/hr 0.00 in0.0 mm
06:59 AM 26.0°F-3.3°C 25.0°F-3.9°C 96% 12.0 mph NNE19.3 kmh NNE 13.0 mph20.9 kmh 30.08 in1018.6 mb 0.00 in0.0 mm 0.00 in/hr0.0 mm/hr 0.00 in0.0 mm
07:00 AM 26.0°F-3.3°C 25.0°F-3.9°C 96% 9.0 mph NNE14.5 kmh NNE 13.0 mph20.9 kmh 30.08 in1018.6 mb 0.00 in0.0 mm 0.00 in/hr0.0 mm/hr 0.00 in0.0 mm
07:01 AM 26.0°F-3.3°C 25.0°F-3.9°C 96% 11.0 mph NNE17.7 kmh NNE 13.0 mph20.9 kmh 30.08 in1018.6 mb 0.00 in0.0 mm 0.00 in/hr0.0 mm/hr 0.00 in0.0 mm
07:02 AM 25.9°F-3.4°C 24.9°F-3.9°C 96% 12.0 mph NNE19.3 kmh NNE 13.0 mph20.9 kmh 30.08 in1018.6 mb 0.00 in0.0 mm 0.00 in/hr0.0 mm/hr 0.00 in0.0 mm
07:03 AM 25.9°F-3.4°C 24.9°F-3.9°C 96% 11.0 mph N17.7 kmh N 14.0 mph22.5 kmh 30.08 in1018.6 mb 0.00 in0.0 mm 0.00 in/hr0.0 mm/hr 0.00 in0.0 mm
07:04 AM 25.9°F-3.4°C 24.9°F-3.9°C 96% 11.0 mph N17.7 kmh N 14.0 mph22.5 kmh 30.08 in1018.6 mb 0.00 in0.0 mm 0.00 in/hr0.0 mm/hr 0.00 in0.0 mm
07:05 AM 25.9°F-3.4°C 24.9°F-3.9°C 96% 11.0 mph N17.7 kmh N 14.0 mph22.5 kmh 30.08 in1018.6 mb 0.00 in0.0 mm 0.00 in/hr0.0 mm/hr 0.00 in0.0 mm
07:06 AM 25.8°F-3.4°C 24.8°F-4.0°C 96% 13.0 mph NNE20.9 kmh NNE 14.0 mph22.5 kmh 30.08 in1018.6 mb 0.00 in0.0 mm 0.00 in/hr0.0 mm/hr 0.00 in0.0 mm
07:07 AM 25.7°F-3.5°C 24.7°F-4.1°C 96% 13.0 mph N20.9 kmh N 14.0 mph22.5 kmh 30.08 in1018.6 mb 0.00 in0.0 mm 0.00 in/hr0.0 mm/hr 0.00 in0.0 mm
07:08 AM 25.7°F-3.5°C 24.7°F-4.1°C 96% 11.0 mph NNE17.7 kmh NNE 14.0 mph22.5 kmh 30.08 in1018.6 mb 0.00 in0.0 mm 0.00 in/hr0.0 mm/hr 0.00 in0.0 mm
07:09 AM 25.7°F-3.5°C 24.5°F-4.2°C 95% 12.0 mph NNE19.3 kmh NNE 14.0 mph22.5 kmh 30.08 in1018.6 mb 0.00 in0.0 mm 0.00 in/hr0.0 mm/hr 0.00 in0.0 mm
07:10 AM 25.6°F-3.6°C 24.4°F-4.2°C 95% 11.0 mph NNE17.7 kmh NNE 14.0 mph22.5 kmh 30.08 in1018.6 mb 0.00 in0.0 mm 0.00 in/hr0.0 mm/hr 0.00 in0.0 mm
07:11 AM 25.6°F-3.6°C 24.4°F-4.2°C 95% 11.0 mph NNE17.7 kmh NNE 14.0 mph22.5 kmh 30.08 in1018.6 mb 0.00 in0.0 mm 0.00 in/hr0.0 mm/hr 0.00 in0.0 mm
07:13 AM 25.5°F-3.6°C 24.3°F-4.3°C 95% 11.0 mph NNE17.7 kmh NNE 14.0 mph22.5 kmh 30.08 in1018.6 mb 0.00 in0.0 mm 0.00 in/hr0.0 mm/hr 0.00 in0.0 mm
07:14 AM 25.5°F-3.6°C 24.3°F-4.3°C 95% 11.0 mph NNE17.7 kmh NNE 14.0 mph22.5 kmh 30.08 in1018.6 mb 0.00 in0.0 mm 0.00 in/hr0.0 mm/hr 0.00 in0.0 mm
07:15 AM 25.4°F-3.7°C 24.2°F-4.3°C 95% 13.0 mph NE20.9 kmh NE 14.0 mph22.5 kmh 30.08 in1018.6 mb 0.00 in0.0 mm 0.00 in/hr0.0 mm/hr 0.00 in0.0 mm
07:16 AM 25.4°F-3.7°C 24.2°F-4.3°C 95% 14.0 mph NNE22.5 kmh NNE 14.0 mph22.5 kmh 30.08 in1018.6 mb 0.00 in0.0 mm 0.00 in/hr0.0 mm/hr 0.00 in0.0 mm
07:17 AM 25.4°F-3.7°C 24.2°F-4.3°C 95% 9.0 mph NE14.5 kmh NE 14.0 mph22.5 kmh 30.08 in1018.6 mb 0.00 in0.0 mm 0.00 in/hr0.0 mm/hr 0.00 in0.0 mm
07:18 AM 25.3°F-3.7°C 24.1°F-4.4°C 95% 11.0 mph NNE17.7 kmh NNE 14.0 mph22.5 kmh 30.09 in1019.0 mb 0.00 in0.0 mm 0.00 in/hr0.0 mm/hr 0.00 in0.0 mm
07:19 AM 25.3°F-3.7°C 24.1°F-4.4°C 95% 13.0 mph NNE20.9 kmh NNE 16.0 mph25.7 kmh 30.09 in1019.0 mb 0.00 in0.0 mm 0.00 in/hr0.0 mm/hr 0.00 in0.0 mm
07:20 AM 25.2°F-3.8°C 24.0°F-4.4°C 95% 11.0 mph NE17.7 kmh NE 16.0 mph25.7 kmh 30.09 in1019.0 mb 0.00 in0.0 mm 0.00 in/hr0.0 mm/hr 0.00 in0.0 mm
07:21 AM 25.2°F-3.8°C 24.0°F-4.4°C 95% 9.0 mph NNE14.5 kmh NNE 16.0 mph25.7 kmh 30.09 in1019.0 mb 0.00 in0.0 mm 0.00 in/hr0.0 mm/hr 0.00 in0.0 mm
07:22 AM 25.2°F-3.8°C 24.0°F-4.4°C 95% 11.0 mph NE17.7 kmh NE 16.0 mph25.7 kmh 30.09 in1019.0 mb 0.00 in0.0 mm 0.00 in/hr0.0 mm/hr 0.00 in0.0 mm
07:23 AM 25.1°F-3.8°C 23.9°F-4.5°C 95% 10.0 mph NE16.1 kmh NE 16.0 mph25.7 kmh 30.09 in1019.0 mb 0.00 in0.0 mm 0.00 in/hr0.0 mm/hr 0.00 in0.0 mm
07:24 AM 25.1°F-3.8°C 23.9°F-4.5°C 95% 9.0 mph NNE14.5 kmh NNE 16.0 mph25.7 kmh 30.09 in1019.0 mb 0.00 in0.0 mm 0.00 in/hr0.0 mm/hr 0.00 in0.0 mm
07:25 AM 25.1°F-3.8°C 23.9°F-4.5°C 95% 10.0 mph NNE16.1 kmh NNE 16.0 mph25.7 kmh 30.09 in1019.0 mb 0.00 in0.0 mm 0.00 in/hr0.0 mm/hr 0.00 in0.0 mm
07:26 AM 25.1°F-3.8°C 23.9°F-4.5°C 95% 12.0 mph NE19.3 kmh NE 16.0 mph25.7 kmh 30.09 in1019.0 mb 0.00 in0.0 mm 0.00 in/hr0.0 mm/hr 0.00 in0.0 mm
07:27 AM 25.1°F-3.8°C 23.9°F-4.5°C 95% 13.0 mph NE20.9 kmh NE 16.0 mph25.7 kmh 30.09 in1019.0 mb 0.00 in0.0 mm 0.00 in/hr0.0 mm/hr 0.00 in0.0 mm
07:28 AM 25.0°F-3.9°C 23.8°F-4.6°C 95% 12.0 mph NE19.3 kmh NE 16.0 mph25.7 kmh 30.09 in1019.0 mb 0.00 in0.0 mm 0.00 in/hr0.0 mm/hr 0.00 in0.0 mm
07:29 AM 25.0°F-3.9°C 23.8°F-4.6°C 95% 12.0 mph NNE19.3 kmh NNE 16.0 mph25.7 kmh 30.09 in1019.0 mb 0.00 in0.0 mm 0.00 in/hr0.0 mm/hr 0.00 in0.0 mm
07:30 AM 24.9°F-3.9°C 23.7°F-4.6°C 95% 13.0 mph NNE20.9 kmh NNE 16.0 mph25.7 kmh 30.09 in1019.0 mb 0.00 in0.0 mm 0.00 in/hr0.0 mm/hr 0.00 in0.0 mm
07:31 AM 24.9°F-3.9°C 23.7°F-4.6°C 95% 13.0 mph NNE20.9 kmh NNE 16.0 mph25.7 kmh 30.09 in1019.0 mb 0.00 in0.0 mm 0.00 in/hr0.0 mm/hr 0.00 in0.0 mm
07:32 AM 24.9°F-3.9°C 23.7°F-4.6°C 95% 12.0 mph NE19.3 kmh NE 13.0 mph20.9 kmh 30.09 in1019.0 mb 0.00 in0.0 mm 0.00 in/hr0.0 mm/hr 0.00 in0.0 mm
07:33 AM 24.8°F-4.0°C 23.6°F-4.7°C 95% 11.0 mph NNE17.7 kmh NNE 13.0 mph20.9 kmh 30.09 in1019.0 mb 0.00 in0.0 mm 0.00 in/hr0.0 mm/hr 0.00 in0.0 mm
07:34 AM 24.8°F-4.0°C 23.6°F-4.7°C 95% 10.0 mph NNE16.1 kmh NNE 14.0 mph22.5 kmh 30.09 in1019.0 mb 0.00 in0.0 mm 0.00 in/hr0.0 mm/hr 0.00 in0.0 mm
07:35 AM 24.8°F-4.0°C 23.6°F-4.7°C 95% 13.0 mph NE20.9 kmh NE 14.0 mph22.5 kmh 30.10 in1019.3 mb 0.00 in0.0 mm 0.00 in/hr0.0 mm/hr 0.00 in0.0 mm
07:36 AM 24.7°F-4.1°C 23.5°F-4.7°C 95% 11.0 mph NE17.7 kmh NE 15.0 mph24.1 kmh 30.10 in1019.3 mb 0.00 in0.0 mm 0.00 in/hr0.0 mm/hr 0.00 in0.0 mm
07:37 AM 24.7°F-4.1°C 23.5°F-4.7°C 95% 11.0 mph NNE17.7 kmh NNE 15.0 mph24.1 kmh 30.10 in1019.3 mb 0.00 in0.0 mm 0.00 in/hr0.0 mm/hr 0.00 in0.0 mm
07:38 AM 24.7°F-4.1°C 23.5°F-4.7°C 95% 10.0 mph NE16.1 kmh NE 15.0 mph24.1 kmh 30.10 in1019.3 mb 0.00 in0.0 mm 0.00 in/hr0.0 mm/hr 0.00 in0.0 mm
07:39 AM 24.7°F-4.1°C 23.5°F-4.7°C 95% 11.0 mph NE17.7 kmh NE 15.0 mph24.1 kmh 30.10 in1019.3 mb 0.00 in0.0 mm 0.00 in/hr0.0 mm/hr 0.00 in0.0 mm
07:40 AM 24.6°F-4.1°C 23.4°F-4.8°C 95% 13.0 mph NE20.9 kmh NE 15.0 mph24.1 kmh 30.10 in1019.3 mb 0.00 in0.0 mm 0.00 in/hr0.0 mm/hr 0.00 in0.0 mm
07:41 AM 24.6°F-4.1°C 23.4°F-4.8°C 95% 14.0 mph NNE22.5 kmh NNE 15.0 mph24.1 kmh 30.10 in1019.3 mb 0.00 in0.0 mm 0.00 in/hr0.0 mm/hr 0.00 in0.0 mm
07:42 AM 24.6°F-4.1°C 23.4°F-4.8°C 95% 10.0 mph NE16.1 kmh NE 15.0 mph24.1 kmh 30.10 in1019.3 mb 0.00 in0.0 mm 0.00 in/hr0.0 mm/hr 0.00 in0.0 mm
07:43 AM 24.6°F-4.1°C 23.4°F-4.8°C 95% 12.0 mph NNE19.3 kmh NNE 15.0 mph24.1 kmh 30.10 in1019.3 mb 0.00 in0.0 mm 0.00 in/hr0.0 mm/hr 0.00 in0.0 mm
07:44 AM 24.6°F-4.1°C 23.4°F-4.8°C 95% 13.0 mph NE20.9 kmh NE 17.0 mph27.4 kmh 30.10 in1019.3 mb 0.00 in0.0 mm 0.00 in/hr0.0 mm/hr 0.00 in0.0 mm
07:45 AM 24.6°F-4.1°C 23.4°F-4.8°C 95% 15.0 mph NE24.1 kmh NE 17.0 mph27.4 kmh 30.10 in1019.3 mb 0.00 in0.0 mm 0.00 in/hr0.0 mm/hr 0.00 in0.0 mm
07:46 AM 24.6°F-4.1°C 23.4°F-4.8°C 95% 13.0 mph NE20.9 kmh NE 17.0 mph27.4 kmh 30.10 in1019.3 mb 0.00 in0.0 mm 0.00 in/hr0.0 mm/hr 0.00 in0.0 mm
07:47 AM 24.6°F-4.1°C 23.4°F-4.8°C 95% 13.0 mph NE20.9 kmh NE 17.0 mph27.4 kmh 30.10 in1019.3 mb 0.00 in0.0 mm 0.00 in/hr0.0 mm/hr 0.00 in0.0 mm
07:48 AM 24.6°F-4.1°C 23.4°F-4.8°C 95% 13.0 mph NE20.9 kmh NE 17.0 mph27.4 kmh 30.10 in1019.3 mb 0.00 in0.0 mm 0.00 in/hr0.0 mm/hr 0.00 in0.0 mm
07:49 AM 24.6°F-4.1°C 23.4°F-4.8°C 95% 13.0 mph NE20.9 kmh NE 17.0 mph27.4 kmh 30.10 in1019.3 mb 0.00 in0.0 mm 0.00 in/hr0.0 mm/hr 0.00 in0.0 mm
07:50 AM 24.5°F-4.2°C 23.3°F-4.8°C 95% 11.0 mph NNE17.7 kmh NNE 17.0 mph27.4 kmh 30.10 in1019.3 mb 0.00 in0.0 mm 0.00 in/hr0.0 mm/hr 0.00 in0.0 mm
07:51 AM 24.5°F-4.2°C 23.3°F-4.8°C 95% 9.0 mph NNE14.5 kmh NNE 17.0 mph27.4 kmh 30.10 in1019.3 mb 0.00 in0.0 mm 0.00 in/hr0.0 mm/hr 0.00 in0.0 mm
07:52 AM 24.5°F-4.2°C 23.3°F-4.8°C 95% 10.0 mph NNE16.1 kmh NNE 17.0 mph27.4 kmh 30.10 in1019.3 mb 0.00 in0.0 mm 0.00 in/hr0.0 mm/hr 0.00 in0.0 mm
07:53 AM 24.5°F-4.2°C 23.3°F-4.8°C 95% 9.0 mph NNE14.5 kmh NNE 17.0 mph27.4 kmh 30.10 in1019.3 mb 0.00 in0.0 mm 0.00 in/hr0.0 mm/hr 0.00 in0.0 mm
07:54 AM 24.5°F-4.2°C 23.3°F-4.8°C 95% 10.0 mph NNE16.1 kmh NNE 17.0 mph27.4 kmh 30.10 in1019.3 mb 0.00 in0.0 mm 0.00 in/hr0.0 mm/hr 0.00 in0.0 mm
07:55 AM 24.5°F-4.2°C 23.3°F-4.8°C 95% 13.0 mph NNE20.9 kmh NNE 17.0 mph27.4 kmh 30.11 in1019.6 mb 0.00 in0.0 mm 0.00 in/hr0.0 mm/hr 0.00 in0.0 mm
07:56 AM 24.4°F-4.2°C 23.2°F-4.9°C 95% 11.0 mph NNE17.7 kmh NNE 17.0 mph27.4 kmh 30.11 in1019.6 mb 0.00 in0.0 mm 0.00 in/hr0.0 mm/hr 0.00 in0.0 mm
07:57 AM 24.5°F-4.2°C 23.3°F-4.8°C 95% 11.0 mph NE17.7 kmh NE 17.0 mph27.4 kmh 30.11 in1019.6 mb 0.00 in0.0 mm 0.00 in/hr0.0 mm/hr 0.00 in0.0 mm
07:58 AM 24.5°F-4.2°C 23.3°F-4.8°C 95% 9.0 mph NNE14.5 kmh NNE 17.0 mph27.4 kmh 30.11 in1019.6 mb 0.00 in0.0 mm 0.00 in/hr0.0 mm/hr 0.00 in0.0 mm
07:59 AM 24.5°F-4.2°C 23.3°F-4.8°C 95% 10.0 mph NNE16.1 kmh NNE 17.0 mph27.4 kmh 30.11 in1019.6 mb 0.00 in0.0 mm 0.00 in/hr0.0 mm/hr 0.00 in0.0 mm
08:00 AM 24.4°F-4.2°C 23.2°F-4.9°C 95% 10.0 mph NNE16.1 kmh NNE 17.0 mph27.4 kmh 30.11 in1019.6 mb 0.00 in0.0 mm 0.00 in/hr0.0 mm/hr 0.00 in0.0 mm
08:01 AM 24.4°F-4.2°C 23.2°F-4.9°C 95% 11.0 mph NE17.7 kmh NE 17.0 mph27.4 kmh 30.11 in1019.6 mb 0.00 in0.0 mm 0.00 in/hr0.0 mm/hr 0.00 in0.0 mm
08:02 AM 24.4°F-4.2°C 23.2°F-4.9°C 95% 11.0 mph NNE17.7 kmh NNE 11.0 mph17.7 kmh 30.11 in1019.6 mb 0.00 in0.0 mm 0.00 in/hr0.0 mm/hr 0.00 in0.0 mm
08:03 AM 24.4°F-4.2°C 23.2°F-4.9°C 95% 10.0 mph NNE16.1 kmh NNE 12.0 mph19.3 kmh 30.11 in1019.6 mb 0.00 in0.0 mm 0.00 in/hr0.0 mm/hr 0.00 in0.0 mm
08:04 AM 24.4°F-4.2°C 23.2°F-4.9°C 95% 13.0 mph NNE20.9 kmh NNE 13.0 mph20.9 kmh 30.11 in1019.6 mb 0.00 in0.0 mm 0.00 in/hr0.0 mm/hr 0.00 in0.0 mm
08:05 AM 24.4°F-4.2°C 23.2°F-4.9°C 95% 10.0 mph NNE16.1 kmh NNE 13.0 mph20.9 kmh 30.11 in1019.6 mb 0.00 in0.0 mm 0.00 in/hr0.0 mm/hr 0.00 in0.0 mm
08:06 AM 24.4°F-4.2°C 23.2°F-4.9°C 95% 13.0 mph NNE20.9 kmh NNE 14.0 mph22.5 kmh 30.11 in1019.6 mb 0.00 in0.0 mm 0.00 in/hr0.0 mm/hr 0.00 in0.0 mm
08:07 AM 24.3°F-4.3°C 23.1°F-4.9°C 95% 11.0 mph NNE17.7 kmh NNE 14.0 mph22.5 kmh 30.11 in1019.6 mb 0.00 in0.0 mm 0.00 in/hr0.0 mm/hr 0.00 in0.0 mm
08:08 AM 24.3°F-4.3°C 23.1°F-4.9°C 95% 9.0 mph NNE14.5 kmh NNE 14.0 mph22.5 kmh 30.11 in1019.6 mb 0.00 in0.0 mm 0.00 in/hr0.0 mm/hr 0.00 in0.0 mm
08:09 AM 24.3°F-4.3°C 23.1°F-4.9°C 95% 10.0 mph NNE16.1 kmh NNE 14.0 mph22.5 kmh 30.11 in1019.6 mb 0.00 in0.0 mm 0.00 in/hr0.0 mm/hr 0.00 in0.0 mm
08:10 AM 24.3°F-4.3°C 23.1°F-4.9°C 95% 13.0 mph NNE20.9 kmh NNE 15.0 mph24.1 kmh 30.11 in1019.6 mb 0.00 in0.0 mm 0.00 in/hr0.0 mm/hr 0.00 in0.0 mm
08:11 AM 24.3°F-4.3°C 23.1°F-4.9°C 95% 14.0 mph NE22.5 kmh NE 15.0 mph24.1 kmh 30.11 in1019.6 mb 0.00 in0.0 mm 0.00 in/hr0.0 mm/hr 0.00 in0.0 mm
08:12 AM 24.2°F-4.3°C 23.0°F-5.0°C 95% 13.0 mph NNE20.9 kmh NNE 15.0 mph24.1 kmh 30.11 in1019.6 mb 0.00 in0.0 mm 0.00 in/hr0.0 mm/hr 0.00 in0.0 mm
08:13 AM 24.3°F-4.3°C 23.1°F-4.9°C 95% 14.0 mph NE22.5 kmh NE 15.0 mph24.1 kmh 30.11 in1019.6 mb 0.00 in0.0 mm 0.00 in/hr0.0 mm/hr 0.00 in0.0 mm
08:14 AM 24.3°F-4.3°C 23.1°F-4.9°C 95% 9.0 mph NNE14.5 kmh NNE 15.0 mph24.1 kmh 30.12 in1020.0 mb 0.00 in0.0 mm 0.00 in/hr0.0 mm/hr 0.00 in0.0 mm
08:15 AM 24.2°F-4.3°C 23.0°F-5.0°C 95% 12.0 mph NNE19.3 kmh NNE 15.0 mph24.1 kmh 30.12 in1020.0 mb 0.00 in0.0 mm 0.00 in/hr0.0 mm/hr 0.00 in0.0 mm
08:16 AM 24.2°F-4.3°C 23.0°F-5.0°C 95% 13.0 mph NNE20.9 kmh NNE 15.0 mph24.1 kmh 30.12 in1020.0 mb 0.00 in0.0 mm 0.00 in/hr0.0 mm/hr 0.00 in0.0 mm
08:17 AM 24.2°F-4.3°C 23.0°F-5.0°C 95% 11.0 mph NNE17.7 kmh NNE 15.0 mph24.1 kmh 30.12 in1020.0 mb 0.00 in0.0 mm 0.00 in/hr0.0 mm/hr 0.00 in0.0 mm
08:18 AM 24.2°F-4.3°C 23.0°F-5.0°C 95% 12.0 mph NNE19.3 kmh NNE 15.0 mph24.1 kmh 30.12 in1020.0 mb 0.00 in0.0 mm 0.00 in/hr0.0 mm/hr 0.00 in0.0 mm
08:19 AM 24.2°F-4.3°C 23.0°F-5.0°C 95% 9.0 mph NNE14.5 kmh NNE 15.0 mph24.1 kmh 30.12 in1020.0 mb 0.00 in0.0 mm 0.00 in/hr0.0 mm/hr 0.00 in0.0 mm
08:20 AM 24.2°F-4.3°C 23.0°F-5.0°C 95% 12.0 mph NNE19.3 kmh NNE 15.0 mph24.1 kmh 30.12 in1020.0 mb 0.00 in0.0 mm 0.00 in/hr0.0 mm/hr 0.00 in0.0 mm
08:21 AM 24.2°F-4.3°C 23.0°F-5.0°C 95% 10.0 mph NE16.1 kmh NE 15.0 mph24.1 kmh 30.12 in1020.0 mb 0.00 in0.0 mm 0.00 in/hr0.0 mm/hr 0.00 in0.0 mm
08:22 AM 24.2°F-4.3°C 23.0°F-5.0°C 95% 12.0 mph NNE19.3 kmh NNE 15.0 mph24.1 kmh 30.12 in1020.0 mb 0.00 in0.0 mm 0.00 in/hr0.0 mm/hr 0.00 in0.0 mm
08:23 AM 24.2°F-4.3°C 23.0°F-5.0°C 95% 11.0 mph NNE17.7 kmh NNE 15.0 mph24.1 kmh 30.12 in1020.0 mb 0.00 in0.0 mm 0.00 in/hr0.0 mm/hr 0.00 in0.0 mm
08:24 AM 24.2°F-4.3°C 23.0°F-5.0°C 95% 11.0 mph NNE17.7 kmh NNE 15.0 mph24.1 kmh 30.12 in1020.0 mb 0.00 in0.0 mm 0.00 in/hr0.0 mm/hr 0.00 in0.0 mm
08:25 AM 24.2°F-4.3°C 23.0°F-5.0°C 95% 10.0 mph NE16.1 kmh NE 15.0 mph24.1 kmh 30.12 in1020.0 mb 0.00 in0.0 mm 0.00 in/hr0.0 mm/hr 0.00 in0.0 mm
08:26 AM 24.1°F-4.4°C 22.9°F-5.1°C 95% 11.0 mph NNE17.7 kmh NNE 15.0 mph24.1 kmh 30.12 in1020.0 mb 0.00 in0.0 mm 0.00 in/hr0.0 mm/hr 0.00 in0.0 mm
08:27 AM 24.1°F-4.4°C 22.9°F-5.1°C 95% 10.0 mph NNE16.1 kmh NNE 15.0 mph24.1 kmh 30.12 in1020.0 mb 0.00 in0.0 mm 0.00 in/hr0.0 mm/hr 0.00 in0.0 mm
08:28 AM 24.2°F-4.3°C 23.0°F-5.0°C 95% 12.0 mph N19.3 kmh N 15.0 mph24.1 kmh 30.12 in1020.0 mb 0.00 in0.0 mm 0.00 in/hr0.0 mm/hr 0.00 in0.0 mm
08:29 AM 24.1°F-4.4°C 22.9°F-5.1°C 95% 11.0 mph N17.7 kmh N 15.0 mph24.1 kmh 30.12 in1020.0 mb 0.00 in0.0 mm 0.00 in/hr0.0 mm/hr 0.00 in0.0 mm
08:30 AM 24.1°F-4.4°C 22.9°F-5.1°C 95% 8.0 mph NNE12.9 kmh NNE 15.0 mph24.1 kmh 30.12 in1020.0 mb 0.00 in0.0 mm 0.00 in/hr0.0 mm/hr 0.00 in0.0 mm
08:31 AM 24.1°F-4.4°C 22.9°F-5.1°C 95% 12.0 mph NNE19.3 kmh NNE 15.0 mph24.1 kmh 30.13 in1020.3 mb 0.00 in0.0 mm 0.00 in/hr0.0 mm/hr 0.00 in0.0 mm
08:32 AM 24.1°F-4.4°C 22.9°F-5.1°C 95% 10.0 mph N16.1 kmh N 13.0 mph20.9 kmh 30.13 in1020.3 mb 0.00 in0.0 mm 0.00 in/hr0.0 mm/hr 0.00 in0.0 mm
08:33 AM 24.1°F-4.4°C 22.9°F-5.1°C 95% 11.0 mph NNE17.7 kmh NNE 13.0 mph20.9 kmh 30.13 in1020.3 mb 0.00 in0.0 mm 0.00 in/hr0.0 mm/hr 0.00 in0.0 mm
08:34 AM 24.1°F-4.4°C 22.9°F-5.1°C 95% 11.0 mph NNE17.7 kmh NNE 14.0 mph22.5 kmh 30.13 in1020.3 mb 0.00 in0.0 mm 0.00 in/hr0.0 mm/hr 0.00 in0.0 mm
08:35 AM 24.1°F-4.4°C 22.9°F-5.1°C 95% 13.0 mph NNE20.9 kmh NNE 16.0 mph25.7 kmh 30.13 in1020.3 mb 0.00 in0.0 mm 0.00 in/hr0.0 mm/hr 0.00 in0.0 mm
08:36 AM 24.1°F-4.4°C 22.9°F-5.1°C 95% 10.0 mph NNE16.1 kmh NNE 16.0 mph25.7 kmh 30.13 in1020.3 mb 0.00 in0.0 mm 0.00 in/hr0.0 mm/hr 0.00 in0.0 mm
08:37 AM 24.0°F-4.4°C 22.8°F-5.1°C 95% 13.0 mph NNE20.9 kmh NNE 16.0 mph25.7 kmh 30.13 in1020.3 mb 0.00 in0.0 mm 0.00 in/hr0.0 mm/hr 0.00 in0.0 mm
08:38 AM 24.0°F-4.4°C 22.8°F-5.1°C 95% 9.0 mph NE14.5 kmh NE 16.0 mph25.7 kmh 30.13 in1020.3 mb 0.00 in0.0 mm 0.00 in/hr0.0 mm/hr 0.00 in0.0 mm
08:39 AM 24.0°F-4.4°C 22.8°F-5.1°C 95% 11.0 mph NNE17.7 kmh NNE 16.0 mph25.7 kmh 30.13 in1020.3 mb 0.00 in0.0 mm 0.00 in/hr0.0 mm/hr 0.00 in0.0 mm
08:40 AM 24.0°F-4.4°C 22.8°F-5.1°C 95% 16.0 mph NNE25.7 kmh NNE 16.0 mph25.7 kmh 30.13 in1020.3 mb 0.00 in0.0 mm 0.00 in/hr0.0 mm/hr 0.00 in0.0 mm
08:41 AM 24.0°F-4.4°C 22.8°F-5.1°C 95% 12.0 mph NNE19.3 kmh NNE 16.0 mph25.7 kmh 30.13 in1020.3 mb 0.00 in0.0 mm 0.00 in/hr0.0 mm/hr 0.00 in0.0 mm
08:42 AM 24.0°F-4.4°C 22.8°F-5.1°C 95% 11.0 mph NNE17.7 kmh NNE 16.0 mph25.7 kmh 30.14 in1020.7 mb 0.00 in0.0 mm 0.00 in/hr0.0 mm/hr 0.00 in0.0 mm
08:43 AM 24.0°F-4.4°C 22.8°F-5.1°C 95% 10.0 mph N16.1 kmh N 16.0 mph25.7 kmh 30.14 in1020.7 mb 0.00 in0.0 mm 0.00 in/hr0.0 mm/hr 0.00 in0.0 mm
08:44 AM 24.0°F-4.4°C 22.8°F-5.1°C 95% 11.0 mph NNE17.7 kmh NNE 16.0 mph25.7 kmh 30.14 in1020.7 mb 0.00 in0.0 mm 0.00 in/hr0.0 mm/hr 0.00 in0.0 mm
08:45 AM 24.0°F-4.4°C 22.8°F-5.1°C 95% 12.0 mph NNE19.3 kmh NNE 16.0 mph25.7 kmh 30.14 in1020.7 mb 0.00 in0.0 mm 0.00 in/hr0.0 mm/hr 0.00 in0.0 mm
08:46 AM 24.0°F-4.4°C 22.8°F-5.1°C 95% 15.0 mph N24.1 kmh N 16.0 mph25.7 kmh 30.14 in1020.7 mb 0.00 in0.0 mm 0.00 in/hr0.0 mm/hr 0.00 in0.0 mm
08:47 AM 23.9°F-4.5°C 22.7°F-5.2°C 95% 12.0 mph NNE19.3 kmh NNE 16.0 mph25.7 kmh 30.14 in1020.7 mb 0.00 in0.0 mm 0.00 in/hr0.0 mm/hr 0.00 in0.0 mm
08:48 AM 23.9°F-4.5°C 22.7°F-5.2°C 95% 13.0 mph NNE20.9 kmh NNE 16.0 mph25.7 kmh 30.14 in1020.7 mb 0.00 in0.0 mm 0.00 in/hr0.0 mm/hr 0.00 in0.0 mm
08:49 AM 23.9°F-4.5°C 22.7°F-5.2°C 95% 11.0 mph NNE17.7 kmh NNE 16.0 mph25.7 kmh 30.14 in1020.7 mb 0.00 in0.0 mm 0.00 in/hr0.0 mm/hr 0.00 in0.0 mm
08:50 AM 23.9°F-4.5°C 22.7°F-5.2°C 95% 11.0 mph NNE17.7 kmh NNE 16.0 mph25.7 kmh 30.14 in1020.7 mb 0.00 in0.0 mm 0.00 in/hr0.0 mm/hr 0.00 in0.0 mm
08:51 AM 23.9°F-4.5°C 22.7°F-5.2°C 95% 12.0 mph NE19.3 kmh NE 16.0 mph25.7 kmh 30.14 in1020.7 mb 0.00 in0.0 mm 0.00 in/hr0.0 mm/hr 0.00 in0.0 mm
08:52 AM 23.9°F-4.5°C 22.7°F-5.2°C 95% 11.0 mph N17.7 kmh N 16.0 mph25.7 kmh 30.14 in1020.7 mb 0.00 in0.0 mm 0.00 in/hr0.0 mm/hr 0.00 in0.0 mm
08:53 AM 23.9°F-4.5°C 22.7°F-5.2°C 95% 12.0 mph NNE19.3 kmh NNE 16.0 mph25.7 kmh 30.14 in1020.7 mb 0.00 in0.0 mm 0.00 in/hr0.0 mm/hr 0.00 in0.0 mm
08:54 AM 23.8°F-4.6°C 22.6°F-5.2°C 95% 11.0 mph N17.7 kmh N 16.0 mph25.7 kmh 30.14 in1020.7 mb 0.00 in0.0 mm 0.00 in/hr0.0 mm/hr 0.00 in0.0 mm
08:55 AM 23.8°F-4.6°C 22.6°F-5.2°C 95% 13.0 mph NNE20.9 kmh NNE 16.0 mph25.7 kmh 30.14 in1020.7 mb 0.00 in0.0 mm 0.00 in/hr0.0 mm/hr 0.00 in0.0 mm
08:56 AM 23.8°F-4.6°C 22.6°F-5.2°C 95% 15.0 mph NNE24.1 kmh NNE 16.0 mph25.7 kmh 30.14 in1020.7 mb 0.00 in0.0 mm 0.00 in/hr0.0 mm/hr 0.00 in0.0 mm
08:57 AM 23.8°F-4.6°C 22.6°F-5.2°C 95% 12.0 mph NNE19.3 kmh NNE 16.0 mph25.7 kmh 30.14 in1020.7 mb 0.00 in0.0 mm 0.00 in/hr0.0 mm/hr 0.00 in0.0 mm
08:58 AM 23.8°F-4.6°C 22.6°F-5.2°C 95% 13.0 mph N20.9 kmh N 16.0 mph25.7 kmh 30.14 in1020.7 mb 0.00 in0.0 mm 0.00 in/hr0.0 mm/hr 0.00 in0.0 mm
08:59 AM 23.8°F-4.6°C 22.6°F-5.2°C 95% 11.0 mph NNE17.7 kmh NNE 16.0 mph25.7 kmh 30.15 in1021.0 mb 0.00 in0.0 mm 0.00 in/hr0.0 mm/hr 0.00 in0.0 mm
09:00 AM 23.8°F-4.6°C 22.6°F-5.2°C 95% 15.0 mph NNE24.1 kmh NNE 16.0 mph25.7 kmh 30.15 in1021.0 mb 0.00 in0.0 mm 0.00 in/hr0.0 mm/hr 0.00 in0.0 mm
09:01 AM 23.7°F-4.6°C 22.5°F-5.3°C 95% 14.0 mph N22.5 kmh N 16.0 mph25.7 kmh 30.15 in1021.0 mb 0.00 in0.0 mm 0.00 in/hr0.0 mm/hr 0.00 in0.0 mm
09:02 AM 23.7°F-4.6°C 22.5°F-5.3°C 95% 16.0 mph NE25.7 kmh NE 16.0 mph25.7 kmh 30.15 in1021.0 mb 0.00 in0.0 mm 0.00 in/hr0.0 mm/hr 0.00 in0.0 mm
09:03 AM 23.7°F-4.6°C 22.5°F-5.3°C 95% 14.0 mph NNE22.5 kmh NNE 16.0 mph25.7 kmh 30.15 in1021.0 mb 0.00 in0.0 mm 0.00 in/hr0.0 mm/hr 0.00 in0.0 mm
09:04 AM 23.7°F-4.6°C 22.5°F-5.3°C 95% 16.0 mph NNE25.7 kmh NNE 16.0 mph25.7 kmh 30.15 in1021.0 mb 0.00 in0.0 mm 0.00 in/hr0.0 mm/hr 0.00 in0.0 mm
09:05 AM 23.7°F-4.6°C 22.5°F-5.3°C 95% 13.0 mph NNE20.9 kmh NNE 16.0 mph25.7 kmh 30.15 in1021.0 mb 0.00 in0.0 mm 0.00 in/hr0.0 mm/hr 0.00 in0.0 mm
09:06 AM 23.6°F-4.7°C 22.4°F-5.3°C 95% 12.0 mph NNE19.3 kmh NNE 16.0 mph25.7 kmh 30.15 in1021.0 mb 0.00 in0.0 mm 0.00 in/hr0.0 mm/hr 0.00 in0.0 mm
09:07 AM 23.6°F-4.7°C 22.4°F-5.3°C 95% 11.0 mph N17.7 kmh N 16.0 mph25.7 kmh 30.15 in1021.0 mb 0.00 in0.0 mm 0.00 in/hr0.0 mm/hr 0.00 in0.0 mm
09:08 AM 23.6°F-4.7°C 22.4°F-5.3°C 95% 13.0 mph NNE20.9 kmh NNE 16.0 mph25.7 kmh 30.15 in1021.0 mb 0.00 in0.0 mm 0.00 in/hr0.0 mm/hr 0.00 in0.0 mm
09:09 AM 23.6°F-4.7°C 22.4°F-5.3°C 95% 13.0 mph NNE20.9 kmh NNE 16.0 mph25.7 kmh 30.15 in1021.0 mb 0.00 in0.0 mm 0.00 in/hr0.0 mm/hr 0.00 in0.0 mm
09:10 AM 23.6°F-4.7°C 22.4°F-5.3°C 95% 11.0 mph NNE17.7 kmh NNE 16.0 mph25.7 kmh 30.15 in1021.0 mb 0.00 in0.0 mm 0.00 in/hr0.0 mm/hr 0.00 in0.0 mm
09:11 AM 23.6°F-4.7°C 22.4°F-5.3°C 95% 13.0 mph NNE20.9 kmh NNE 16.0 mph25.7 kmh 30.15 in1021.0 mb 0.00 in0.0 mm 0.00 in/hr0.0 mm/hr 0.00 in0.0 mm
09:12 AM 23.6°F-4.7°C 22.4°F-5.3°C 95% 10.0 mph NNE16.1 kmh NNE 16.0 mph25.7 kmh 30.15 in1021.0 mb 0.00 in0.0 mm 0.00 in/hr0.0 mm/hr 0.00 in0.0 mm
09:13 AM 23.6°F-4.7°C 22.4°F-5.3°C 95% 13.0 mph NNE20.9 kmh NNE 16.0 mph25.7 kmh 30.15 in1021.0 mb 0.00 in0.0 mm 0.00 in/hr0.0 mm/hr 0.00 in0.0 mm
09:14 AM 23.6°F-4.7°C 22.4°F-5.3°C 95% 12.0 mph NNE19.3 kmh NNE 16.0 mph25.7 kmh 30.15 in1021.0 mb 0.00 in0.0 mm 0.00 in/hr0.0 mm/hr 0.00 in0.0 mm
09:15 AM 23.6°F-4.7°C 22.4°F-5.3°C 95% 12.0 mph NNE19.3 kmh NNE 16.0 mph25.7 kmh 30.16 in1021.3 mb 0.00 in0.0 mm 0.00 in/hr0.0 mm/hr 0.00 in0.0 mm
09:16 AM 23.6°F-4.7°C 22.4°F-5.3°C 95% 12.0 mph N19.3 kmh N 16.0 mph25.7 kmh 30.16 in1021.3 mb 0.00 in0.0 mm 0.00 in/hr0.0 mm/hr 0.00 in0.0 mm
09:17 AM 23.6°F-4.7°C 22.4°F-5.3°C 95% 12.0 mph NNE19.3 kmh NNE 16.0 mph25.7 kmh 30.16 in1021.3 mb 0.00 in0.0 mm 0.00 in/hr0.0 mm/hr 0.00 in0.0 mm
09:18 AM 23.6°F-4.7°C 22.4°F-5.3°C 95% 13.0 mph NNE20.9 kmh NNE 16.0 mph25.7 kmh 30.16 in1021.3 mb 0.00 in0.0 mm 0.00 in/hr0.0 mm/hr 0.00 in0.0 mm
09:19 AM 23.6°F-4.7°C 22.4°F-5.3°C 95% 12.0 mph N19.3 kmh N 16.0 mph25.7 kmh 30.16 in1021.3 mb 0.00 in0.0 mm 0.00 in/hr0.0 mm/hr 0.00 in0.0 mm
09:20 AM 23.5°F-4.7°C 22.3°F-5.4°C 95% 13.0 mph NNE20.9 kmh NNE 16.0 mph25.7 kmh 30.16 in1021.3 mb 0.00 in0.0 mm 0.00 in/hr0.0 mm/hr 0.00 in0.0 mm
09:21 AM 23.5°F-4.7°C 22.3°F-5.4°C 95% 11.0 mph NNE17.7 kmh NNE 16.0 mph25.7 kmh 30.16 in1021.3 mb 0.00 in0.0 mm 0.00 in/hr0.0 mm/hr 0.00 in0.0 mm
09:22 AM 23.5°F-4.7°C 22.3°F-5.4°C 95% 12.0 mph NE19.3 kmh NE 16.0 mph25.7 kmh 30.16 in1021.3 mb 0.00 in0.0 mm 0.00 in/hr0.0 mm/hr 0.00 in0.0 mm
09:23 AM 23.5°F-4.7°C 22.3°F-5.4°C 95% 11.0 mph NNE17.7 kmh NNE 16.0 mph25.7 kmh 30.16 in1021.3 mb 0.00 in0.0 mm 0.00 in/hr0.0 mm/hr 0.00 in0.0 mm
09:24 AM 23.5°F-4.7°C 22.3°F-5.4°C 95% 14.0 mph NNE22.5 kmh NNE 16.0 mph25.7 kmh 30.16 in1021.3 mb 0.00 in0.0 mm 0.00 in/hr0.0 mm/hr 0.00 in0.0 mm
09:25 AM 23.5°F-4.7°C 22.3°F-5.4°C 95% 12.0 mph N19.3 kmh N 16.0 mph25.7 kmh 30.16 in1021.3 mb 0.00 in0.0 mm 0.00 in/hr0.0 mm/hr 0.00 in0.0 mm
09:26 AM 23.5°F-4.7°C 22.3°F-5.4°C 95% 13.0 mph N20.9 kmh N 17.0 mph27.4 kmh 30.16 in1021.3 mb 0.00 in0.0 mm 0.00 in/hr0.0 mm/hr 0.00 in0.0 mm
09:27 AM 23.5°F-4.7°C 22.3°F-5.4°C 95% 14.0 mph NNE22.5 kmh NNE 17.0 mph27.4 kmh 30.16 in1021.3 mb 0.00 in0.0 mm 0.00 in/hr0.0 mm/hr 0.00 in0.0 mm
09:28 AM 23.5°F-4.7°C 22.3°F-5.4°C 95% 12.0 mph NNE19.3 kmh NNE 17.0 mph27.4 kmh 30.16 in1021.3 mb 0.00 in0.0 mm 0.00 in/hr0.0 mm/hr 0.00 in0.0 mm
09:29 AM 23.5°F-4.7°C 22.3°F-5.4°C 95% 11.0 mph NNE17.7 kmh NNE 17.0 mph27.4 kmh 30.16 in1021.3 mb 0.00 in0.0 mm 0.00 in/hr0.0 mm/hr 0.00 in0.0 mm
09:30 AM 23.5°F-4.7°C 22.3°F-5.4°C 95% 13.0 mph NNE20.9 kmh NNE 17.0 mph27.4 kmh 30.17 in1021.7 mb 0.00 in0.0 mm 0.00 in/hr0.0 mm/hr 0.00 in0.0 mm
09:31 AM 23.5°F-4.7°C 22.3°F-5.4°C 95% 12.0 mph NNE19.3 kmh NNE 17.0 mph27.4 kmh 30.17 in1021.7 mb 0.00 in0.0 mm 0.00 in/hr0.0 mm/hr 0.00 in0.0 mm
09:32 AM 23.5°F-4.7°C 22.3°F-5.4°C 95% 13.0 mph NNE20.9 kmh NNE 14.0 mph22.5 kmh 30.17 in1021.7 mb 0.00 in0.0 mm 0.00 in/hr0.0 mm/hr 0.00 in0.0 mm
09:33 AM 23.5°F-4.7°C 22.3°F-5.4°C 95% 12.0 mph N19.3 kmh N 14.0 mph22.5 kmh 30.17 in1021.7 mb 0.00 in0.0 mm 0.00 in/hr0.0 mm/hr 0.00 in0.0 mm
09:34 AM 23.6°F-4.7°C 22.4°F-5.3°C 95% 13.0 mph NNE20.9 kmh NNE 14.0 mph22.5 kmh 30.17 in1021.7 mb 0.00 in0.0 mm 0.00 in/hr0.0 mm/hr 0.00 in0.0 mm
09:35 AM 23.6°F-4.7°C 22.4°F-5.3°C 95% 14.0 mph NNE22.5 kmh NNE 15.0 mph24.1 kmh 30.17 in1021.7 mb 0.00 in0.0 mm 0.00 in/hr0.0 mm/hr 0.00 in0.0 mm
09:36 AM 23.6°F-4.7°C 22.4°F-5.3°C 95% 12.0 mph NNE19.3 kmh NNE 15.0 mph24.1 kmh 30.17 in1021.7 mb 0.00 in0.0 mm 0.00 in/hr0.0 mm/hr 0.00 in0.0 mm
09:37 AM 23.6°F-4.7°C 22.4°F-5.3°C 95% 12.0 mph N19.3 kmh N 15.0 mph24.1 kmh 30.17 in1021.7 mb 0.00 in0.0 mm 0.00 in/hr0.0 mm/hr 0.00 in0.0 mm
09:38 AM 23.6°F-4.7°C 22.4°F-5.3°C 95% 14.0 mph N22.5 kmh N 15.0 mph24.1 kmh 30.17 in1021.7 mb 0.00 in0.0 mm 0.00 in/hr0.0 mm/hr 0.00 in0.0 mm
09:39 AM 23.6°F-4.7°C 22.4°F-5.3°C 95% 15.0 mph NNE24.1 kmh NNE 16.0 mph25.7 kmh 30.17 in1021.7 mb 0.00 in0.0 mm 0.00 in/hr0.0 mm/hr 0.00 in0.0 mm
09:40 AM 23.6°F-4.7°C 22.4°F-5.3°C 95% 13.0 mph NNE20.9 kmh NNE 16.0 mph25.7 kmh 30.17 in1021.7 mb 0.00 in0.0 mm 0.00 in/hr0.0 mm/hr 0.00 in0.0 mm
09:41 AM 23.7°F-4.6°C 22.5°F-5.3°C 95% 15.0 mph NNE24.1 kmh NNE 16.0 mph25.7 kmh 30.17 in1021.7 mb 0.00 in0.0 mm 0.00 in/hr0.0 mm/hr 0.00 in0.0 mm
09:42 AM 23.7°F-4.6°C 22.5°F-5.3°C 95% 11.0 mph NNE17.7 kmh NNE 16.0 mph25.7 kmh 30.17 in1021.7 mb 0.00 in0.0 mm 0.00 in/hr0.0 mm/hr 0.00 in0.0 mm
09:43 AM 23.7°F-4.6°C 22.5°F-5.3°C 95% 10.0 mph N16.1 kmh N 16.0 mph25.7 kmh 30.17 in1021.7 mb 0.00 in0.0 mm 0.00 in/hr0.0 mm/hr 0.00 in0.0 mm
09:44 AM 23.7°F-4.6°C 22.5°F-5.3°C 95% 14.0 mph NNE22.5 kmh NNE 16.0 mph25.7 kmh 30.17 in1021.7 mb 0.00 in0.0 mm 0.00 in/hr0.0 mm/hr 0.00 in0.0 mm
09:45 AM 23.7°F-4.6°C 22.5°F-5.3°C 95% 13.0 mph NNE20.9 kmh NNE 16.0 mph25.7 kmh 30.17 in1021.7 mb 0.00 in0.0 mm 0.00 in/hr0.0 mm/hr 0.00 in0.0 mm
09:46 AM 23.8°F-4.6°C 22.6°F-5.2°C 95% 13.0 mph N20.9 kmh N 16.0 mph25.7 kmh 30.17 in1021.7 mb 0.00 in0.0 mm 0.00 in/hr0.0 mm/hr 0.00 in0.0 mm
09:47 AM 23.8°F-4.6°C 22.6°F-5.2°C 95% 14.0 mph NNE22.5 kmh NNE 16.0 mph25.7 kmh 30.17 in1021.7 mb 0.00 in0.0 mm 0.00 in/hr0.0 mm/hr 0.00 in0.0 mm
09:48 AM 23.8°F-4.6°C 22.6°F-5.2°C 95% 16.0 mph NNE25.7 kmh NNE 16.0 mph25.7 kmh 30.17 in1021.7 mb 0.00 in0.0 mm 0.00 in/hr0.0 mm/hr 0.00 in0.0 mm
09:49 AM 23.8°F-4.6°C 22.6°F-5.2°C 95% 11.0 mph N17.7 kmh N 16.0 mph25.7 kmh 30.18 in1022.0 mb 0.00 in0.0 mm 0.00 in/hr0.0 mm/hr 0.00 in0.0 mm
09:50 AM 23.8°F-4.6°C 22.6°F-5.2°C 95% 13.0 mph NNE20.9 kmh NNE 16.0 mph25.7 kmh 30.18 in1022.0 mb 0.00 in0.0 mm 0.00 in/hr0.0 mm/hr 0.00 in0.0 mm
09:51 AM 23.8°F-4.6°C 22.6°F-5.2°C 95% 14.0 mph NNE22.5 kmh NNE 16.0 mph25.7 kmh 30.18 in1022.0 mb 0.00 in0.0 mm 0.00 in/hr0.0 mm/hr 0.00 in0.0 mm
09:52 AM 23.8°F-4.6°C 22.6°F-5.2°C 95% 17.0 mph N27.4 kmh N 19.0 mph30.6 kmh 30.18 in1022.0 mb 0.00 in0.0 mm 0.00 in/hr0.0 mm/hr 0.00 in0.0 mm
09:53 AM 23.8°F-4.6°C 22.6°F-5.2°C 95% 12.0 mph NE19.3 kmh NE 19.0 mph30.6 kmh 30.18 in1022.0 mb 0.00 in0.0 mm 0.00 in/hr0.0 mm/hr 0.00 in0.0 mm
09:54 AM 23.8°F-4.6°C 22.6°F-5.2°C 95% 16.0 mph NNE25.7 kmh NNE 19.0 mph30.6 kmh 30.18 in1022.0 mb 0.00 in0.0 mm 0.00 in/hr0.0 mm/hr 0.00 in0.0 mm
09:55 AM 23.9°F-4.5°C 22.7°F-5.2°C 95% 14.0 mph NNE22.5 kmh NNE 19.0 mph30.6 kmh 30.18 in1022.0 mb 0.00 in0.0 mm 0.00 in/hr0.0 mm/hr 0.00 in0.0 mm
09:56 AM 23.9°F-4.5°C 22.7°F-5.2°C 95% 14.0 mph NNE22.5 kmh NNE 19.0 mph30.6 kmh 30.18 in1022.0 mb 0.00 in0.0 mm 0.00 in/hr0.0 mm/hr 0.00 in0.0 mm
09:57 AM 23.9°F-4.5°C 22.7°F-5.2°C 95% 13.0 mph NNE20.9 kmh NNE 19.0 mph30.6 kmh 30.18 in1022.0 mb 0.00 in0.0 mm 0.00 in/hr0.0 mm/hr 0.00 in0.0 mm
09:58 AM 23.9°F-4.5°C 22.7°F-5.2°C 95% 13.0 mph NNE20.9 kmh NNE 19.0 mph30.6 kmh 30.18 in1022.0 mb 0.00 in0.0 mm 0.00 in/hr0.0 mm/hr 0.00 in0.0 mm
09:59 AM 23.9°F-4.5°C 22.7°F-5.2°C 95% 12.0 mph NNE19.3 kmh NNE 19.0 mph30.6 kmh 30.18 in1022.0 mb 0.00 in0.0 mm 0.00 in/hr0.0 mm/hr 0.00 in0.0 mm
10:00 AM 23.9°F-4.5°C 22.7°F-5.2°C 95% 11.0 mph NNE17.7 kmh NNE 19.0 mph30.6 kmh 30.18 in1022.0 mb 0.00 in0.0 mm 0.00 in/hr0.0 mm/hr 0.00 in0.0 mm
10:01 AM 23.9°F-4.5°C 22.7°F-5.2°C 95% 12.0 mph N19.3 kmh N 19.0 mph30.6 kmh 30.18 in1022.0 mb 0.00 in0.0 mm 0.00 in/hr0.0 mm/hr 0.00 in0.0 mm
10:02 AM 24.0°F-4.4°C 22.8°F-5.1°C 95% 14.0 mph NE22.5 kmh NE 15.0 mph24.1 kmh 30.18 in1022.0 mb 0.00 in0.0 mm 0.00 in/hr0.0 mm/hr 0.00 in0.0 mm
10:03 AM 24.0°F-4.4°C 22.8°F-5.1°C 95% 13.0 mph NNE20.9 kmh NNE 17.0 mph27.4 kmh 30.18 in1022.0 mb 0.00 in0.0 mm 0.00 in/hr0.0 mm/hr 0.00 in0.0 mm
10:04 AM 24.0°F-4.4°C 22.8°F-5.1°C 95% 16.0 mph NNE25.7 kmh NNE 17.0 mph27.4 kmh 30.18 in1022.0 mb 0.00 in0.0 mm 0.00 in/hr0.0 mm/hr 0.00 in0.0 mm
10:05 AM 24.0°F-4.4°C 22.8°F-5.1°C 95% 12.0 mph N19.3 kmh N 17.0 mph27.4 kmh 30.18 in1022.0 mb 0.00 in0.0 mm 0.00 in/hr0.0 mm/hr 0.00 in0.0 mm
10:06 AM 24.0°F-4.4°C 22.8°F-5.1°C 95% 13.0 mph NNE20.9 kmh NNE 17.0 mph27.4 kmh 30.18 in1022.0 mb 0.00 in0.0 mm 0.00 in/hr0.0 mm/hr 0.00 in0.0 mm
10:07 AM 24.0°F-4.4°C 22.8°F-5.1°C 95% 12.0 mph N19.3 kmh N 17.0 mph27.4 kmh 30.19 in1022.4 mb 0.00 in0.0 mm 0.00 in/hr0.0 mm/hr 0.00 in0.0 mm
10:08 AM 24.0°F-4.4°C 22.8°F-5.1°C 95% 12.0 mph N19.3 kmh N 17.0 mph27.4 kmh 30.19 in1022.4 mb 0.00 in0.0 mm 0.00 in/hr0.0 mm/hr 0.00 in0.0 mm
10:09 AM 24.1°F-4.4°C 22.9°F-5.1°C 95% 13.0 mph N20.9 kmh N 17.0 mph27.4 kmh 30.19 in1022.4 mb 0.00 in0.0 mm 0.00 in/hr0.0 mm/hr 0.00 in0.0 mm
10:10 AM 24.1°F-4.4°C 22.9°F-5.1°C 95% 14.0 mph NNE22.5 kmh NNE 17.0 mph27.4 kmh 30.19 in1022.4 mb 0.00 in0.0 mm 0.00 in/hr0.0 mm/hr 0.00 in0.0 mm
10:11 AM 24.1°F-4.4°C 22.9°F-5.1°C 95% 12.0 mph NNE19.3 kmh NNE 17.0 mph27.4 kmh 30.19 in1022.4 mb 0.00 in0.0 mm 0.00 in/hr0.0 mm/hr 0.00 in0.0 mm
10:12 AM 24.1°F-4.4°C 22.9°F-5.1°C 95% 13.0 mph NNE20.9 kmh NNE 17.0 mph27.4 kmh 30.19 in1022.4 mb 0.00 in0.0 mm 0.00 in/hr0.0 mm/hr 0.00 in0.0 mm
10:13 AM 24.1°F-4.4°C 22.9°F-5.1°C 95% 15.0 mph N24.1 kmh N 17.0 mph27.4 kmh 30.19 in1022.4 mb 0.00 in0.0 mm 0.00 in/hr0.0 mm/hr 0.00 in0.0 mm
10:14 AM 24.1°F-4.4°C 22.9°F-5.1°C 95% 15.0 mph NNE24.1 kmh NNE 17.0 mph27.4 kmh 30.19 in1022.4 mb 0.00 in0.0 mm 0.00 in/hr0.0 mm/hr 0.00 in0.0 mm
10:15 AM 24.1°F-4.4°C 22.9°F-5.1°C 95% 13.0 mph NNE20.9 kmh NNE 17.0 mph27.4 kmh 30.19 in1022.4 mb 0.00 in0.0 mm 0.00 in/hr0.0 mm/hr 0.00 in0.0 mm
10:16 AM 24.1°F-4.4°C 22.9°F-5.1°C 95% 14.0 mph NNE22.5 kmh NNE 17.0 mph27.4 kmh 30.19 in1022.4 mb 0.00 in0.0 mm 0.00 in/hr0.0 mm/hr 0.00 in0.0 mm
10:17 AM 24.1°F-4.4°C 22.9°F-5.1°C 95% 15.0 mph NNE24.1 kmh NNE 18.0 mph29.0 kmh 30.19 in1022.4 mb 0.00 in0.0 mm 0.00 in/hr0.0 mm/hr 0.00 in0.0 mm
10:18 AM 24.1°F-4.4°C 22.9°F-5.1°C 95% 14.0 mph NNE22.5 kmh NNE 18.0 mph29.0 kmh 30.19 in1022.4 mb 0.00 in0.0 mm 0.00 in/hr0.0 mm/hr 0.00 in0.0 mm
10:19 AM 24.1°F-4.4°C 22.9°F-5.1°C 95% 15.0 mph NE24.1 kmh NE 18.0 mph29.0 kmh 30.19 in1022.4 mb 0.00 in0.0 mm 0.00 in/hr0.0 mm/hr 0.00 in0.0 mm
10:20 AM 24.1°F-4.4°C 22.9°F-5.1°C 95% 11.0 mph NNE17.7 kmh NNE 18.0 mph29.0 kmh 30.19 in1022.4 mb 0.00 in0.0 mm 0.00 in/hr0.0 mm/hr 0.00 in0.0 mm
10:21 AM 24.1°F-4.4°C 22.9°F-5.1°C 95% 15.0 mph NNE24.1 kmh NNE 18.0 mph29.0 kmh 30.19 in1022.4 mb 0.00 in0.0 mm 0.00 in/hr0.0 mm/hr 0.00 in0.0 mm
10:22 AM 24.1°F-4.4°C 22.9°F-5.1°C 95% 12.0 mph NNE19.3 kmh NNE 18.0 mph29.0 kmh 30.19 in1022.4 mb 0.00 in0.0 mm 0.00 in/hr0.0 mm/hr 0.00 in0.0 mm
10:23 AM 24.1°F-4.4°C 22.9°F-5.1°C 95% 11.0 mph NE17.7 kmh NE 18.0 mph29.0 kmh 30.19 in1022.4 mb 0.00 in0.0 mm 0.00 in/hr0.0 mm/hr 0.00 in0.0 mm
10:24 AM 24.1°F-4.4°C 22.9°F-5.1°C 95% 11.0 mph NNE17.7 kmh NNE 18.0 mph29.0 kmh 30.19 in1022.4 mb 0.00 in0.0 mm 0.00 in/hr0.0 mm/hr 0.00 in0.0 mm
10:25 AM 24.2°F-4.3°C 23.0°F-5.0°C 95% 12.0 mph NNE19.3 kmh NNE 18.0 mph29.0 kmh 30.19 in1022.4 mb 0.00 in0.0 mm 0.00 in/hr0.0 mm/hr 0.00 in0.0 mm
10:26 AM 24.2°F-4.3°C 23.0°F-5.0°C 95% 12.0 mph NE19.3 kmh NE 18.0 mph29.0 kmh 30.19 in1022.4 mb 0.00 in0.0 mm 0.00 in/hr0.0 mm/hr 0.00 in0.0 mm
10:27 AM 24.2°F-4.3°C 23.0°F-5.0°C 95% 12.0 mph NNE19.3 kmh NNE 18.0 mph29.0 kmh 30.19 in1022.4 mb 0.00 in0.0 mm 0.00 in/hr0.0 mm/hr 0.00 in0.0 mm
10:28 AM 24.2°F-4.3°C 23.0°F-5.0°C 95% 13.0 mph NNE20.9 kmh NNE 18.0 mph29.0 kmh 30.19 in1022.4 mb 0.00 in0.0 mm 0.00 in/hr0.0 mm/hr 0.00 in0.0 mm
10:29 AM 24.2°F-4.3°C 23.0°F-5.0°C 95% 14.0 mph NNE22.5 kmh NNE 18.0 mph29.0 kmh 30.19 in1022.4 mb 0.00 in0.0 mm 0.00 in/hr0.0 mm/hr 0.00 in0.0 mm
10:30 AM 24.2°F-4.3°C 23.0°F-5.0°C 95% 12.0 mph NNE19.3 kmh NNE 18.0 mph29.0 kmh 30.19 in1022.4 mb 0.00 in0.0 mm 0.00 in/hr0.0 mm/hr 0.00 in0.0 mm
10:31 AM 24.2°F-4.3°C 23.0°F-5.0°C 95% 13.0 mph NNE20.9 kmh NNE 18.0 mph29.0 kmh 30.19 in1022.4 mb 0.00 in0.0 mm 0.00 in/hr0.0 mm/hr 0.00 in0.0 mm
10:32 AM 24.2°F-4.3°C 23.0°F-5.0°C 95% 11.0 mph NNE17.7 kmh NNE 13.0 mph20.9 kmh 30.19 in1022.4 mb 0.00 in0.0 mm 0.00 in/hr0.0 mm/hr 0.00 in0.0 mm
10:33 AM 24.3°F-4.3°C 23.1°F-4.9°C 95% 13.0 mph NNE20.9 kmh NNE 15.0 mph24.1 kmh 30.20 in1022.7 mb 0.00 in0.0 mm 0.00 in/hr0.0 mm/hr 0.00 in0.0 mm
10:34 AM 24.3°F-4.3°C 23.1°F-4.9°C 95% 12.0 mph NE19.3 kmh NE 15.0 mph24.1 kmh 30.19 in1022.4 mb 0.00 in0.0 mm 0.00 in/hr0.0 mm/hr 0.00 in0.0 mm
10:35 AM 24.3°F-4.3°C 23.1°F-4.9°C 95% 12.0 mph NNE19.3 kmh NNE 15.0 mph24.1 kmh 30.19 in1022.4 mb 0.00 in0.0 mm 0.00 in/hr0.0 mm/hr 0.00 in0.0 mm
10:36 AM 24.3°F-4.3°C 23.1°F-4.9°C 95% 10.0 mph NE16.1 kmh NE 15.0 mph24.1 kmh 30.20 in1022.7 mb 0.00 in0.0 mm 0.00 in/hr0.0 mm/hr 0.00 in0.0 mm
10:37 AM 24.3°F-4.3°C 23.1°F-4.9°C 95% 15.0 mph NNE24.1 kmh NNE 16.0 mph25.7 kmh 30.20 in1022.7 mb 0.00 in0.0 mm 0.00 in/hr0.0 mm/hr 0.00 in0.0 mm
10:38 AM 24.3°F-4.3°C 23.1°F-4.9°C 95% 13.0 mph NE20.9 kmh NE 16.0 mph25.7 kmh 30.20 in1022.7 mb 0.00 in0.0 mm 0.00 in/hr0.0 mm/hr 0.00 in0.0 mm
10:39 AM 24.3°F-4.3°C 23.1°F-4.9°C 95% 10.0 mph NNE16.1 kmh NNE 16.0 mph25.7 kmh 30.20 in1022.7 mb 0.00 in0.0 mm 0.00 in/hr0.0 mm/hr 0.00 in0.0 mm
10:40 AM 24.3°F-4.3°C 23.1°F-4.9°C 95% 10.0 mph NNE16.1 kmh NNE 16.0 mph25.7 kmh 30.20 in1022.7 mb 0.00 in0.0 mm 0.00 in/hr0.0 mm/hr 0.00 in0.0 mm
10:41 AM 24.3°F-4.3°C 23.1°F-4.9°C 95% 13.0 mph NNE20.9 kmh NNE 16.0 mph25.7 kmh 30.20 in1022.7 mb 0.00 in0.0 mm 0.00 in/hr0.0 mm/hr 0.00 in0.0 mm
10:42 AM 24.3°F-4.3°C 23.1°F-4.9°C 95% 12.0 mph NNE19.3 kmh NNE 16.0 mph25.7 kmh 30.20 in1022.7 mb 0.00 in0.0 mm 0.00 in/hr0.0 mm/hr 0.00 in0.0 mm
10:43 AM 24.3°F-4.3°C 23.1°F-4.9°C 95% 13.0 mph NE20.9 kmh NE 16.0 mph25.7 kmh 30.20 in1022.7 mb 0.00 in0.0 mm 0.00 in/hr0.0 mm/hr 0.00 in0.0 mm
10:44 AM 24.3°F-4.3°C 23.1°F-4.9°C 95% 13.0 mph NNE20.9 kmh NNE 16.0 mph25.7 kmh 30.20 in1022.7 mb 0.00 in0.0 mm 0.00 in/hr0.0 mm/hr 0.00 in0.0 mm
10:45 AM 24.3°F-4.3°C 23.1°F-4.9°C 95% 14.0 mph NNE22.5 kmh NNE 16.0 mph25.7 kmh 30.20 in1022.7 mb 0.00 in0.0 mm 0.00 in/hr0.0 mm/hr 0.00 in0.0 mm
10:46 AM 24.3°F-4.3°C 23.1°F-4.9°C 95% 11.0 mph NNE17.7 kmh NNE 16.0 mph25.7 kmh 30.20 in1022.7 mb 0.00 in0.0 mm 0.00 in/hr0.0 mm/hr 0.00 in0.0 mm
10:47 AM 24.3°F-4.3°C 23.1°F-4.9°C 95% 13.0 mph N20.9 kmh N 16.0 mph25.7 kmh 30.20 in1022.7 mb 0.00 in0.0 mm 0.00 in/hr0.0 mm/hr 0.00 in0.0 mm
10:48 AM 24.4°F-4.2°C 23.2°F-4.9°C 95% 14.0 mph NNE22.5 kmh NNE 16.0 mph25.7 kmh 30.20 in1022.7 mb 0.00 in0.0 mm 0.00 in/hr0.0 mm/hr 0.00 in0.0 mm
10:49 AM 24.3°F-4.3°C 23.1°F-4.9°C 95% 14.0 mph NNE22.5 kmh NNE 16.0 mph25.7 kmh 30.20 in1022.7 mb 0.00 in0.0 mm 0.00 in/hr0.0 mm/hr 0.00 in0.0 mm
10:50 AM 24.3°F-4.3°C 23.1°F-4.9°C 95% 12.0 mph NNE19.3 kmh NNE 16.0 mph25.7 kmh 30.20 in1022.7 mb 0.00 in0.0 mm 0.00 in/hr0.0 mm/hr 0.00 in0.0 mm
10:51 AM 24.3°F-4.3°C 23.1°F-4.9°C 95% 13.0 mph NNE20.9 kmh NNE 16.0 mph25.7 kmh 30.20 in1022.7 mb 0.00 in0.0 mm 0.00 in/hr0.0 mm/hr 0.00 in0.0 mm
10:52 AM 24.3°F-4.3°C 23.1°F-4.9°C 95% 14.0 mph N22.5 kmh N 17.0 mph27.4 kmh 30.20 in1022.7 mb 0.00 in0.0 mm 0.00 in/hr0.0 mm/hr 0.00 in0.0 mm
10:53 AM 24.3°F-4.3°C 23.1°F-4.9°C 95% 15.0 mph NNE24.1 kmh NNE 17.0 mph27.4 kmh 30.20 in1022.7 mb 0.00 in0.0 mm 0.00 in/hr0.0 mm/hr 0.00 in0.0 mm
10:54 AM 24.3°F-4.3°C 23.1°F-4.9°C 95% 14.0 mph N22.5 kmh N 17.0 mph27.4 kmh 30.20 in1022.7 mb 0.00 in0.0 mm 0.00 in/hr0.0 mm/hr 0.00 in0.0 mm
10:55 AM 24.3°F-4.3°C 23.1°F-4.9°C 95% 12.0 mph N19.3 kmh N 17.0 mph27.4 kmh 30.20 in1022.7 mb 0.00 in0.0 mm 0.00 in/hr0.0 mm/hr 0.00 in0.0 mm
10:56 AM 24.3°F-4.3°C 23.1°F-4.9°C 95% 13.0 mph NNE20.9 kmh NNE 17.0 mph27.4 kmh 30.21 in1023.0 mb 0.00 in0.0 mm 0.00 in/hr0.0 mm/hr 0.00 in0.0 mm
10:57 AM 24.3°F-4.3°C 23.1°F-4.9°C 95% 12.0 mph N19.3 kmh N 17.0 mph27.4 kmh 30.20 in1022.7 mb 0.00 in0.0 mm 0.00 in/hr0.0 mm/hr 0.00 in0.0 mm
10:58 AM 24.3°F-4.3°C 23.1°F-4.9°C 95% 12.0 mph N19.3 kmh N 17.0 mph27.4 kmh 30.21 in1023.0 mb 0.00 in0.0 mm 0.00 in/hr0.0 mm/hr 0.00 in0.0 mm
10:59 AM 24.4°F-4.2°C 23.2°F-4.9°C 95% 11.0 mph N17.7 kmh N 17.0 mph27.4 kmh 30.21 in1023.0 mb 0.00 in0.0 mm 0.00 in/hr0.0 mm/hr 0.00 in0.0 mm
11:00 AM 24.3°F-4.3°C 23.1°F-4.9°C 95% 14.0 mph N22.5 kmh N 17.0 mph27.4 kmh 30.21 in1023.0 mb 0.00 in0.0 mm 0.00 in/hr0.0 mm/hr 0.00 in0.0 mm
11:01 AM 24.3°F-4.3°C 23.1°F-4.9°C 95% 17.0 mph NNE27.4 kmh NNE 17.0 mph27.4 kmh 30.21 in1023.0 mb 0.00 in0.0 mm 0.00 in/hr0.0 mm/hr 0.00 in0.0 mm
11:02 AM 24.3°F-4.3°C 23.1°F-4.9°C 95% 17.0 mph N27.4 kmh N 18.0 mph29.0 kmh 30.21 in1023.0 mb 0.00 in0.0 mm 0.00 in/hr0.0 mm/hr 0.00 in0.0 mm
11:03 AM 24.3°F-4.3°C 23.1°F-4.9°C 95% 17.0 mph N27.4 kmh N 18.0 mph29.0 kmh 30.21 in1023.0 mb 0.00 in0.0 mm 0.00 in/hr0.0 mm/hr 0.00 in0.0 mm
11:04 AM 24.3°F-4.3°C 23.1°F-4.9°C 95% 13.0 mph NNE20.9 kmh NNE 18.0 mph29.0 kmh 30.21 in1023.0 mb 0.00 in0.0 mm 0.00 in/hr0.0 mm/hr 0.00 in0.0 mm
11:05 AM 24.2°F-4.3°C 23.0°F-5.0°C 95% 15.0 mph N24.1 kmh N 18.0 mph29.0 kmh 30.21 in1023.0 mb 0.00 in0.0 mm 0.00 in/hr0.0 mm/hr 0.00 in0.0 mm
11:06 AM 24.2°F-4.3°C 23.0°F-5.0°C 95% 15.0 mph N24.1 kmh N 18.0 mph29.0 kmh 30.21 in1023.0 mb 0.00 in0.0 mm 0.00 in/hr0.0 mm/hr 0.00 in0.0 mm
11:07 AM 24.2°F-4.3°C 23.0°F-5.0°C 95% 16.0 mph N25.7 kmh N 18.0 mph29.0 kmh 30.21 in1023.0 mb 0.00 in0.0 mm 0.00 in/hr0.0 mm/hr 0.00 in0.0 mm
11:08 AM 24.2°F-4.3°C 23.0°F-5.0°C 95% 14.0 mph N22.5 kmh N 18.0 mph29.0 kmh 30.21 in1023.0 mb 0.00 in0.0 mm 0.00 in/hr0.0 mm/hr 0.00 in0.0 mm
11:09 AM 24.2°F-4.3°C 23.0°F-5.0°C 95% 16.0 mph N25.7 kmh N 18.0 mph29.0 kmh 30.21 in1023.0 mb 0.00 in0.0 mm 0.00 in/hr0.0 mm/hr 0.00 in0.0 mm
11:10 AM 24.1°F-4.4°C 22.9°F-5.1°C 95% 13.0 mph N20.9 kmh N 18.0 mph29.0 kmh 30.21 in1023.0 mb 0.00 in0.0 mm 0.00 in/hr0.0 mm/hr 0.00 in0.0 mm
11:11 AM 24.1°F-4.4°C 22.9°F-5.1°C 95% 13.0 mph N20.9 kmh N 18.0 mph29.0 kmh 30.21 in1023.0 mb 0.00 in0.0 mm 0.00 in/hr0.0 mm/hr 0.00 in0.0 mm
11:12 AM 24.1°F-4.4°C 22.9°F-5.1°C 95% 14.0 mph N22.5 kmh N 18.0 mph29.0 kmh 30.20 in1022.7 mb 0.00 in0.0 mm 0.00 in/hr0.0 mm/hr 0.00 in0.0 mm
11:13 AM 24.1°F-4.4°C 22.9°F-5.1°C 95% 16.0 mph N25.7 kmh N 18.0 mph29.0 kmh 30.21 in1023.0 mb 0.00 in0.0 mm 0.00 in/hr0.0 mm/hr 0.00 in0.0 mm
11:14 AM 24.0°F-4.4°C 22.8°F-5.1°C 95% 16.0 mph N25.7 kmh N 18.0 mph29.0 kmh 30.21 in1023.0 mb 0.00 in0.0 mm 0.00 in/hr0.0 mm/hr 0.00 in0.0 mm
11:15 AM 24.0°F-4.4°C 22.8°F-5.1°C 95% 16.0 mph N25.7 kmh N 19.0 mph30.6 kmh 30.21 in1023.0 mb 0.00 in0.0 mm 0.00 in/hr0.0 mm/hr 0.00 in0.0 mm
11:16 AM 23.9°F-4.5°C 22.7°F-5.2°C 95% 17.0 mph N27.4 kmh N 19.0 mph30.6 kmh 30.21 in1023.0 mb 0.00 in0.0 mm 0.00 in/hr0.0 mm/hr 0.00 in0.0 mm
11:17 AM 23.9°F-4.5°C 22.7°F-5.2°C 95% 16.0 mph N25.7 kmh N 19.0 mph30.6 kmh 30.21 in1023.0 mb 0.00 in0.0 mm 0.00 in/hr0.0 mm/hr 0.00 in0.0 mm
11:18 AM 23.8°F-4.6°C 22.6°F-5.2°C 95% 14.0 mph N22.5 kmh N 19.0 mph30.6 kmh 30.21 in1023.0 mb 0.00 in0.0 mm 0.00 in/hr0.0 mm/hr 0.00 in0.0 mm
11:19 AM 23.8°F-4.6°C 22.6°F-5.2°C 95% 17.0 mph N27.4 kmh N 19.0 mph30.6 kmh 30.21 in1023.0 mb 0.00 in0.0 mm 0.00 in/hr0.0 mm/hr 0.00 in0.0 mm
11:20 AM 23.8°F-4.6°C 22.6°F-5.2°C 95% 15.0 mph NNE24.1 kmh NNE 19.0 mph30.6 kmh 30.21 in1023.0 mb 0.00 in0.0 mm 0.00 in/hr0.0 mm/hr 0.00 in0.0 mm
11:21 AM 23.8°F-4.6°C 22.6°F-5.2°C 95% 12.0 mph N19.3 kmh N 19.0 mph30.6 kmh 30.21 in1023.0 mb 0.00 in0.0 mm 0.00 in/hr0.0 mm/hr 0.00 in0.0 mm
11:22 AM 23.8°F-4.6°C 22.6°F-5.2°C 95% 18.0 mph N29.0 kmh N 19.0 mph30.6 kmh 30.21 in1023.0 mb 0.00 in0.0 mm 0.00 in/hr0.0 mm/hr 0.00 in0.0 mm
11:23 AM 23.7°F-4.6°C 22.5°F-5.3°C 95% 15.0 mph N24.1 kmh N 19.0 mph30.6 kmh 30.21 in1023.0 mb 0.00 in0.0 mm 0.00 in/hr0.0 mm/hr 0.00 in0.0 mm
11:24 AM 23.7°F-4.6°C 22.5°F-5.3°C 95% 14.0 mph N22.5 kmh N 19.0 mph30.6 kmh 30.21 in1023.0 mb 0.00 in0.0 mm 0.00 in/hr0.0 mm/hr 0.00 in0.0 mm
11:25 AM 23.7°F-4.6°C 22.5°F-5.3°C 95% 18.0 mph NNE29.0 kmh NNE 19.0 mph30.6 kmh 30.21 in1023.0 mb 0.00 in0.0 mm 0.00 in/hr0.0 mm/hr 0.00 in0.0 mm
11:26 AM 23.6°F-4.7°C 22.4°F-5.3°C 95% 19.0 mph N30.6 kmh N 19.0 mph30.6 kmh 30.21 in1023.0 mb 0.00 in0.0 mm 0.00 in/hr0.0 mm/hr 0.00 in0.0 mm
11:27 AM 23.6°F-4.7°C 22.4°F-5.3°C 95% 16.0 mph N25.7 kmh N 19.0 mph30.6 kmh 30.21 in1023.0 mb 0.00 in0.0 mm 0.00 in/hr0.0 mm/hr 0.00 in0.0 mm
11:28 AM 23.6°F-4.7°C 22.4°F-5.3°C 95% 18.0 mph N29.0 kmh N 19.0 mph30.6 kmh 30.21 in1023.0 mb 0.00 in0.0 mm 0.00 in/hr0.0 mm/hr 0.00 in0.0 mm
11:29 AM 23.6°F-4.7°C 22.4°F-5.3°C 95% 17.0 mph N27.4 kmh N 19.0 mph30.6 kmh 30.21 in1023.0 mb 0.00 in0.0 mm 0.00 in/hr0.0 mm/hr 0.00 in0.0 mm
11:30 AM 23.6°F-4.7°C 22.4°F-5.3°C 95% 13.0 mph N20.9 kmh N 19.0 mph30.6 kmh 30.21 in1023.0 mb 0.00 in0.0 mm 0.00 in/hr0.0 mm/hr 0.00 in0.0 mm
11:31 AM 23.6°F-4.7°C 22.4°F-5.3°C 95% 15.0 mph N24.1 kmh N 19.0 mph30.6 kmh 30.21 in1023.0 mb 0.00 in0.0 mm 0.00 in/hr0.0 mm/hr 0.00 in0.0 mm
11:32 AM 23.6°F-4.7°C 22.4°F-5.3°C 95% 18.0 mph N29.0 kmh N 19.0 mph30.6 kmh 30.21 in1023.0 mb 0.00 in0.0 mm 0.00 in/hr0.0 mm/hr 0.00 in0.0 mm
11:33 AM 23.6°F-4.7°C 22.4°F-5.3°C 95% 17.0 mph NNE27.4 kmh NNE 19.0 mph30.6 kmh 30.21 in1023.0 mb 0.00 in0.0 mm 0.00 in/hr0.0 mm/hr 0.00 in0.0 mm
11:34 AM 23.6°F-4.7°C 22.4°F-5.3°C 95% 15.0 mph N24.1 kmh N 19.0 mph30.6 kmh 30.21 in1023.0 mb 0.00 in0.0 mm 0.00 in/hr0.0 mm/hr 0.00 in0.0 mm
11:35 AM 23.6°F-4.7°C 22.4°F-5.3°C 95% 14.0 mph NNE22.5 kmh NNE 19.0 mph30.6 kmh 30.21 in1023.0 mb 0.00 in0.0 mm 0.00 in/hr0.0 mm/hr 0.00 in0.0 mm
11:36 AM 23.6°F-4.7°C 22.4°F-5.3°C 95% 16.0 mph N25.7 kmh N 19.0 mph30.6 kmh 30.21 in1023.0 mb 0.00 in0.0 mm 0.00 in/hr0.0 mm/hr 0.00 in0.0 mm
11:37 AM 23.6°F-4.7°C 22.4°F-5.3°C 95% 13.0 mph N20.9 kmh N 19.0 mph30.6 kmh 30.21 in1023.0 mb 0.00 in0.0 mm 0.00 in/hr0.0 mm/hr 0.00 in0.0 mm
11:38 AM 23.6°F-4.7°C 22.4°F-5.3°C 95% 13.0 mph NNE20.9 kmh NNE 19.0 mph30.6 kmh 30.21 in1023.0 mb 0.00 in0.0 mm 0.00 in/hr0.0 mm/hr 0.00 in0.0 mm
11:39 AM 23.6°F-4.7°C 22.4°F-5.3°C 95% 16.0 mph N25.7 kmh N 19.0 mph30.6 kmh 30.21 in1023.0 mb 0.00 in0.0 mm 0.00 in/hr0.0 mm/hr 0.00 in0.0 mm
11:40 AM 23.6°F-4.7°C 22.4°F-5.3°C 95% 13.0 mph N20.9 kmh N 19.0 mph30.6 kmh 30.21 in1023.0 mb 0.00 in0.0 mm 0.00 in/hr0.0 mm/hr 0.00 in0.0 mm
11:41 AM 23.6°F-4.7°C 22.4°F-5.3°C 95% 12.0 mph N19.3 kmh N 19.0 mph30.6 kmh 30.21 in1023.0 mb 0.00 in0.0 mm 0.00 in/hr0.0 mm/hr 0.00 in0.0 mm
11:42 AM 23.6°F-4.7°C 22.4°F-5.3°C 95% 15.0 mph N24.1 kmh N 19.0 mph30.6 kmh 30.21 in1023.0 mb 0.00 in0.0 mm 0.00 in/hr0.0 mm/hr 0.00 in0.0 mm
11:43 AM 23.5°F-4.7°C 22.3°F-5.4°C 95% 17.0 mph N27.4 kmh N 19.0 mph30.6 kmh 30.21 in1023.0 mb 0.00 in0.0 mm 0.00 in/hr0.0 mm/hr 0.00 in0.0 mm
11:44 AM 23.6°F-4.7°C 22.4°F-5.3°C 95% 14.0 mph N22.5 kmh N 19.0 mph30.6 kmh 30.21 in1023.0 mb 0.00 in0.0 mm 0.00 in/hr0.0 mm/hr 0.00 in0.0 mm
11:45 AM 23.6°F-4.7°C 22.4°F-5.3°C 95% 13.0 mph N20.9 kmh N 19.0 mph30.6 kmh 30.21 in1023.0 mb 0.00 in0.0 mm 0.00 in/hr0.0 mm/hr 0.00 in0.0 mm
11:46 AM 23.6°F-4.7°C 22.4°F-5.3°C 95% 15.0 mph N24.1 kmh N 19.0 mph30.6 kmh 30.21 in1023.0 mb 0.00 in0.0 mm 0.00 in/hr0.0 mm/hr 0.00 in0.0 mm
11:47 AM 23.6°F-4.7°C 22.4°F-5.3°C 95% 17.0 mph N27.4 kmh N 19.0 mph30.6 kmh 30.21 in1023.0 mb 0.00 in0.0 mm 0.00 in/hr0.0 mm/hr 0.00 in0.0 mm
11:48 AM 23.6°F-4.7°C 22.4°F-5.3°C 95% 14.0 mph N22.5 kmh N 19.0 mph30.6 kmh 30.21 in1023.0 mb 0.00 in0.0 mm 0.00 in/hr0.0 mm/hr 0.00 in0.0 mm
11:49 AM 23.6°F-4.7°C 22.4°F-5.3°C 95% 11.0 mph N17.7 kmh N 19.0 mph30.6 kmh 30.21 in1023.0 mb 0.00 in0.0 mm 0.00 in/hr0.0 mm/hr 0.00 in0.0 mm
11:50 AM 23.6°F-4.7°C 22.4°F-5.3°C 95% 16.0 mph NNE25.7 kmh NNE 19.0 mph30.6 kmh 30.21 in1023.0 mb 0.00 in0.0 mm 0.00 in/hr0.0 mm/hr 0.00 in0.0 mm
11:51 AM 23.6°F-4.7°C 22.4°F-5.3°C 95% 16.0 mph N25.7 kmh N 20.0 mph32.2 kmh 30.21 in1023.0 mb 0.00 in0.0 mm 0.00 in/hr0.0 mm/hr 0.00 in0.0 mm
11:52 AM 23.6°F-4.7°C 22.4°F-5.3°C 95% 14.0 mph N22.5 kmh N 20.0 mph32.2 kmh 30.21 in1023.0 mb 0.00 in0.0 mm 0.00 in/hr0.0 mm/hr 0.00 in0.0 mm
11:53 AM 23.6°F-4.7°C 22.4°F-5.3°C 95% 16.0 mph N25.7 kmh N 20.0 mph32.2 kmh 30.21 in1023.0 mb 0.00 in0.0 mm 0.00 in/hr0.0 mm/hr 0.00 in0.0 mm
11:54 AM 23.6°F-4.7°C 22.4°F-5.3°C 95% 15.0 mph N24.1 kmh N 20.0 mph32.2 kmh 30.21 in1023.0 mb 0.00 in0.0 mm 0.00 in/hr0.0 mm/hr 0.00 in0.0 mm
11:55 AM 23.6°F-4.7°C 22.4°F-5.3°C 95% 13.0 mph N20.9 kmh N 20.0 mph32.2 kmh 30.21 in1023.0 mb 0.00 in0.0 mm 0.00 in/hr0.0 mm/hr 0.00 in0.0 mm
11:56 AM 23.6°F-4.7°C 22.4°F-5.3°C 95% 15.0 mph N24.1 kmh N 20.0 mph32.2 kmh 30.21 in1023.0 mb 0.00 in0.0 mm 0.00 in/hr0.0 mm/hr 0.00 in0.0 mm
11:57 AM 23.6°F-4.7°C 22.4°F-5.3°C 95% 15.0 mph N24.1 kmh N 20.0 mph32.2 kmh 30.21 in1023.0 mb 0.00 in0.0 mm 0.00 in/hr0.0 mm/hr 0.00 in0.0 mm
11:58 AM 23.6°F-4.7°C 22.4°F-5.3°C 95% 14.0 mph NNE22.5 kmh NNE 20.0 mph32.2 kmh 30.21 in1023.0 mb 0.00 in0.0 mm 0.00 in/hr0.0 mm/hr 0.00 in0.0 mm
11:59 AM 23.6°F-4.7°C 22.4°F-5.3°C 95% 14.0 mph NNE22.5 kmh NNE 20.0 mph32.2 kmh 30.22 in1023.4 mb 0.00 in0.0 mm 0.00 in/hr0.0 mm/hr 0.00 in0.0 mm
12:00 PM 23.6°F-4.7°C 22.4°F-5.3°C 95% 15.0 mph NNE24.1 kmh NNE 20.0 mph32.2 kmh 30.22 in1023.4 mb 0.00 in0.0 mm 0.00 in/hr0.0 mm/hr 0.00 in0.0 mm
12:01 PM 23.6°F-4.7°C 22.4°F-5.3°C 95% 14.0 mph N22.5 kmh N 20.0 mph32.2 kmh 30.22 in1023.4 mb 0.00 in0.0 mm 0.00 in/hr0.0 mm/hr 0.00 in0.0 mm
12:02 PM 23.6°F-4.7°C 22.4°F-5.3°C 95% 14.0 mph N22.5 kmh N 16.0 mph25.7 kmh 30.22 in1023.4 mb 0.00 in0.0 mm 0.00 in/hr0.0 mm/hr 0.00 in0.0 mm
12:03 PM 23.6°F-4.7°C 22.4°F-5.3°C 95% 15.0 mph N24.1 kmh N 18.0 mph29.0 kmh 30.22 in1023.4 mb 0.00 in0.0 mm 0.00 in/hr0.0 mm/hr 0.00 in0.0 mm
12:04 PM 23.6°F-4.7°C 22.4°F-5.3°C 95% 14.0 mph N22.5 kmh N 18.0 mph29.0 kmh 30.22 in1023.4 mb 0.00 in0.0 mm 0.00 in/hr0.0 mm/hr 0.00 in0.0 mm
12:05 PM 23.6°F-4.7°C 22.4°F-5.3°C 95% 16.0 mph N25.7 kmh N 18.0 mph29.0 kmh 30.22 in1023.4 mb 0.00 in0.0 mm 0.00 in/hr0.0 mm/hr 0.00 in0.0 mm
12:06 PM 23.6°F-4.7°C 22.4°F-5.3°C 95% 14.0 mph N22.5 kmh N 18.0 mph29.0 kmh 30.22 in1023.4 mb 0.00 in0.0 mm 0.00 in/hr0.0 mm/hr 0.00 in0.0 mm
12:07 PM 23.6°F-4.7°C 22.4°F-5.3°C 95% 16.0 mph N25.7 kmh N 18.0 mph29.0 kmh 30.22 in1023.4 mb 0.00 in0.0 mm 0.00 in/hr0.0 mm/hr 0.00 in0.0 mm
12:08 PM 23.6°F-4.7°C 22.4°F-5.3°C 95% 13.0 mph N20.9 kmh N 18.0 mph29.0 kmh 30.22 in1023.4 mb 0.00 in0.0 mm 0.00 in/hr0.0 mm/hr 0.00 in0.0 mm
12:09 PM 23.6°F-4.7°C 22.4°F-5.3°C 95% 15.0 mph NNE24.1 kmh NNE 19.0 mph30.6 kmh 30.22 in1023.4 mb 0.00 in0.0 mm 0.00 in/hr0.0 mm/hr 0.00 in0.0 mm
12:10 PM 23.7°F-4.6°C 22.5°F-5.3°C 95% 16.0 mph N25.7 kmh N 19.0 mph30.6 kmh 30.22 in1023.4 mb 0.00 in0.0 mm 0.00 in/hr0.0 mm/hr 0.00 in0.0 mm
12:11 PM 23.7°F-4.6°C 22.5°F-5.3°C 95% 13.0 mph N20.9 kmh N 19.0 mph30.6 kmh 30.22 in1023.4 mb 0.00 in0.0 mm 0.00 in/hr0.0 mm/hr 0.00 in0.0 mm
12:12 PM 23.7°F-4.6°C 22.5°F-5.3°C 95% 16.0 mph N25.7 kmh N 19.0 mph30.6 kmh 30.22 in1023.4 mb 0.00 in0.0 mm 0.00 in/hr0.0 mm/hr 0.00 in0.0 mm
12:13 PM 23.6°F-4.7°C 22.4°F-5.3°C 95% 15.0 mph NNE24.1 kmh NNE 19.0 mph30.6 kmh 30.22 in1023.4 mb 0.00 in0.0 mm 0.00 in/hr0.0 mm/hr 0.00 in0.0 mm
12:14 PM 23.7°F-4.6°C 22.5°F-5.3°C 95% 14.0 mph NNE22.5 kmh NNE 19.0 mph30.6 kmh 30.22 in1023.4 mb 0.00 in0.0 mm 0.00 in/hr0.0 mm/hr 0.00 in0.0 mm
12:15 PM 23.7°F-4.6°C 22.5°F-5.3°C 95% 12.0 mph N19.3 kmh N 19.0 mph30.6 kmh 30.22 in1023.4 mb 0.00 in0.0 mm 0.00 in/hr0.0 mm/hr 0.00 in0.0 mm
12:16 PM 23.7°F-4.6°C 22.5°F-5.3°C 95% 12.0 mph NNE19.3 kmh NNE 19.0 mph30.6 kmh 30.22 in1023.4 mb 0.00 in0.0 mm 0.00 in/hr0.0 mm/hr 0.00 in0.0 mm
12:17 PM 23.8°F-4.6°C 22.6°F-5.2°C 95% 13.0 mph NNE20.9 kmh NNE 19.0 mph30.6 kmh 30.22 in1023.4 mb 0.00 in0.0 mm 0.00 in/hr0.0 mm/hr 0.00 in0.0 mm
12:18 PM 23.8°F-4.6°C 22.6°F-5.2°C 95% 13.0 mph NNE20.9 kmh NNE 19.0 mph30.6 kmh 30.22 in1023.4 mb 0.00 in0.0 mm 0.00 in/hr0.0 mm/hr 0.00 in0.0 mm
12:19 PM 23.8°F-4.6°C 22.6°F-5.2°C 95% 13.0 mph N20.9 kmh N 19.0 mph30.6 kmh 30.22 in1023.4 mb 0.00 in0.0 mm 0.00 in/hr0.0 mm/hr 0.00 in0.0 mm
12:20 PM 23.8°F-4.6°C 22.6°F-5.2°C 95% 14.0 mph N22.5 kmh N 19.0 mph30.6 kmh 30.22 in1023.4 mb 0.00 in0.0 mm 0.00 in/hr0.0 mm/hr 0.00 in0.0 mm
12:21 PM 23.8°F-4.6°C 22.6°F-5.2°C 95% 12.0 mph N19.3 kmh N 19.0 mph30.6 kmh 30.22 in1023.4 mb 0.00 in0.0 mm 0.00 in/hr0.0 mm/hr 0.00 in0.0 mm
12:22 PM 23.9°F-4.5°C 22.7°F-5.2°C 95% 12.0 mph N19.3 kmh N 19.0 mph30.6 kmh 30.22 in1023.4 mb 0.00 in0.0 mm 0.00 in/hr0.0 mm/hr 0.00 in0.0 mm
12:23 PM 23.8°F-4.6°C 22.6°F-5.2°C 95% 10.0 mph N16.1 kmh N 19.0 mph30.6 kmh 30.22 in1023.4 mb 0.00 in0.0 mm 0.00 in/hr0.0 mm/hr 0.00 in0.0 mm
12:24 PM 23.9°F-4.5°C 22.7°F-5.2°C 95% 14.0 mph N22.5 kmh N 19.0 mph30.6 kmh 30.22 in1023.4 mb 0.00 in0.0 mm 0.00 in/hr0.0 mm/hr 0.00 in0.0 mm
12:25 PM 23.9°F-4.5°C 22.7°F-5.2°C 95% 10.0 mph NNE16.1 kmh NNE 19.0 mph30.6 kmh 30.22 in1023.4 mb 0.00 in0.0 mm 0.00 in/hr0.0 mm/hr 0.00 in0.0 mm
12:26 PM 23.9°F-4.5°C 22.7°F-5.2°C 95% 14.0 mph NNE22.5 kmh NNE 19.0 mph30.6 kmh 30.22 in1023.4 mb 0.00 in0.0 mm 0.00 in/hr0.0 mm/hr 0.00 in0.0 mm
12:27 PM 23.9°F-4.5°C 22.7°F-5.2°C 95% 12.0 mph NNE19.3 kmh NNE 19.0 mph30.6 kmh 30.22 in1023.4 mb 0.00 in0.0 mm 0.00 in/hr0.0 mm/hr 0.00 in0.0 mm
12:28 PM 23.9°F-4.5°C 22.7°F-5.2°C 95% 13.0 mph NNE20.9 kmh NNE 19.0 mph30.6 kmh 30.22 in1023.4 mb 0.00 in0.0 mm 0.00 in/hr0.0 mm/hr 0.00 in0.0 mm
12:29 PM 23.9°F-4.5°C 22.7°F-5.2°C 95% 15.0 mph NNE24.1 kmh NNE 19.0 mph30.6 kmh 30.22 in1023.4 mb 0.00 in0.0 mm 0.00 in/hr0.0 mm/hr 0.00 in0.0 mm
12:30 PM 23.9°F-4.5°C 22.7°F-5.2°C 95% 13.0 mph N20.9 kmh N 19.0 mph30.6 kmh 30.22 in1023.4 mb 0.00 in0.0 mm 0.00 in/hr0.0 mm/hr 0.00 in0.0 mm
12:31 PM 24.0°F-4.4°C 22.8°F-5.1°C 95% 11.0 mph N17.7 kmh N 19.0 mph30.6 kmh 30.22 in1023.4 mb 0.00 in0.0 mm 0.00 in/hr0.0 mm/hr 0.00 in0.0 mm
12:32 PM 24.0°F-4.4°C 22.8°F-5.1°C 95% 11.0 mph N17.7 kmh N 12.0 mph19.3 kmh 30.23 in1023.7 mb 0.00 in0.0 mm 0.00 in/hr0.0 mm/hr 0.00 in0.0 mm
12:33 PM 24.0°F-4.4°C 22.8°F-5.1°C 95% 10.0 mph N16.1 kmh N 12.0 mph19.3 kmh 30.23 in1023.7 mb 0.00 in0.0 mm 0.00 in/hr0.0 mm/hr 0.00 in0.0 mm
12:34 PM 24.0°F-4.4°C 22.8°F-5.1°C 95% 11.0 mph N17.7 kmh N 13.0 mph20.9 kmh 30.22 in1023.4 mb 0.00 in0.0 mm 0.00 in/hr0.0 mm/hr 0.00 in0.0 mm
12:35 PM 24.1°F-4.4°C 22.9°F-5.1°C 95% 12.0 mph N19.3 kmh N 13.0 mph20.9 kmh 30.23 in1023.7 mb 0.00 in0.0 mm 0.00 in/hr0.0 mm/hr 0.00 in0.0 mm
12:36 PM 24.1°F-4.4°C 22.9°F-5.1°C 95% 14.0 mph N22.5 kmh N 14.0 mph22.5 kmh 30.23 in1023.7 mb 0.00 in0.0 mm 0.00 in/hr0.0 mm/hr 0.00 in0.0 mm
12:37 PM 24.1°F-4.4°C 22.9°F-5.1°C 95% 14.0 mph N22.5 kmh N 14.0 mph22.5 kmh 30.23 in1023.7 mb 0.00 in0.0 mm 0.00 in/hr0.0 mm/hr 0.00 in0.0 mm
12:38 PM 24.2°F-4.3°C 23.0°F-5.0°C 95% 12.0 mph N19.3 kmh N 14.0 mph22.5 kmh 30.23 in1023.7 mb 0.00 in0.0 mm 0.00 in/hr0.0 mm/hr 0.00 in0.0 mm
12:39 PM 24.2°F-4.3°C 23.0°F-5.0°C 95% 14.0 mph N22.5 kmh N 14.0 mph22.5 kmh 30.23 in1023.7 mb 0.00 in0.0 mm 0.00 in/hr0.0 mm/hr 0.00 in0.0 mm
12:40 PM 24.2°F-4.3°C 23.0°F-5.0°C 95% 14.0 mph N22.5 kmh N 14.0 mph22.5 kmh 30.23 in1023.7 mb 0.00 in0.0 mm 0.00 in/hr0.0 mm/hr 0.00 in0.0 mm
12:41 PM 24.2°F-4.3°C 23.0°F-5.0°C 95% 13.0 mph N20.9 kmh N 14.0 mph22.5 kmh 30.23 in1023.7 mb 0.00 in0.0 mm 0.00 in/hr0.0 mm/hr 0.00 in0.0 mm
12:42 PM 24.2°F-4.3°C 23.0°F-5.0°C 95% 12.0 mph N19.3 kmh N 15.0 mph24.1 kmh 30.23 in1023.7 mb 0.00 in0.0 mm 0.00 in/hr0.0 mm/hr 0.00 in0.0 mm
12:43 PM 24.2°F-4.3°C 23.0°F-5.0°C 95% 14.0 mph N22.5 kmh N 15.0 mph24.1 kmh 30.23 in1023.7 mb 0.00 in0.0 mm 0.00 in/hr0.0 mm/hr 0.00 in0.0 mm
12:44 PM 24.2°F-4.3°C 23.0°F-5.0°C 95% 13.0 mph N20.9 kmh N 15.0 mph24.1 kmh 30.23 in1023.7 mb 0.00 in0.0 mm 0.00 in/hr0.0 mm/hr 0.00 in0.0 mm
12:45 PM 24.2°F-4.3°C 23.0°F-5.0°C 95% 12.0 mph N19.3 kmh N 15.0 mph24.1 kmh 30.23 in1023.7 mb 0.00 in0.0 mm 0.00 in/hr0.0 mm/hr 0.00 in0.0 mm
12:46 PM 24.2°F-4.3°C 23.0°F-5.0°C 95% 14.0 mph NNW22.5 kmh NNW 15.0 mph24.1 kmh 30.23 in1023.7 mb 0.00 in0.0 mm 0.00 in/hr0.0 mm/hr 0.00 in0.0 mm
12:47 PM 24.2°F-4.3°C 23.0°F-5.0°C 95% 13.0 mph N20.9 kmh N 15.0 mph24.1 kmh 30.23 in1023.7 mb 0.00 in0.0 mm 0.00 in/hr0.0 mm/hr 0.00 in0.0 mm
12:48 PM 24.3°F-4.3°C 23.1°F-4.9°C 95% 13.0 mph N20.9 kmh N 16.0 mph25.7 kmh 30.22 in1023.4 mb 0.00 in0.0 mm 0.00 in/hr0.0 mm/hr 0.00 in0.0 mm
12:49 PM 24.2°F-4.3°C 23.0°F-5.0°C 95% 15.0 mph N24.1 kmh N 16.0 mph25.7 kmh 30.23 in1023.7 mb 0.00 in0.0 mm 0.00 in/hr0.0 mm/hr 0.00 in0.0 mm
12:50 PM 24.2°F-4.3°C 23.0°F-5.0°C 95% 12.0 mph N19.3 kmh N 16.0 mph25.7 kmh 30.23 in1023.7 mb 0.00 in0.0 mm 0.00 in/hr0.0 mm/hr 0.00 in0.0 mm
12:51 PM 24.2°F-4.3°C 23.0°F-5.0°C 95% 11.0 mph N17.7 kmh N 16.0 mph25.7 kmh 30.23 in1023.7 mb 0.00 in0.0 mm 0.00 in/hr0.0 mm/hr 0.00 in0.0 mm
12:52 PM 24.2°F-4.3°C 23.0°F-5.0°C 95% 12.0 mph N19.3 kmh N 16.0 mph25.7 kmh 30.23 in1023.7 mb 0.00 in0.0 mm 0.00 in/hr0.0 mm/hr 0.00 in0.0 mm
12:53 PM 24.2°F-4.3°C 23.0°F-5.0°C 95% 14.0 mph N22.5 kmh N 16.0 mph25.7 kmh 30.23 in1023.7 mb 0.00 in0.0 mm 0.00 in/hr0.0 mm/hr 0.00 in0.0 mm
12:54 PM 24.3°F-4.3°C 23.1°F-4.9°C 95% 14.0 mph N22.5 kmh N 16.0 mph25.7 kmh 30.23 in1023.7 mb 0.00 in0.0 mm 0.00 in/hr0.0 mm/hr 0.00 in0.0 mm
12:55 PM 24.3°F-4.3°C 23.1°F-4.9°C 95% 13.0 mph N20.9 kmh N 16.0 mph25.7 kmh 30.23 in1023.7 mb 0.00 in0.0 mm 0.00 in/hr0.0 mm/hr 0.00 in0.0 mm
12:56 PM 24.3°F-4.3°C 23.1°F-4.9°C 95% 11.0 mph N17.7 kmh N 16.0 mph25.7 kmh 30.23 in1023.7 mb 0.00 in0.0 mm 0.00 in/hr0.0 mm/hr 0.00 in0.0 mm
12:57 PM 24.3°F-4.3°C 23.1°F-4.9°C 95% 12.0 mph N19.3 kmh N 16.0 mph25.7 kmh 30.23 in1023.7 mb 0.00 in0.0 mm 0.00 in/hr0.0 mm/hr 0.00 in0.0 mm
12:58 PM 24.3°F-4.3°C 23.1°F-4.9°C 95% 14.0 mph N22.5 kmh N 16.0 mph25.7 kmh 30.23 in1023.7 mb 0.00 in0.0 mm 0.00 in/hr0.0 mm/hr 0.00 in0.0 mm
12:59 PM 24.3°F-4.3°C 23.1°F-4.9°C 95% 13.0 mph N20.9 kmh N 16.0 mph25.7 kmh 30.23 in1023.7 mb 0.00 in0.0 mm 0.00 in/hr0.0 mm/hr 0.00 in0.0 mm
01:00 PM 24.3°F-4.3°C 23.1°F-4.9°C 95% 13.0 mph N20.9 kmh N 16.0 mph25.7 kmh 30.23 in1023.7 mb 0.00 in0.0 mm 0.00 in/hr0.0 mm/hr 0.00 in0.0 mm
01:01 PM 24.3°F-4.3°C 23.1°F-4.9°C 95% 13.0 mph N20.9 kmh N 16.0 mph25.7 kmh 30.23 in1023.7 mb 0.00 in0.0 mm 0.00 in/hr0.0 mm/hr 0.00 in0.0 mm
01:02 PM 24.3°F-4.3°C 23.1°F-4.9°C 95% 14.0 mph N22.5 kmh N 14.0 mph22.5 kmh 30.23 in1023.7 mb 0.00 in0.0 mm 0.00 in/hr0.0 mm/hr 0.00 in0.0 mm
01:03 PM 24.3°F-4.3°C 23.1°F-4.9°C 95% 15.0 mph N24.1 kmh N 16.0 mph25.7 kmh 30.23 in1023.7 mb 0.00 in0.0 mm 0.00 in/hr0.0 mm/hr 0.00 in0.0 mm
01:04 PM 24.3°F-4.3°C 23.1°F-4.9°C 95% 15.0 mph N24.1 kmh N 16.0 mph25.7 kmh 30.23 in1023.7 mb 0.00 in0.0 mm 0.00 in/hr0.0 mm/hr 0.00 in0.0 mm
01:05 PM 24.3°F-4.3°C 23.1°F-4.9°C 95% 14.0 mph N22.5 kmh N 16.0 mph25.7 kmh 30.23 in1023.7 mb 0.00 in0.0 mm 0.00 in/hr0.0 mm/hr 0.00 in0.0 mm
01:06 PM 24.3°F-4.3°C 23.1°F-4.9°C 95% 14.0 mph N22.5 kmh N 16.0 mph25.7 kmh 30.23 in1023.7 mb 0.00 in0.0 mm 0.00 in/hr0.0 mm/hr 0.00 in0.0 mm
01:07 PM 24.3°F-4.3°C 23.1°F-4.9°C 95% 15.0 mph N24.1 kmh N 16.0 mph25.7 kmh 30.23 in1023.7 mb 0.00 in0.0 mm 0.00 in/hr0.0 mm/hr 0.00 in0.0 mm
01:08 PM 24.3°F-4.3°C 23.1°F-4.9°C 95% 13.0 mph N20.9 kmh N 17.0 mph27.4 kmh 30.23 in1023.7 mb 0.00 in0.0 mm 0.00 in/hr0.0 mm/hr 0.00 in0.0 mm
01:09 PM 24.3°F-4.3°C 23.1°F-4.9°C 95% 13.0 mph N20.9 kmh N 17.0 mph27.4 kmh 30.23 in1023.7 mb 0.00 in0.0 mm 0.00 in/hr0.0 mm/hr 0.00 in0.0 mm
01:10 PM 24.3°F-4.3°C 23.1°F-4.9°C 95% 14.0 mph N22.5 kmh N 17.0 mph27.4 kmh 30.24 in1024.0 mb 0.00 in0.0 mm 0.00 in/hr0.0 mm/hr 0.00 in0.0 mm
01:11 PM 24.4°F-4.2°C 23.2°F-4.9°C 95% 11.0 mph N17.7 kmh N 17.0 mph27.4 kmh 30.24 in1024.0 mb 0.00 in0.0 mm 0.00 in/hr0.0 mm/hr 0.00 in0.0 mm
01:12 PM 24.4°F-4.2°C 23.2°F-4.9°C 95% 12.0 mph N19.3 kmh N 17.0 mph27.4 kmh 30.24 in1024.0 mb 0.00 in0.0 mm 0.00 in/hr0.0 mm/hr 0.00 in0.0 mm
01:13 PM 24.4°F-4.2°C 23.2°F-4.9°C 95% 11.0 mph N17.7 kmh N 17.0 mph27.4 kmh 30.24 in1024.0 mb 0.00 in0.0 mm 0.00 in/hr0.0 mm/hr 0.00 in0.0 mm
01:14 PM 24.4°F-4.2°C 23.2°F-4.9°C 95% 13.0 mph N20.9 kmh N 17.0 mph27.4 kmh 30.24 in1024.0 mb 0.00 in0.0 mm 0.00 in/hr0.0 mm/hr 0.00 in0.0 mm
01:15 PM 24.4°F-4.2°C 23.2°F-4.9°C 95% 14.0 mph N22.5 kmh N 17.0 mph27.4 kmh 30.24 in1024.0 mb 0.00 in0.0 mm 0.00 in/hr0.0 mm/hr 0.00 in0.0 mm
01:16 PM 24.4°F-4.2°C 23.2°F-4.9°C 95% 15.0 mph N24.1 kmh N 17.0 mph27.4 kmh 30.24 in1024.0 mb 0.00 in0.0 mm 0.00 in/hr0.0 mm/hr 0.00 in0.0 mm
01:17 PM 24.4°F-4.2°C 23.2°F-4.9°C 95% 12.0 mph N19.3 kmh N 17.0 mph27.4 kmh 30.24 in1024.0 mb 0.00 in0.0 mm 0.00 in/hr0.0 mm/hr 0.00 in0.0 mm
01:18 PM 24.4°F-4.2°C 23.2°F-4.9°C 95% 13.0 mph N20.9 kmh N 17.0 mph27.4 kmh 30.24 in1024.0 mb 0.00 in0.0 mm 0.00 in/hr0.0 mm/hr 0.00 in0.0 mm
01:19 PM 24.4°F-4.2°C 23.2°F-4.9°C 95% 12.0 mph N19.3 kmh N 17.0 mph27.4 kmh 30.24 in1024.0 mb 0.00 in0.0 mm 0.00 in/hr0.0 mm/hr 0.00 in0.0 mm
01:20 PM 24.4°F-4.2°C 23.2°F-4.9°C 95% 13.0 mph N20.9 kmh N 17.0 mph27.4 kmh 30.24 in1024.0 mb 0.00 in0.0 mm 0.00 in/hr0.0 mm/hr 0.00 in0.0 mm
01:21 PM 24.4°F-4.2°C 23.2°F-4.9°C 95% 16.0 mph N25.7 kmh N 17.0 mph27.4 kmh 30.24 in1024.0 mb 0.00 in0.0 mm 0.00 in/hr0.0 mm/hr 0.00 in0.0 mm
01:22 PM 24.4°F-4.2°C 23.2°F-4.9°C 95% 15.0 mph N24.1 kmh N 17.0 mph27.4 kmh 30.24 in1024.0 mb 0.00 in0.0 mm 0.00 in/hr0.0 mm/hr 0.00 in0.0 mm
01:23 PM 24.4°F-4.2°C 23.2°F-4.9°C 95% 13.0 mph N20.9 kmh N 17.0 mph27.4 kmh 30.24 in1024.0 mb 0.00 in0.0 mm 0.00 in/hr0.0 mm/hr 0.00 in0.0 mm
01:24 PM 24.4°F-4.2°C 23.2°F-4.9°C 95% 13.0 mph N20.9 kmh N 17.0 mph27.4 kmh 30.24 in1024.0 mb 0.00 in0.0 mm 0.00 in/hr0.0 mm/hr 0.00 in0.0 mm
01:25 PM 24.4°F-4.2°C 23.2°F-4.9°C 95% 10.0 mph N16.1 kmh N 17.0 mph27.4 kmh 30.24 in1024.0 mb 0.00 in0.0 mm 0.00 in/hr0.0 mm/hr 0.00 in0.0 mm
01:26 PM 24.5°F-4.2°C 23.3°F-4.8°C 95% 14.0 mph N22.5 kmh N 17.0 mph27.4 kmh 30.24 in1024.0 mb 0.00 in0.0 mm 0.00 in/hr0.0 mm/hr 0.00 in0.0 mm
01:27 PM 24.5°F-4.2°C 23.3°F-4.8°C 95% 12.0 mph N19.3 kmh N 17.0 mph27.4 kmh 30.24 in1024.0 mb 0.00 in0.0 mm 0.00 in/hr0.0 mm/hr 0.00 in0.0 mm
01:28 PM 24.5°F-4.2°C 23.3°F-4.8°C 95% 10.0 mph NNW16.1 kmh NNW 17.0 mph27.4 kmh 30.24 in1024.0 mb 0.00 in0.0 mm 0.00 in/hr0.0 mm/hr 0.00 in0.0 mm
01:29 PM 24.5°F-4.2°C 23.3°F-4.8°C 95% 13.0 mph N20.9 kmh N 17.0 mph27.4 kmh 30.24 in1024.0 mb 0.00 in0.0 mm 0.00 in/hr0.0 mm/hr 0.00 in0.0 mm
01:30 PM 24.5°F-4.2°C 23.3°F-4.8°C 95% 13.0 mph N20.9 kmh N 17.0 mph27.4 kmh 30.25 in1024.4 mb 0.00 in0.0 mm 0.00 in/hr0.0 mm/hr 0.00 in0.0 mm
01:31 PM 24.5°F-4.2°C 23.3°F-4.8°C 95% 11.0 mph N17.7 kmh N 17.0 mph27.4 kmh 30.25 in1024.4 mb 0.00 in0.0 mm 0.00 in/hr0.0 mm/hr 0.00 in0.0 mm
01:32 PM 24.5°F-4.2°C 23.3°F-4.8°C 95% 12.0 mph N19.3 kmh N 14.0 mph22.5 kmh 30.25 in1024.4 mb 0.00 in0.0 mm 0.00 in/hr0.0 mm/hr 0.00 in0.0 mm
01:33 PM 24.6°F-4.1°C 23.4°F-4.8°C 95% 12.0 mph N19.3 kmh N 14.0 mph22.5 kmh 30.25 in1024.4 mb 0.00 in0.0 mm 0.00 in/hr0.0 mm/hr 0.00 in0.0 mm
01:34 PM 24.6°F-4.1°C 23.4°F-4.8°C 95% 12.0 mph N19.3 kmh N 15.0 mph24.1 kmh 30.25 in1024.4 mb 0.00 in0.0 mm 0.00 in/hr0.0 mm/hr 0.00 in0.0 mm
01:35 PM 24.6°F-4.1°C 23.4°F-4.8°C 95% 15.0 mph N24.1 kmh N 15.0 mph24.1 kmh 30.25 in1024.4 mb 0.00 in0.0 mm 0.00 in/hr0.0 mm/hr 0.00 in0.0 mm
01:36 PM 24.6°F-4.1°C 23.4°F-4.8°C 95% 11.0 mph N17.7 kmh N 15.0 mph24.1 kmh 30.25 in1024.4 mb 0.00 in0.0 mm 0.00 in/hr0.0 mm/hr 0.00 in0.0 mm
01:37 PM 24.6°F-4.1°C 23.4°F-4.8°C 95% 12.0 mph N19.3 kmh N 15.0 mph24.1 kmh 30.25 in1024.4 mb 0.00 in0.0 mm 0.00 in/hr0.0 mm/hr 0.00 in0.0 mm
01:38 PM 24.6°F-4.1°C 23.4°F-4.8°C 95% 9.0 mph NNW14.5 kmh NNW 15.0 mph24.1 kmh 30.25 in1024.4 mb 0.00 in0.0 mm 0.00 in/hr0.0 mm/hr 0.00 in0.0 mm
01:39 PM 24.6°F-4.1°C 23.4°F-4.8°C 95% 9.0 mph NNW14.5 kmh NNW 15.0 mph24.1 kmh 30.25 in1024.4 mb 0.00 in0.0 mm 0.00 in/hr0.0 mm/hr 0.00 in0.0 mm
01:40 PM 24.6°F-4.1°C 23.4°F-4.8°C 95% 9.0 mph NNW14.5 kmh NNW 15.0 mph24.1 kmh 30.25 in1024.4 mb 0.00 in0.0 mm 0.00 in/hr0.0 mm/hr 0.00 in0.0 mm
01:41 PM 24.6°F-4.1°C 23.4°F-4.8°C 95% 10.0 mph N16.1 kmh N 15.0 mph24.1 kmh 30.25 in1024.4 mb 0.00 in0.0 mm 0.00 in/hr0.0 mm/hr 0.00 in0.0 mm
01:42 PM 24.6°F-4.1°C 23.4°F-4.8°C 95% 10.0 mph NNW16.1 kmh NNW 15.0 mph24.1 kmh 30.25 in1024.4 mb 0.00 in0.0 mm 0.00 in/hr0.0 mm/hr 0.00 in0.0 mm
01:43 PM 24.6°F-4.1°C 23.4°F-4.8°C 95% 7.0 mph NNW11.3 kmh NNW 15.0 mph24.1 kmh 30.25 in1024.4 mb 0.00 in0.0 mm 0.00 in/hr0.0 mm/hr 0.00 in0.0 mm
01:44 PM 24.7°F-4.1°C 23.5°F-4.7°C 95% 8.0 mph N12.9 kmh N 15.0 mph24.1 kmh 30.25 in1024.4 mb 0.00 in0.0 mm 0.00 in/hr0.0 mm/hr 0.00 in0.0 mm
01:45 PM 24.7°F-4.1°C 23.5°F-4.7°C 95% 8.0 mph N12.9 kmh N 15.0 mph24.1 kmh 30.25 in1024.4 mb 0.00 in0.0 mm 0.00 in/hr0.0 mm/hr 0.00 in0.0 mm
01:46 PM 24.7°F-4.1°C 23.5°F-4.7°C 95% 9.0 mph NNW14.5 kmh NNW 15.0 mph24.1 kmh 30.25 in1024.4 mb 0.00 in0.0 mm 0.00 in/hr0.0 mm/hr 0.00 in0.0 mm
01:47 PM 24.7°F-4.1°C 23.5°F-4.7°C 95% 9.0 mph NW14.5 kmh NW 15.0 mph24.1 kmh 30.25 in1024.4 mb 0.00 in0.0 mm 0.00 in/hr0.0 mm/hr 0.00 in0.0 mm
01:48 PM 24.7°F-4.1°C 23.5°F-4.7°C 95% 7.0 mph NNW11.3 kmh NNW 15.0 mph24.1 kmh 30.25 in1024.4 mb 0.00 in0.0 mm 0.00 in/hr0.0 mm/hr 0.00 in0.0 mm
01:49 PM 24.7°F-4.1°C 23.5°F-4.7°C 95% 9.0 mph NNW14.5 kmh NNW 15.0 mph24.1 kmh 30.25 in1024.4 mb 0.00 in0.0 mm 0.00 in/hr0.0 mm/hr 0.00 in0.0 mm
01:50 PM 24.7°F-4.1°C 23.5°F-4.7°C 95% 10.0 mph N16.1 kmh N 15.0 mph24.1 kmh 30.25 in1024.4 mb 0.00 in0.0 mm 0.00 in/hr0.0 mm/hr 0.00 in0.0 mm
01:51 PM 24.7°F-4.1°C 23.5°F-4.7°C 95% 11.0 mph NW17.7 kmh NW 15.0 mph24.1 kmh 30.25 in1024.4 mb 0.00 in0.0 mm 0.00 in/hr0.0 mm/hr 0.00 in0.0 mm
01:52 PM 24.7°F-4.1°C 23.5°F-4.7°C 95% 11.0 mph NNW17.7 kmh NNW 15.0 mph24.1 kmh 30.25 in1024.4 mb 0.00 in0.0 mm 0.00 in/hr0.0 mm/hr 0.00 in0.0 mm
01:53 PM 24.7°F-4.1°C 23.5°F-4.7°C 95% 6.0 mph NNW9.7 kmh NNW 15.0 mph24.1 kmh 30.25 in1024.4 mb 0.00 in0.0 mm 0.00 in/hr0.0 mm/hr 0.00 in0.0 mm
01:54 PM 24.7°F-4.1°C 23.5°F-4.7°C 95% 11.0 mph NNW17.7 kmh NNW 15.0 mph24.1 kmh 30.25 in1024.4 mb 0.00 in0.0 mm 0.00 in/hr0.0 mm/hr 0.00 in0.0 mm
01:55 PM 24.7°F-4.1°C 23.5°F-4.7°C 95% 10.0 mph NNW16.1 kmh NNW 15.0 mph24.1 kmh 30.26 in1024.7 mb 0.00 in0.0 mm 0.00 in/hr0.0 mm/hr 0.00 in0.0 mm
01:56 PM 24.7°F-4.1°C 23.5°F-4.7°C 95% 9.0 mph NNW14.5 kmh NNW 15.0 mph24.1 kmh 30.25 in1024.4 mb 0.00 in0.0 mm 0.00 in/hr0.0 mm/hr 0.00 in0.0 mm
01:57 PM 24.7°F-4.1°C 23.5°F-4.7°C 95% 12.0 mph NNE19.3 kmh NNE 15.0 mph24.1 kmh 30.26 in1024.7 mb 0.00 in0.0 mm 0.00 in/hr0.0 mm/hr 0.00 in0.0 mm
01:58 PM 24.7°F-4.1°C 23.5°F-4.7°C 95% 10.0 mph N16.1 kmh N 15.0 mph24.1 kmh 30.26 in1024.7 mb 0.00 in0.0 mm 0.00 in/hr0.0 mm/hr 0.00 in0.0 mm
01:59 PM 24.7°F-4.1°C 23.5°F-4.7°C 95% 11.0 mph NNW17.7 kmh NNW 15.0 mph24.1 kmh 30.26 in1024.7 mb 0.00 in0.0 mm 0.00 in/hr0.0 mm/hr 0.00 in0.0 mm
02:00 PM 24.6°F-4.1°C 23.4°F-4.8°C 95% 10.0 mph N16.1 kmh N 15.0 mph24.1 kmh 30.26 in1024.7 mb 0.00 in0.0 mm 0.00 in/hr0.0 mm/hr 0.00 in0.0 mm
02:01 PM 24.6°F-4.1°C 23.4°F-4.8°C 95% 11.0 mph NNW17.7 kmh NNW 15.0 mph24.1 kmh 30.26 in1024.7 mb 0.00 in0.0 mm 0.00 in/hr0.0 mm/hr 0.00 in0.0 mm
02:02 PM 24.6°F-4.1°C 23.4°F-4.8°C 95% 11.0 mph NNW17.7 kmh NNW 13.0 mph20.9 kmh 30.26 in1024.7 mb 0.00 in0.0 mm 0.00 in/hr0.0 mm/hr 0.00 in0.0 mm
02:03 PM 24.6°F-4.1°C 23.4°F-4.8°C 95% 9.0 mph NNW14.5 kmh NNW 13.0 mph20.9 kmh 30.26 in1024.7 mb 0.00 in0.0 mm 0.00 in/hr0.0 mm/hr 0.00 in0.0 mm
02:04 PM 24.6°F-4.1°C 23.4°F-4.8°C 95% 9.0 mph NNW14.5 kmh NNW 14.0 mph22.5 kmh 30.26 in1024.7 mb 0.00 in0.0 mm 0.00 in/hr0.0 mm/hr 0.00 in0.0 mm
02:05 PM 24.6°F-4.1°C 23.4°F-4.8°C 95% 14.0 mph N22.5 kmh N 14.0 mph22.5 kmh 30.26 in1024.7 mb 0.00 in0.0 mm 0.00 in/hr0.0 mm/hr 0.00 in0.0 mm
02:06 PM 24.5°F-4.2°C 23.3°F-4.8°C 95% 14.0 mph NW22.5 kmh NW 16.0 mph25.7 kmh 30.26 in1024.7 mb 0.00 in0.0 mm 0.00 in/hr0.0 mm/hr 0.00 in0.0 mm
02:07 PM 24.5°F-4.2°C 23.3°F-4.8°C 95% 11.0 mph N17.7 kmh N 16.0 mph25.7 kmh 30.26 in1024.7 mb 0.00 in0.0 mm 0.00 in/hr0.0 mm/hr 0.00 in0.0 mm
02:08 PM 24.5°F-4.2°C 23.3°F-4.8°C 95% 11.0 mph NW17.7 kmh NW 16.0 mph25.7 kmh 30.26 in1024.7 mb 0.00 in0.0 mm 0.00 in/hr0.0 mm/hr 0.00 in0.0 mm
02:09 PM 24.5°F-4.2°C 23.3°F-4.8°C 95% 10.0 mph NNW16.1 kmh NNW 16.0 mph25.7 kmh 30.26 in1024.7 mb 0.00 in0.0 mm 0.00 in/hr0.0 mm/hr 0.00 in0.0 mm
02:10 PM 24.5°F-4.2°C 23.3°F-4.8°C 95% 11.0 mph N17.7 kmh N 16.0 mph25.7 kmh 30.26 in1024.7 mb 0.00 in0.0 mm 0.00 in/hr0.0 mm/hr 0.00 in0.0 mm
02:11 PM 24.5°F-4.2°C 23.3°F-4.8°C 95% 11.0 mph NNW17.7 kmh NNW 16.0 mph25.7 kmh 30.26 in1024.7 mb 0.00 in0.0 mm 0.00 in/hr0.0 mm/hr 0.00 in0.0 mm
02:12 PM 24.5°F-4.2°C 23.3°F-4.8°C 95% 9.0 mph NNW14.5 kmh NNW 16.0 mph25.7 kmh 30.26 in1024.7 mb 0.00 in0.0 mm 0.00 in/hr0.0 mm/hr 0.00 in0.0 mm
02:13 PM 24.5°F-4.2°C 23.3°F-4.8°C 95% 11.0 mph NNW17.7 kmh NNW 16.0 mph25.7 kmh 30.26 in1024.7 mb 0.00 in0.0 mm 0.00 in/hr0.0 mm/hr 0.00 in0.0 mm
02:14 PM 24.4°F-4.2°C 23.2°F-4.9°C 95% 12.0 mph NNW19.3 kmh NNW 16.0 mph25.7 kmh 30.26 in1024.7 mb 0.00 in0.0 mm 0.00 in/hr0.0 mm/hr 0.00 in0.0 mm
02:15 PM 24.4°F-4.2°C 23.2°F-4.9°C 95% 9.0 mph NNW14.5 kmh NNW 16.0 mph25.7 kmh 30.26 in1024.7 mb 0.00 in0.0 mm 0.00 in/hr0.0 mm/hr 0.00 in0.0 mm
02:16 PM 24.5°F-4.2°C 23.3°F-4.8°C 95% 11.0 mph NNW17.7 kmh NNW 16.0 mph25.7 kmh 30.26 in1024.7 mb 0.00 in0.0 mm 0.00 in/hr0.0 mm/hr 0.00 in0.0 mm
02:17 PM 24.5°F-4.2°C 23.3°F-4.8°C 95% 8.0 mph NW12.9 kmh NW 16.0 mph25.7 kmh 30.26 in1024.7 mb 0.00 in0.0 mm 0.00 in/hr0.0 mm/hr 0.00 in0.0 mm
02:18 PM 24.5°F-4.2°C 23.3°F-4.8°C 95% 9.0 mph NW14.5 kmh NW 16.0 mph25.7 kmh 30.26 in1024.7 mb 0.00 in0.0 mm 0.00 in/hr0.0 mm/hr 0.00 in0.0 mm
02:19 PM 24.5°F-4.2°C 23.3°F-4.8°C 95% 9.0 mph NW14.5 kmh NW 16.0 mph25.7 kmh 30.26 in1024.7 mb 0.00 in0.0 mm 0.00 in/hr0.0 mm/hr 0.00 in0.0 mm
02:20 PM 24.5°F-4.2°C 23.3°F-4.8°C 95% 9.0 mph NW14.5 kmh NW 16.0 mph25.7 kmh 30.26 in1024.7 mb 0.00 in0.0 mm 0.00 in/hr0.0 mm/hr 0.00 in0.0 mm
02:21 PM 24.5°F-4.2°C 23.3°F-4.8°C 95% 9.0 mph NW14.5 kmh NW 16.0 mph25.7 kmh 30.27 in1025.1 mb 0.00 in0.0 mm 0.00 in/hr0.0 mm/hr 0.00 in0.0 mm
02:22 PM 24.5°F-4.2°C 23.3°F-4.8°C 95% 9.0 mph NW14.5 kmh NW 16.0 mph25.7 kmh 30.27 in1025.1 mb 0.00 in0.0 mm 0.00 in/hr0.0 mm/hr 0.00 in0.0 mm
02:23 PM 24.5°F-4.2°C 23.3°F-4.8°C 95% 14.0 mph NW22.5 kmh NW 16.0 mph25.7 kmh 30.27 in1025.1 mb 0.00 in0.0 mm 0.00 in/hr0.0 mm/hr 0.00 in0.0 mm
02:24 PM 24.5°F-4.2°C 23.3°F-4.8°C 95% 16.0 mph NNW25.7 kmh NNW 18.0 mph29.0 kmh 30.27 in1025.1 mb 0.00 in0.0 mm 0.00 in/hr0.0 mm/hr 0.00 in0.0 mm
02:25 PM 24.4°F-4.2°C 23.2°F-4.9°C 95% 15.0 mph NNW24.1 kmh NNW 18.0 mph29.0 kmh 30.27 in1025.1 mb 0.00 in0.0 mm 0.00 in/hr0.0 mm/hr 0.00 in0.0 mm
02:26 PM 24.4°F-4.2°C 23.2°F-4.9°C 95% 14.0 mph NNW22.5 kmh NNW 18.0 mph29.0 kmh 30.27 in1025.1 mb 0.00 in0.0 mm 0.00 in/hr0.0 mm/hr 0.00 in0.0 mm
02:27 PM 24.3°F-4.3°C 23.1°F-4.9°C 95% 13.0 mph NW20.9 kmh NW 18.0 mph29.0 kmh 30.27 in1025.1 mb 0.00 in0.0 mm 0.00 in/hr0.0 mm/hr 0.00 in0.0 mm
02:28 PM 24.3°F-4.3°C 23.1°F-4.9°C 95% 12.0 mph NNW19.3 kmh NNW 18.0 mph29.0 kmh 30.27 in1025.1 mb 0.00 in0.0 mm 0.00 in/hr0.0 mm/hr 0.00 in0.0 mm
02:29 PM 24.3°F-4.3°C 23.1°F-4.9°C 95% 11.0 mph NW17.7 kmh NW 18.0 mph29.0 kmh 30.27 in1025.1 mb 0.00 in0.0 mm 0.00 in/hr0.0 mm/hr 0.00 in0.0 mm
02:30 PM 24.3°F-4.3°C 23.1°F-4.9°C 95% 12.0 mph NW19.3 kmh NW 18.0 mph29.0 kmh 30.28 in1025.4 mb 0.00 in0.0 mm 0.00 in/hr0.0 mm/hr 0.00 in0.0 mm
02:31 PM 24.2°F-4.3°C 23.0°F-5.0°C 95% 15.0 mph NNW24.1 kmh NNW 19.0 mph30.6 kmh 30.27 in1025.1 mb 0.00 in0.0 mm 0.00 in/hr0.0 mm/hr 0.00 in0.0 mm
02:32 PM 24.2°F-4.3°C 23.0°F-5.0°C 95% 15.0 mph NNW24.1 kmh NNW 18.0 mph29.0 kmh 30.28 in1025.4 mb 0.00 in0.0 mm 0.00 in/hr0.0 mm/hr 0.00 in0.0 mm
02:33 PM 24.2°F-4.3°C 23.0°F-5.0°C 95% 12.0 mph NNW19.3 kmh NNW 18.0 mph29.0 kmh 30.28 in1025.4 mb 0.00 in0.0 mm 0.00 in/hr0.0 mm/hr 0.00 in0.0 mm
02:34 PM 24.2°F-4.3°C 23.0°F-5.0°C 95% 14.0 mph NW22.5 kmh NW 18.0 mph29.0 kmh 30.28 in1025.4 mb 0.00 in0.0 mm 0.00 in/hr0.0 mm/hr 0.00 in0.0 mm
02:35 PM 24.2°F-4.3°C 23.0°F-5.0°C 95% 13.0 mph N20.9 kmh N 18.0 mph29.0 kmh 30.28 in1025.4 mb 0.00 in0.0 mm 0.00 in/hr0.0 mm/hr 0.00 in0.0 mm
02:36 PM 24.1°F-4.4°C 22.9°F-5.1°C 95% 14.0 mph NNW22.5 kmh NNW 18.0 mph29.0 kmh 30.28 in1025.4 mb 0.00 in0.0 mm 0.00 in/hr0.0 mm/hr 0.00 in0.0 mm
02:37 PM 24.1°F-4.4°C 22.9°F-5.1°C 95% 13.0 mph NNW20.9 kmh NNW 21.0 mph33.8 kmh 30.28 in1025.4 mb 0.00 in0.0 mm 0.00 in/hr0.0 mm/hr 0.00 in0.0 mm
02:38 PM 24.0°F-4.4°C 22.8°F-5.1°C 95% 15.0 mph NNW24.1 kmh NNW 21.0 mph33.8 kmh 30.28 in1025.4 mb 0.00 in0.0 mm 0.00 in/hr0.0 mm/hr 0.00 in0.0 mm
02:39 PM 24.0°F-4.4°C 22.8°F-5.1°C 95% 15.0 mph NW24.1 kmh NW 21.0 mph33.8 kmh 30.28 in1025.4 mb 0.00 in0.0 mm 0.00 in/hr0.0 mm/hr 0.00 in0.0 mm
02:40 PM 24.0°F-4.4°C 22.8°F-5.1°C 95% 11.0 mph NW17.7 kmh NW 21.0 mph33.8 kmh 30.28 in1025.4 mb 0.00 in0.0 mm 0.00 in/hr0.0 mm/hr 0.00 in0.0 mm
02:41 PM 23.9°F-4.5°C 22.7°F-5.2°C 95% 10.0 mph NW16.1 kmh NW 21.0 mph33.8 kmh 30.28 in1025.4 mb 0.00 in0.0 mm 0.00 in/hr0.0 mm/hr 0.00 in0.0 mm
02:42 PM 23.9°F-4.5°C 22.7°F-5.2°C 95% 12.0 mph NNW19.3 kmh NNW 21.0 mph33.8 kmh 30.28 in1025.4 mb 0.00 in0.0 mm 0.00 in/hr0.0 mm/hr 0.00 in0.0 mm
02:43 PM 23.9°F-4.5°C 22.7°F-5.2°C 95% 13.0 mph N20.9 kmh N 21.0 mph33.8 kmh 30.28 in1025.4 mb 0.00 in0.0 mm 0.00 in/hr0.0 mm/hr 0.00 in0.0 mm
02:44 PM 23.9°F-4.5°C 22.7°F-5.2°C 95% 15.0 mph NW24.1 kmh NW 21.0 mph33.8 kmh 30.28 in1025.4 mb 0.00 in0.0 mm 0.00 in/hr0.0 mm/hr 0.00 in0.0 mm
02:45 PM 23.9°F-4.5°C 22.7°F-5.2°C 95% 18.0 mph NW29.0 kmh NW 21.0 mph33.8 kmh 30.28 in1025.4 mb 0.00 in0.0 mm 0.00 in/hr0.0 mm/hr 0.00 in0.0 mm
02:46 PM 23.9°F-4.5°C 22.7°F-5.2°C 95% 17.0 mph NNW27.4 kmh NNW 21.0 mph33.8 kmh 30.28 in1025.4 mb 0.00 in0.0 mm 0.00 in/hr0.0 mm/hr 0.00 in0.0 mm
02:47 PM 23.8°F-4.6°C 22.6°F-5.2°C 95% 17.0 mph NNW27.4 kmh NNW 21.0 mph33.8 kmh 30.28 in1025.4 mb 0.00 in0.0 mm 0.00 in/hr0.0 mm/hr 0.00 in0.0 mm
02:48 PM 23.8°F-4.6°C 22.6°F-5.2°C 95% 15.0 mph NW24.1 kmh NW 21.0 mph33.8 kmh 30.28 in1025.4 mb 0.00 in0.0 mm 0.00 in/hr0.0 mm/hr 0.00 in0.0 mm
02:49 PM 23.8°F-4.6°C 22.6°F-5.2°C 95% 19.0 mph NNW30.6 kmh NNW 21.0 mph33.8 kmh 30.28 in1025.4 mb 0.00 in0.0 mm 0.00 in/hr0.0 mm/hr 0.00 in0.0 mm
02:50 PM 23.8°F-4.6°C 22.6°F-5.2°C 95% 12.0 mph N19.3 kmh N 21.0 mph33.8 kmh 30.29 in1025.7 mb 0.00 in0.0 mm 0.00 in/hr0.0 mm/hr 0.00 in0.0 mm
02:51 PM 23.8°F-4.6°C 22.6°F-5.2°C 95% 13.0 mph NNW20.9 kmh NNW 21.0 mph33.8 kmh 30.29 in1025.7 mb 0.00 in0.0 mm 0.00 in/hr0.0 mm/hr 0.00 in0.0 mm
02:52 PM 23.8°F-4.6°C 22.6°F-5.2°C 95% 12.0 mph N19.3 kmh N 21.0 mph33.8 kmh 30.29 in1025.7 mb 0.00 in0.0 mm 0.00 in/hr0.0 mm/hr 0.00 in0.0 mm
02:53 PM 23.7°F-4.6°C 22.5°F-5.3°C 95% 15.0 mph NNW24.1 kmh NNW 21.0 mph33.8 kmh 30.29 in1025.7 mb 0.00 in0.0 mm 0.00 in/hr0.0 mm/hr 0.00 in0.0 mm
02:54 PM 23.7°F-4.6°C 22.5°F-5.3°C 95% 16.0 mph NNW25.7 kmh NNW 21.0 mph33.8 kmh 30.29 in1025.7 mb 0.00 in0.0 mm 0.00 in/hr0.0 mm/hr 0.00 in0.0 mm
02:55 PM 23.7°F-4.6°C 22.5°F-5.3°C 95% 15.0 mph NW24.1 kmh NW 21.0 mph33.8 kmh 30.29 in1025.7 mb 0.00 in0.0 mm 0.00 in/hr0.0 mm/hr 0.00 in0.0 mm
02:56 PM 23.7°F-4.6°C 22.5°F-5.3°C 95% 12.0 mph NNW19.3 kmh NNW 21.0 mph33.8 kmh 30.29 in1025.7 mb 0.00 in0.0 mm 0.00 in/hr0.0 mm/hr 0.00 in0.0 mm
02:57 PM 23.7°F-4.6°C 22.5°F-5.3°C 95% 13.0 mph NNW20.9 kmh NNW 21.0 mph33.8 kmh 30.29 in1025.7 mb 0.00 in0.0 mm 0.00 in/hr0.0 mm/hr 0.00 in0.0 mm
02:58 PM 23.7°F-4.6°C 22.5°F-5.3°C 95% 14.0 mph NNW22.5 kmh NNW 21.0 mph33.8 kmh 30.29 in1025.7 mb 0.00 in0.0 mm 0.00 in/hr0.0 mm/hr 0.00 in0.0 mm
02:59 PM 23.7°F-4.6°C 22.5°F-5.3°C 95% 14.0 mph NNW22.5 kmh NNW 21.0 mph33.8 kmh 30.29 in1025.7 mb 0.00 in0.0 mm 0.00 in/hr0.0 mm/hr 0.00 in0.0 mm
03:00 PM 23.7°F-4.6°C 22.5°F-5.3°C 95% 14.0 mph NW22.5 kmh NW 21.0 mph33.8 kmh 30.29 in1025.7 mb 0.00 in0.0 mm 0.00 in/hr0.0 mm/hr 0.00 in0.0 mm
03:01 PM 23.7°F-4.6°C 22.5°F-5.3°C 95% 15.0 mph N24.1 kmh N 22.0 mph35.4 kmh 30.29 in1025.7 mb 0.00 in0.0 mm 0.00 in/hr0.0 mm/hr 0.00 in0.0 mm
03:02 PM 23.6°F-4.7°C 22.4°F-5.3°C 95% 12.0 mph NW19.3 kmh NW 19.0 mph30.6 kmh 30.29 in1025.7 mb 0.00 in0.0 mm 0.00 in/hr0.0 mm/hr 0.00 in0.0 mm
03:03 PM 23.6°F-4.7°C 22.4°F-5.3°C 95% 14.0 mph NW22.5 kmh NW 19.0 mph30.6 kmh 30.29 in1025.7 mb 0.00 in0.0 mm 0.00 in/hr0.0 mm/hr 0.00 in0.0 mm
03:04 PM 23.6°F-4.7°C 22.4°F-5.3°C 95% 11.0 mph NNW17.7 kmh NNW 19.0 mph30.6 kmh 30.29 in1025.7 mb 0.00 in0.0 mm 0.00 in/hr0.0 mm/hr 0.00 in0.0 mm
03:05 PM 23.6°F-4.7°C 22.4°F-5.3°C 95% 18.0 mph N29.0 kmh N 19.0 mph30.6 kmh 30.29 in1025.7 mb 0.00 in0.0 mm 0.00 in/hr0.0 mm/hr 0.00 in0.0 mm
03:06 PM 23.6°F-4.7°C 22.4°F-5.3°C 95% 11.0 mph NNW17.7 kmh NNW 19.0 mph30.6 kmh 30.29 in1025.7 mb 0.00 in0.0 mm 0.00 in/hr0.0 mm/hr 0.00 in0.0 mm
03:07 PM 23.6°F-4.7°C 22.4°F-5.3°C 95% 9.0 mph N14.5 kmh N 19.0 mph30.6 kmh 30.29 in1025.7 mb 0.00 in0.0 mm 0.00 in/hr0.0 mm/hr 0.00 in0.0 mm
03:08 PM 23.6°F-4.7°C 22.4°F-5.3°C 95% 10.0 mph NNW16.1 kmh NNW 19.0 mph30.6 kmh 30.29 in1025.7 mb 0.00 in0.0 mm 0.00 in/hr0.0 mm/hr 0.00 in0.0 mm
03:09 PM 23.6°F-4.7°C 22.4°F-5.3°C 95% 15.0 mph NNW24.1 kmh NNW 19.0 mph30.6 kmh 30.29 in1025.7 mb 0.00 in0.0 mm 0.00 in/hr0.0 mm/hr 0.00 in0.0 mm
03:10 PM 23.6°F-4.7°C 22.4°F-5.3°C 95% 12.0 mph NNW19.3 kmh NNW 19.0 mph30.6 kmh 30.29 in1025.7 mb 0.00 in0.0 mm 0.00 in/hr0.0 mm/hr 0.00 in0.0 mm
03:11 PM 23.6°F-4.7°C 22.4°F-5.3°C 95% 14.0 mph NNW22.5 kmh NNW 19.0 mph30.6 kmh 30.29 in1025.7 mb 0.00 in0.0 mm 0.00 in/hr0.0 mm/hr 0.00 in0.0 mm
03:12 PM 23.6°F-4.7°C 22.4°F-5.3°C 95% 15.0 mph N24.1 kmh N 19.0 mph30.6 kmh 30.29 in1025.7 mb 0.00 in0.0 mm 0.00 in/hr0.0 mm/hr 0.00 in0.0 mm
03:13 PM 23.6°F-4.7°C 22.4°F-5.3°C 95% 9.0 mph NW14.5 kmh NW 19.0 mph30.6 kmh 30.30 in1026.1 mb 0.00 in0.0 mm 0.00 in/hr0.0 mm/hr 0.00 in0.0 mm
03:14 PM 23.6°F-4.7°C 22.4°F-5.3°C 95% 10.0 mph NNW16.1 kmh NNW 19.0 mph30.6 kmh 30.30 in1026.1 mb 0.00 in0.0 mm 0.00 in/hr0.0 mm/hr 0.00 in0.0 mm
03:15 PM 23.6°F-4.7°C 22.1°F-5.5°C 94% 12.0 mph NNW19.3 kmh NNW 19.0 mph30.6 kmh 30.30 in1026.1 mb 0.00 in0.0 mm 0.00 in/hr0.0 mm/hr 0.00 in0.0 mm
03:16 PM 23.6°F-4.7°C 22.1°F-5.5°C 94% 15.0 mph N24.1 kmh N 19.0 mph30.6 kmh 30.30 in1026.1 mb 0.00 in0.0 mm 0.00 in/hr0.0 mm/hr 0.00 in0.0 mm
03:17 PM 23.6°F-4.7°C 22.1°F-5.5°C 94% 10.0 mph NNW16.1 kmh NNW 19.0 mph30.6 kmh 30.30 in1026.1 mb 0.00 in0.0 mm 0.00 in/hr0.0 mm/hr 0.00 in0.0 mm
03:18 PM 23.6°F-4.7°C 22.1°F-5.5°C 94% 11.0 mph NW17.7 kmh NW 19.0 mph30.6 kmh 30.30 in1026.1 mb 0.00 in0.0 mm 0.00 in/hr0.0 mm/hr 0.00 in0.0 mm
03:19 PM 23.7°F-4.6°C 22.2°F-5.4°C 94% 9.0 mph NW14.5 kmh NW 19.0 mph30.6 kmh 30.30 in1026.1 mb 0.00 in0.0 mm 0.00 in/hr0.0 mm/hr 0.00 in0.0 mm
03:20 PM 23.6°F-4.7°C 22.1°F-5.5°C 94% 10.0 mph NNW16.1 kmh NNW 19.0 mph30.6 kmh 30.30 in1026.1 mb 0.00 in0.0 mm 0.00 in/hr0.0 mm/hr 0.00 in0.0 mm
03:21 PM 23.6°F-4.7°C 22.1°F-5.5°C 94% 14.0 mph NW22.5 kmh NW 19.0 mph30.6 kmh 30.30 in1026.1 mb 0.00 in0.0 mm 0.00 in/hr0.0 mm/hr 0.00 in0.0 mm
03:22 PM 23.7°F-4.6°C 22.2°F-5.4°C 94% 9.0 mph NNW14.5 kmh NNW 19.0 mph30.6 kmh 30.30 in1026.1 mb 0.00 in0.0 mm 0.00 in/hr0.0 mm/hr 0.00 in0.0 mm
03:23 PM 23.7°F-4.6°C 22.2°F-5.4°C 94% 10.0 mph NNW16.1 kmh NNW 19.0 mph30.6 kmh 30.30 in1026.1 mb 0.00 in0.0 mm 0.00 in/hr0.0 mm/hr 0.00 in0.0 mm
03:24 PM 23.7°F-4.6°C 22.2°F-5.4°C 94% 8.0 mph NW12.9 kmh NW 19.0 mph30.6 kmh 30.30 in1026.1 mb 0.00 in0.0 mm 0.00 in/hr0.0 mm/hr 0.00 in0.0 mm
03:25 PM 23.7°F-4.6°C 22.5°F-5.3°C 95% 9.0 mph NNW14.5 kmh NNW 19.0 mph30.6 kmh 30.31 in1026.4 mb 0.00 in0.0 mm 0.00 in/hr0.0 mm/hr 0.00 in0.0 mm
03:26 PM 23.7°F-4.6°C 22.2°F-5.4°C 94% 14.0 mph NW22.5 kmh NW 19.0 mph30.6 kmh 30.31 in1026.4 mb 0.00 in0.0 mm 0.00 in/hr0.0 mm/hr 0.00 in0.0 mm
03:27 PM 23.7°F-4.6°C 22.2°F-5.4°C 94% 11.0 mph NW17.7 kmh NW 19.0 mph30.6 kmh 30.31 in1026.4 mb 0.00 in0.0 mm 0.00 in/hr0.0 mm/hr 0.00 in0.0 mm
03:28 PM 23.7°F-4.6°C 22.2°F-5.4°C 94% 12.0 mph NW19.3 kmh NW 19.0 mph30.6 kmh 30.31 in1026.4 mb 0.00 in0.0 mm 0.00 in/hr0.0 mm/hr 0.00 in0.0 mm
03:29 PM 23.7°F-4.6°C 22.2°F-5.4°C 94% 11.0 mph NNW17.7 kmh NNW 19.0 mph30.6 kmh 30.31 in1026.4 mb 0.00 in0.0 mm 0.00 in/hr0.0 mm/hr 0.00 in0.0 mm
03:30 PM 23.8°F-4.6°C 22.3°F-5.4°C 94% 12.0 mph NNW19.3 kmh NNW 19.0 mph30.6 kmh 30.31 in1026.4 mb 0.00 in0.0 mm 0.00 in/hr0.0 mm/hr 0.00 in0.0 mm
03:31 PM 23.7°F-4.6°C 22.2°F-5.4°C 94% 11.0 mph NW17.7 kmh NW 19.0 mph30.6 kmh 30.31 in1026.4 mb 0.00 in0.0 mm 0.00 in/hr0.0 mm/hr 0.00 in0.0 mm
03:32 PM 23.8°F-4.6°C 22.3°F-5.4°C 94% 13.0 mph NNW20.9 kmh NNW 15.0 mph24.1 kmh 30.31 in1026.4 mb 0.00 in0.0 mm 0.00 in/hr0.0 mm/hr 0.00 in0.0 mm
03:33 PM 23.8°F-4.6°C 22.3°F-5.4°C 94% 13.0 mph NNW20.9 kmh NNW 15.0 mph24.1 kmh 30.31 in1026.4 mb 0.00 in0.0 mm 0.00 in/hr0.0 mm/hr 0.00 in0.0 mm
03:34 PM 23.8°F-4.6°C 22.3°F-5.4°C 94% 14.0 mph NNW22.5 kmh NNW 16.0 mph25.7 kmh 30.31 in1026.4 mb 0.00 in0.0 mm 0.00 in/hr0.0 mm/hr 0.00 in0.0 mm
03:35 PM 23.8°F-4.6°C 22.3°F-5.4°C 94% 17.0 mph NNW27.4 kmh NNW 19.0 mph30.6 kmh 30.31 in1026.4 mb 0.00 in0.0 mm 0.00 in/hr0.0 mm/hr 0.00 in0.0 mm
03:36 PM 23.8°F-4.6°C 22.3°F-5.4°C 94% 16.0 mph NW25.7 kmh NW 19.0 mph30.6 kmh 30.32 in1026.8 mb 0.00 in0.0 mm 0.00 in/hr0.0 mm/hr 0.00 in0.0 mm
03:37 PM 23.8°F-4.6°C 22.3°F-5.4°C 94% 13.0 mph NNW20.9 kmh NNW 22.0 mph35.4 kmh 30.31 in1026.4 mb 0.00 in0.0 mm 0.00 in/hr0.0 mm/hr 0.00 in0.0 mm
03:38 PM 23.8°F-4.6°C 22.3°F-5.4°C 94% 14.0 mph NW22.5 kmh NW 22.0 mph35.4 kmh 30.32 in1026.8 mb 0.00 in0.0 mm 0.00 in/hr0.0 mm/hr 0.00 in0.0 mm
03:39 PM 23.8°F-4.6°C 22.3°F-5.4°C 94% 12.0 mph NW19.3 kmh NW 22.0 mph35.4 kmh 30.32 in1026.8 mb 0.00 in0.0 mm 0.00 in/hr0.0 mm/hr 0.00 in0.0 mm
03:40 PM 23.8°F-4.6°C 22.3°F-5.4°C 94% 16.0 mph NNW25.7 kmh NNW 22.0 mph35.4 kmh 30.32 in1026.8 mb 0.00 in0.0 mm 0.00 in/hr0.0 mm/hr 0.00 in0.0 mm
03:41 PM 23.8°F-4.6°C 22.3°F-5.4°C 94% 13.0 mph N20.9 kmh N 22.0 mph35.4 kmh 30.32 in1026.8 mb 0.00 in0.0 mm 0.00 in/hr0.0 mm/hr 0.00 in0.0 mm
03:42 PM 23.8°F-4.6°C 22.6°F-5.2°C 95% 17.0 mph NNW27.4 kmh NNW 22.0 mph35.4 kmh 30.32 in1026.8 mb 0.00 in0.0 mm 0.00 in/hr0.0 mm/hr 0.00 in0.0 mm
03:43 PM 23.8°F-4.6°C 22.6°F-5.2°C 95% 15.0 mph NW24.1 kmh NW 22.0 mph35.4 kmh 30.32 in1026.8 mb 0.00 in0.0 mm 0.00 in/hr0.0 mm/hr 0.00 in0.0 mm
03:44 PM 23.8°F-4.6°C 22.6°F-5.2°C 95% 15.0 mph NNW24.1 kmh NNW 22.0 mph35.4 kmh 30.32 in1026.8 mb 0.00 in0.0 mm 0.00 in/hr0.0 mm/hr 0.00 in0.0 mm
03:45 PM 23.8°F-4.6°C 22.3°F-5.4°C 94% 15.0 mph NNW24.1 kmh NNW 22.0 mph35.4 kmh 30.32 in1026.8 mb 0.00 in0.0 mm 0.00 in/hr0.0 mm/hr 0.00 in0.0 mm
03:46 PM 23.8°F-4.6°C 22.3°F-5.4°C 94% 16.0 mph NNW25.7 kmh NNW 22.0 mph35.4 kmh 30.32 in1026.8 mb 0.00 in0.0 mm 0.00 in/hr0.0 mm/hr 0.00 in0.0 mm
03:47 PM 23.8°F-4.6°C 22.3°F-5.4°C 94% 13.0 mph NNW20.9 kmh NNW 22.0 mph35.4 kmh 30.32 in1026.8 mb 0.00 in0.0 mm 0.00 in/hr0.0 mm/hr 0.00 in0.0 mm
03:48 PM 23.8°F-4.6°C 22.3°F-5.4°C 94% 14.0 mph NNW22.5 kmh NNW 22.0 mph35.4 kmh 30.32 in1026.8 mb 0.00 in0.0 mm 0.00 in/hr0.0 mm/hr 0.00 in0.0 mm
03:49 PM 23.8°F-4.6°C 22.3°F-5.4°C 94% 16.0 mph NW25.7 kmh NW 22.0 mph35.4 kmh 30.32 in1026.8 mb 0.00 in0.0 mm 0.00 in/hr0.0 mm/hr 0.00 in0.0 mm
03:50 PM 23.8°F-4.6°C 22.3°F-5.4°C 94% 11.0 mph NW17.7 kmh NW 22.0 mph35.4 kmh 30.32 in1026.8 mb 0.00 in0.0 mm 0.00 in/hr0.0 mm/hr 0.00 in0.0 mm
03:51 PM 23.8°F-4.6°C 22.3°F-5.4°C 94% 12.0 mph NNW19.3 kmh NNW 22.0 mph35.4 kmh 30.32 in1026.8 mb 0.00 in0.0 mm 0.00 in/hr0.0 mm/hr 0.00 in0.0 mm
03:52 PM 23.8°F-4.6°C 22.3°F-5.4°C 94% 11.0 mph NW17.7 kmh NW 22.0 mph35.4 kmh 30.32 in1026.8 mb 0.00 in0.0 mm 0.00 in/hr0.0 mm/hr 0.00 in0.0 mm
03:53 PM 23.8°F-4.6°C 22.3°F-5.4°C 94% 14.0 mph NNW22.5 kmh NNW 22.0 mph35.4 kmh 30.32 in1026.8 mb 0.00 in0.0 mm 0.00 in/hr0.0 mm/hr 0.00 in0.0 mm
03:54 PM 23.8°F-4.6°C 22.3°F-5.4°C 94% 12.0 mph NNW19.3 kmh NNW 22.0 mph35.4 kmh 30.32 in1026.8 mb 0.00 in0.0 mm 0.00 in/hr0.0 mm/hr 0.00 in0.0 mm
03:55 PM 23.8°F-4.6°C 22.3°F-5.4°C 94% 12.0 mph NW19.3 kmh NW 22.0 mph35.4 kmh 30.32 in1026.8 mb 0.00 in0.0 mm 0.00 in/hr0.0 mm/hr 0.00 in0.0 mm
03:56 PM 23.8°F-4.6°C 22.3°F-5.4°C 94% 12.0 mph NW19.3 kmh NW 22.0 mph35.4 kmh 30.32 in1026.8 mb 0.00 in0.0 mm 0.00 in/hr0.0 mm/hr 0.00 in0.0 mm
03:57 PM 23.8°F-4.6°C 22.3°F-5.4°C 94% 15.0 mph NW24.1 kmh NW 22.0 mph35.4 kmh 30.32 in1026.8 mb 0.00 in0.0 mm 0.00 in/hr0.0 mm/hr 0.00 in0.0 mm
03:58 PM 23.8°F-4.6°C 22.3°F-5.4°C 94% 13.0 mph NNW20.9 kmh NNW 22.0 mph35.4 kmh 30.33 in1027.1 mb 0.00 in0.0 mm 0.00 in/hr0.0 mm/hr 0.00 in0.0 mm
03:59 PM 23.8°F-4.6°C 22.3°F-5.4°C 94% 11.0 mph NNW17.7 kmh NNW 22.0 mph35.4 kmh 30.33 in1027.1 mb 0.00 in0.0 mm 0.00 in/hr0.0 mm/hr 0.00 in0.0 mm
04:00 PM 23.8°F-4.6°C 22.3°F-5.4°C 94% 11.0 mph NNW17.7 kmh NNW 22.0 mph35.4 kmh 30.33 in1027.1 mb 0.00 in0.0 mm 0.00 in/hr0.0 mm/hr 0.00 in0.0 mm
04:01 PM 23.8°F-4.6°C 22.3°F-5.4°C 94% 10.0 mph NW16.1 kmh NW 22.0 mph35.4 kmh 30.33 in1027.1 mb 0.00 in0.0 mm 0.00 in/hr0.0 mm/hr 0.00 in0.0 mm
04:02 PM 23.8°F-4.6°C 22.3°F-5.4°C 94% 10.0 mph NW16.1 kmh NW 13.0 mph20.9 kmh 30.33 in1027.1 mb 0.00 in0.0 mm 0.00 in/hr0.0 mm/hr 0.00 in0.0 mm
04:03 PM 23.8°F-4.6°C 22.3°F-5.4°C 94% 13.0 mph NW20.9 kmh NW 14.0 mph22.5 kmh 30.33 in1027.1 mb 0.00 in0.0 mm 0.00 in/hr0.0 mm/hr 0.00 in0.0 mm
04:04 PM 23.8°F-4.6°C 22.3°F-5.4°C 94% 14.0 mph NNW22.5 kmh NNW 17.0 mph27.4 kmh 30.33 in1027.1 mb 0.00 in0.0 mm 0.00 in/hr0.0 mm/hr 0.00 in0.0 mm
04:05 PM 23.7°F-4.6°C 22.2°F-5.4°C 94% 14.0 mph NW22.5 kmh NW 17.0 mph27.4 kmh 30.33 in1027.1 mb 0.00 in0.0 mm 0.00 in/hr0.0 mm/hr 0.00 in0.0 mm
04:06 PM 23.7°F-4.6°C 22.2°F-5.4°C 94% 17.0 mph NW27.4 kmh NW 19.0 mph30.6 kmh 30.33 in1027.1 mb 0.00 in0.0 mm 0.00 in/hr0.0 mm/hr 0.00 in0.0 mm
04:07 PM 23.6°F-4.7°C 22.1°F-5.5°C 94% 17.0 mph NW27.4 kmh NW 19.0 mph30.6 kmh 30.33 in1027.1 mb 0.00 in0.0 mm 0.00 in/hr0.0 mm/hr 0.00 in0.0 mm
04:08 PM 23.6°F-4.7°C 22.1°F-5.5°C 94% 18.0 mph NW29.0 kmh NW 19.0 mph30.6 kmh 30.33 in1027.1 mb 0.00 in0.0 mm 0.00 in/hr0.0 mm/hr 0.00 in0.0 mm
04:09 PM 23.5°F-4.7°C 22.0°F-5.6°C 94% 15.0 mph NNW24.1 kmh NNW 19.0 mph30.6 kmh 30.33 in1027.1 mb 0.00 in0.0 mm 0.00 in/hr0.0 mm/hr 0.00 in0.0 mm
04:10 PM 23.5°F-4.7°C 22.0°F-5.6°C 94% 16.0 mph NNW25.7 kmh NNW 19.0 mph30.6 kmh 30.33 in1027.1 mb 0.00 in0.0 mm 0.00 in/hr0.0 mm/hr 0.00 in0.0 mm
04:11 PM 23.4°F-4.8°C 21.9°F-5.6°C 94% 19.0 mph NW30.6 kmh NW 19.0 mph30.6 kmh 30.33 in1027.1 mb 0.00 in0.0 mm 0.00 in/hr0.0 mm/hr 0.00 in0.0 mm
04:12 PM 23.4°F-4.8°C 21.9°F-5.6°C 94% 13.0 mph NW20.9 kmh NW 19.0 mph30.6 kmh 30.32 in1026.8 mb 0.00 in0.0 mm 0.00 in/hr0.0 mm/hr 0.00 in0.0 mm
04:13 PM 23.3°F-4.8°C 21.8°F-5.7°C 94% 14.0 mph NW22.5 kmh NW 19.0 mph30.6 kmh 30.33 in1027.1 mb 0.00 in0.0 mm 0.00 in/hr0.0 mm/hr 0.00 in0.0 mm
04:14 PM 23.3°F-4.8°C 21.8°F-5.7°C 94% 13.0 mph NNW20.9 kmh NNW 19.0 mph30.6 kmh 30.33 in1027.1 mb 0.00 in0.0 mm 0.00 in/hr0.0 mm/hr 0.00 in0.0 mm
04:15 PM 23.3°F-4.8°C 21.8°F-5.7°C 94% 17.0 mph NNW27.4 kmh NNW 19.0 mph30.6 kmh 30.33 in1027.1 mb 0.00 in0.0 mm 0.00 in/hr0.0 mm/hr 0.00 in0.0 mm
04:16 PM 23.2°F-4.9°C 21.7°F-5.7°C 94% 15.0 mph NW24.1 kmh NW 19.0 mph30.6 kmh 30.33 in1027.1 mb 0.00 in0.0 mm 0.00 in/hr0.0 mm/hr 0.00 in0.0 mm
04:17 PM 23.2°F-4.9°C 21.7°F-5.7°C 94% 14.0 mph NNW22.5 kmh NNW 19.0 mph30.6 kmh 30.33 in1027.1 mb 0.00 in0.0 mm 0.00 in/hr0.0 mm/hr 0.00 in0.0 mm
04:18 PM 23.1°F-4.9°C 21.6°F-5.8°C 94% 14.0 mph NNW22.5 kmh NNW 19.0 mph30.6 kmh 30.33 in1027.1 mb 0.00 in0.0 mm 0.00 in/hr0.0 mm/hr 0.00 in0.0 mm
04:19 PM 23.1°F-4.9°C 21.6°F-5.8°C 94% 15.0 mph NW24.1 kmh NW 19.0 mph30.6 kmh 30.33 in1027.1 mb 0.00 in0.0 mm 0.00 in/hr0.0 mm/hr 0.00 in0.0 mm
04:20 PM 23.1°F-4.9°C 21.6°F-5.8°C 94% 12.0 mph NNW19.3 kmh NNW 19.0 mph30.6 kmh 30.33 in1027.1 mb 0.00 in0.0 mm 0.00 in/hr0.0 mm/hr 0.00 in0.0 mm
04:21 PM 23.1°F-4.9°C 21.6°F-5.8°C 94% 13.0 mph NW20.9 kmh NW 19.0 mph30.6 kmh 30.33 in1027.1 mb 0.00 in0.0 mm 0.00 in/hr0.0 mm/hr 0.00 in0.0 mm
04:22 PM 23.1°F-4.9°C 21.6°F-5.8°C 94% 11.0 mph NW17.7 kmh NW 19.0 mph30.6 kmh 30.33 in1027.1 mb 0.00 in0.0 mm 0.00 in/hr0.0 mm/hr 0.00 in0.0 mm
04:23 PM 23.1°F-4.9°C 21.6°F-5.8°C 94% 12.0 mph NNW19.3 kmh NNW 19.0 mph30.6 kmh 30.33 in1027.1 mb 0.00 in0.0 mm 0.00 in/hr0.0 mm/hr 0.00 in0.0 mm
04:24 PM 23.0°F-5.0°C 21.5°F-5.8°C 94% 13.0 mph NNW20.9 kmh NNW 19.0 mph30.6 kmh 30.33 in1027.1 mb 0.00 in0.0 mm 0.00 in/hr0.0 mm/hr 0.00 in0.0 mm
04:25 PM 23.0°F-5.0°C 21.5°F-5.8°C 94% 12.0 mph NW19.3 kmh NW 19.0 mph30.6 kmh 30.33 in1027.1 mb 0.00 in0.0 mm 0.00 in/hr0.0 mm/hr 0.00 in0.0 mm
04:26 PM 23.0°F-5.0°C 21.5°F-5.8°C 94% 13.0 mph NNW20.9 kmh NNW 19.0 mph30.6 kmh 30.33 in1027.1 mb 0.00 in0.0 mm 0.00 in/hr0.0 mm/hr 0.00 in0.0 mm
04:27 PM 23.0°F-5.0°C 21.5°F-5.8°C 94% 14.0 mph NW22.5 kmh NW 19.0 mph30.6 kmh 30.33 in1027.1 mb 0.00 in0.0 mm 0.00 in/hr0.0 mm/hr 0.00 in0.0 mm
04:28 PM 23.0°F-5.0°C 21.5°F-5.8°C 94% 11.0 mph NW17.7 kmh NW 19.0 mph30.6 kmh 30.33 in1027.1 mb 0.00 in0.0 mm 0.00 in/hr0.0 mm/hr 0.00 in0.0 mm
04:29 PM 23.0°F-5.0°C 21.5°F-5.8°C 94% 12.0 mph NW19.3 kmh NW 19.0 mph30.6 kmh 30.34 in1027.4 mb 0.00 in0.0 mm 0.00 in/hr0.0 mm/hr 0.00 in0.0 mm
04:30 PM 23.0°F-5.0°C 21.5°F-5.8°C 94% 15.0 mph NW24.1 kmh NW 19.0 mph30.6 kmh 30.34 in1027.4 mb 0.00 in0.0 mm 0.00 in/hr0.0 mm/hr 0.00 in0.0 mm
04:31 PM 23.0°F-5.0°C 21.5°F-5.8°C 94% 13.0 mph NW20.9 kmh NW 19.0 mph30.6 kmh 30.34 in1027.4 mb 0.00 in0.0 mm 0.00 in/hr0.0 mm/hr 0.00 in0.0 mm
04:32 PM 22.9°F-5.1°C 21.4°F-5.9°C 94% 14.0 mph NW22.5 kmh NW 15.0 mph24.1 kmh 30.34 in1027.4 mb 0.00 in0.0 mm 0.00 in/hr0.0 mm/hr 0.00 in0.0 mm
04:33 PM 22.9°F-5.1°C 21.4°F-5.9°C 94% 15.0 mph NW24.1 kmh NW 17.0 mph27.4 kmh 30.34 in1027.4 mb 0.00 in0.0 mm 0.00 in/hr0.0 mm/hr 0.00 in0.0 mm
04:34 PM 22.9°F-5.1°C 21.4°F-5.9°C 94% 12.0 mph NW19.3 kmh NW 17.0 mph27.4 kmh 30.34 in1027.4 mb 0.00 in0.0 mm 0.00 in/hr0.0 mm/hr 0.00 in0.0 mm
04:35 PM 22.9°F-5.1°C 21.4°F-5.9°C 94% 17.0 mph NW27.4 kmh NW 18.0 mph29.0 kmh 30.34 in1027.4 mb 0.00 in0.0 mm 0.00 in/hr0.0 mm/hr 0.00 in0.0 mm
04:36 PM 22.9°F-5.1°C 21.4°F-5.9°C 94% 17.0 mph NW27.4 kmh NW 19.0 mph30.6 kmh 30.34 in1027.4 mb 0.00 in0.0 mm 0.00 in/hr0.0 mm/hr 0.00 in0.0 mm
04:37 PM 22.8°F-5.1°C 21.3°F-5.9°C 94% 17.0 mph NW27.4 kmh NW 19.0 mph30.6 kmh 30.34 in1027.4 mb 0.00 in0.0 mm 0.00 in/hr0.0 mm/hr 0.00 in0.0 mm
04:38 PM 22.8°F-5.1°C 21.3°F-5.9°C 94% 15.0 mph NW24.1 kmh NW 19.0 mph30.6 kmh 30.34 in1027.4 mb 0.00 in0.0 mm 0.00 in/hr0.0 mm/hr 0.00 in0.0 mm
04:39 PM 22.8°F-5.1°C 21.3°F-5.9°C 94% 17.0 mph NW27.4 kmh NW 20.0 mph32.2 kmh 30.34 in1027.4 mb 0.00 in0.0 mm 0.00 in/hr0.0 mm/hr 0.00 in0.0 mm
04:40 PM 22.7°F-5.2°C 21.2°F-6.0°C 94% 16.0 mph NW25.7 kmh NW 20.0 mph32.2 kmh 30.34 in1027.4 mb 0.00 in0.0 mm 0.00 in/hr0.0 mm/hr 0.00 in0.0 mm
04:41 PM 22.7°F-5.2°C 21.2°F-6.0°C 94% 15.0 mph NW24.1 kmh NW 20.0 mph32.2 kmh 30.34 in1027.4 mb 0.00 in0.0 mm 0.00 in/hr0.0 mm/hr 0.00 in0.0 mm
04:42 PM 22.7°F-5.2°C 21.2°F-6.0°C 94% 15.0 mph NW24.1 kmh NW 20.0 mph32.2 kmh 30.34 in1027.4 mb 0.00 in0.0 mm 0.00 in/hr0.0 mm/hr 0.00 in0.0 mm
04:43 PM 22.7°F-5.2°C 21.2°F-6.0°C 94% 13.0 mph NW20.9 kmh NW 20.0 mph32.2 kmh 30.34 in1027.4 mb 0.00 in0.0 mm 0.00 in/hr0.0 mm/hr 0.00 in0.0 mm
04:44 PM 22.7°F-5.2°C 21.2°F-6.0°C 94% 16.0 mph NW25.7 kmh NW 20.0 mph32.2 kmh 30.34 in1027.4 mb 0.00 in0.0 mm 0.00 in/hr0.0 mm/hr 0.00 in0.0 mm
04:45 PM 22.6°F-5.2°C 21.1°F-6.1°C 94% 17.0 mph NW27.4 kmh NW 20.0 mph32.2 kmh 30.34 in1027.4 mb 0.00 in0.0 mm 0.00 in/hr0.0 mm/hr 0.00 in0.0 mm
04:46 PM 22.5°F-5.3°C 21.0°F-6.1°C 94% 11.0 mph NW17.7 kmh NW 20.0 mph32.2 kmh 30.35 in1027.8 mb 0.00 in0.0 mm 0.00 in/hr0.0 mm/hr 0.00 in0.0 mm
04:47 PM 22.5°F-5.3°C 21.0°F-6.1°C 94% 21.0 mph NW33.8 kmh NW 21.0 mph33.8 kmh 30.35 in1027.8 mb 0.00 in0.0 mm 0.00 in/hr0.0 mm/hr 0.00 in0.0 mm
04:48 PM 22.5°F-5.3°C 21.0°F-6.1°C 94% 18.0 mph NW29.0 kmh NW 21.0 mph33.8 kmh 30.34 in1027.4 mb 0.00 in0.0 mm 0.00 in/hr0.0 mm/hr 0.00 in0.0 mm
04:49 PM 22.4°F-5.3°C 20.9°F-6.2°C 94% 20.0 mph NW32.2 kmh NW 21.0 mph33.8 kmh 30.34 in1027.4 mb 0.00 in0.0 mm 0.00 in/hr0.0 mm/hr 0.00 in0.0 mm
04:50 PM 22.3°F-5.4°C 20.8°F-6.2°C 94% 19.0 mph NW30.6 kmh NW 21.0 mph33.8 kmh 30.35 in1027.8 mb 0.00 in0.0 mm 0.00 in/hr0.0 mm/hr 0.00 in0.0 mm
04:51 PM 22.2°F-5.4°C 20.7°F-6.3°C 94% 15.0 mph NW24.1 kmh NW 21.0 mph33.8 kmh 30.35 in1027.8 mb 0.00 in0.0 mm 0.00 in/hr0.0 mm/hr 0.00 in0.0 mm
04:52 PM 22.1°F-5.5°C 20.6°F-6.3°C 94% 16.0 mph NW25.7 kmh NW 21.0 mph33.8 kmh 30.35 in1027.8 mb 0.00 in0.0 mm 0.00 in/hr0.0 mm/hr 0.00 in0.0 mm
04:53 PM 22.1°F-5.5°C 20.6°F-6.3°C 94% 17.0 mph NW27.4 kmh NW 21.0 mph33.8 kmh 30.35 in1027.8 mb 0.00 in0.0 mm 0.00 in/hr0.0 mm/hr 0.00 in0.0 mm
04:54 PM 22.0°F-5.6°C 20.5°F-6.4°C 94% 17.0 mph NW27.4 kmh NW 21.0 mph33.8 kmh 30.35 in1027.8 mb 0.00 in0.0 mm 0.00 in/hr0.0 mm/hr 0.00 in0.0 mm
04:55 PM 21.9°F-5.6°C 20.4°F-6.4°C 94% 16.0 mph NW25.7 kmh NW 21.0 mph33.8 kmh 30.35 in1027.8 mb 0.00 in0.0 mm 0.00 in/hr0.0 mm/hr 0.00 in0.0 mm
04:56 PM 21.8°F-5.7°C 20.3°F-6.5°C 94% 15.0 mph NW24.1 kmh NW 21.0 mph33.8 kmh 30.35 in1027.8 mb 0.00 in0.0 mm 0.00 in/hr0.0 mm/hr 0.00 in0.0 mm
04:57 PM 21.8°F-5.7°C 20.3°F-6.5°C 94% 16.0 mph NW25.7 kmh NW 21.0 mph33.8 kmh 30.35 in1027.8 mb 0.00 in0.0 mm 0.00 in/hr0.0 mm/hr 0.00 in0.0 mm
04:58 PM 21.7°F-5.7°C 20.2°F-6.6°C 94% 16.0 mph NW25.7 kmh NW 21.0 mph33.8 kmh 30.35 in1027.8 mb 0.00 in0.0 mm 0.00 in/hr0.0 mm/hr 0.00 in0.0 mm
04:59 PM 21.7°F-5.7°C 20.2°F-6.6°C 94% 23.0 mph NW37.0 kmh NW 26.0 mph41.8 kmh 30.35 in1027.8 mb 0.00 in0.0 mm 0.00 in/hr0.0 mm/hr 0.00 in0.0 mm
05:00 PM 21.6°F-5.8°C 20.1°F-6.6°C 94% 21.0 mph NW33.8 kmh NW 26.0 mph41.8 kmh 30.35 in1027.8 mb 0.00 in0.0 mm 0.00 in/hr0.0 mm/hr 0.00 in0.0 mm
05:01 PM 21.3°F-5.9°C 19.9°F-6.7°C 94% 26.0 mph NW41.8 kmh NW 26.0 mph41.8 kmh 30.35 in1027.8 mb 0.00 in0.0 mm 0.00 in/hr0.0 mm/hr 0.00 in0.0 mm
05:02 PM 20.9°F-6.2°C 19.5°F-6.9°C 94% 20.0 mph NW32.2 kmh NW 23.0 mph37.0 kmh 30.35 in1027.8 mb 0.00 in0.0 mm 0.00 in/hr0.0 mm/hr 0.00 in0.0 mm
05:03 PM 20.5°F-6.4°C 18.8°F-7.3°C 93% 18.0 mph NW29.0 kmh NW 23.0 mph37.0 kmh 30.35 in1027.8 mb 0.00 in0.0 mm 0.00 in/hr0.0 mm/hr 0.00 in0.0 mm
05:04 PM 20.1°F-6.6°C 18.4°F-7.6°C 93% 17.0 mph NW27.4 kmh NW 23.0 mph37.0 kmh 30.35 in1027.8 mb 0.00 in0.0 mm 0.00 in/hr0.0 mm/hr 0.00 in0.0 mm
05:05 PM 19.9°F-6.7°C 18.2°F-7.7°C 93% 17.0 mph NW27.4 kmh NW 23.0 mph37.0 kmh 30.35 in1027.8 mb 0.00 in0.0 mm 0.00 in/hr0.0 mm/hr 0.00 in0.0 mm
05:06 PM 19.7°F-6.8°C 18.0°F-7.8°C 93% 17.0 mph NW27.4 kmh NW 23.0 mph37.0 kmh 30.35 in1027.8 mb 0.00 in0.0 mm 0.00 in/hr0.0 mm/hr 0.00 in0.0 mm
05:07 PM 19.4°F-7.0°C 17.7°F-7.9°C 93% 17.0 mph NW27.4 kmh NW 23.0 mph37.0 kmh 30.35 in1027.8 mb 0.00 in0.0 mm 0.00 in/hr0.0 mm/hr 0.00 in0.0 mm
05:08 PM 19.3°F-7.1°C 17.6°F-8.0°C 93% 18.0 mph NW29.0 kmh NW 23.0 mph37.0 kmh 30.36 in1028.1 mb 0.00 in0.0 mm 0.00 in/hr0.0 mm/hr 0.00 in0.0 mm
05:09 PM 19.1°F-7.2°C 17.4°F-8.1°C 93% 17.0 mph NW27.4 kmh NW 23.0 mph37.0 kmh 30.36 in1028.1 mb 0.00 in0.0 mm 0.00 in/hr0.0 mm/hr 0.00 in0.0 mm
05:10 PM 19.0°F-7.2°C 17.3°F-8.2°C 93% 17.0 mph NW27.4 kmh NW 23.0 mph37.0 kmh 30.36 in1028.1 mb 0.00 in0.0 mm 0.00 in/hr0.0 mm/hr 0.00 in0.0 mm
05:11 PM 18.8°F-7.3°C 17.1°F-8.3°C 93% 18.0 mph NW29.0 kmh NW 23.0 mph37.0 kmh 30.36 in1028.1 mb 0.00 in0.0 mm 0.00 in/hr0.0 mm/hr 0.00 in0.0 mm
05:12 PM 18.8°F-7.3°C 17.1°F-8.3°C 93% 16.0 mph NW25.7 kmh NW 23.0 mph37.0 kmh 30.36 in1028.1 mb 0.00 in0.0 mm 0.00 in/hr0.0 mm/hr 0.00 in0.0 mm
05:13 PM 18.6°F-7.4°C 16.9°F-8.4°C 93% 15.0 mph NW24.1 kmh NW 23.0 mph37.0 kmh 30.36 in1028.1 mb 0.00 in0.0 mm 0.00 in/hr0.0 mm/hr 0.00 in0.0 mm
05:14 PM 18.5°F-7.5°C 16.8°F-8.4°C 93% 18.0 mph NW29.0 kmh NW 23.0 mph37.0 kmh 30.36 in1028.1 mb 0.00 in0.0 mm 0.00 in/hr0.0 mm/hr 0.00 in0.0 mm
05:15 PM 18.4°F-7.6°C 16.7°F-8.5°C 93% 17.0 mph NW27.4 kmh NW 23.0 mph37.0 kmh 30.37 in1028.4 mb 0.00 in0.0 mm 0.00 in/hr0.0 mm/hr 0.00 in0.0 mm
05:16 PM 18.4°F-7.6°C 16.7°F-8.5°C 93% 18.0 mph NW29.0 kmh NW 23.0 mph37.0 kmh 30.36 in1028.1 mb 0.00 in0.0 mm 0.00 in/hr0.0 mm/hr 0.00 in0.0 mm
05:17 PM 18.2°F-7.7°C 16.5°F-8.6°C 93% 18.0 mph NW29.0 kmh NW 23.0 mph37.0 kmh 30.37 in1028.4 mb 0.00 in0.0 mm 0.00 in/hr0.0 mm/hr 0.00 in0.0 mm
05:18 PM 18.2°F-7.7°C 16.5°F-8.6°C 93% 19.0 mph NW30.6 kmh NW 23.0 mph37.0 kmh 30.37 in1028.4 mb 0.00 in0.0 mm 0.00 in/hr0.0 mm/hr 0.00 in0.0 mm
05:19 PM 18.1°F-7.7°C 16.4°F-8.7°C 93% 17.0 mph NW27.4 kmh NW 23.0 mph37.0 kmh 30.37 in1028.4 mb 0.00 in0.0 mm 0.00 in/hr0.0 mm/hr 0.00 in0.0 mm
05:20 PM 18.0°F-7.8°C 16.3°F-8.7°C 93% 20.0 mph NW32.2 kmh NW 23.0 mph37.0 kmh 30.37 in1028.4 mb 0.00 in0.0 mm 0.00 in/hr0.0 mm/hr 0.00 in0.0 mm
05:21 PM 17.9°F-7.8°C 16.2°F-8.8°C 93% 15.0 mph NW24.1 kmh NW 23.0 mph37.0 kmh 30.37 in1028.4 mb 0.00 in0.0 mm 0.00 in/hr0.0 mm/hr 0.00 in0.0 mm
05:22 PM 17.8°F-7.9°C 16.1°F-8.8°C 93% 20.0 mph WNW32.2 kmh WNW 23.0 mph37.0 kmh 30.37 in1028.4 mb 0.00 in0.0 mm 0.00 in/hr0.0 mm/hr 0.00 in0.0 mm
05:23 PM 17.7°F-7.9°C 16.0°F-8.9°C 93% 15.0 mph WNW24.1 kmh WNW 23.0 mph37.0 kmh 30.37 in1028.4 mb 0.00 in0.0 mm 0.00 in/hr0.0 mm/hr 0.00 in0.0 mm
05:24 PM 17.7°F-7.9°C 16.0°F-8.9°C 93% 17.0 mph NW27.4 kmh NW 23.0 mph37.0 kmh 30.37 in1028.4 mb 0.00 in0.0 mm 0.00 in/hr0.0 mm/hr 0.00 in0.0 mm
05:25 PM 17.6°F-8.0°C 15.9°F-8.9°C 93% 18.0 mph NW29.0 kmh NW 23.0 mph37.0 kmh 30.37 in1028.4 mb 0.00 in0.0 mm 0.00 in/hr0.0 mm/hr 0.00 in0.0 mm
05:26 PM 17.5°F-8.1°C 15.8°F-9.0°C 93% 18.0 mph WNW29.0 kmh WNW 23.0 mph37.0 kmh 30.37 in1028.4 mb 0.00 in0.0 mm 0.00 in/hr0.0 mm/hr 0.00 in0.0 mm
05:27 PM 17.5°F-8.1°C 15.8°F-9.0°C 93% 18.0 mph NW29.0 kmh NW 23.0 mph37.0 kmh 30.37 in1028.4 mb 0.00 in0.0 mm 0.00 in/hr0.0 mm/hr 0.00 in0.0 mm
05:28 PM 17.5°F-8.1°C 15.8°F-9.0°C 93% 15.0 mph NW24.1 kmh NW 23.0 mph37.0 kmh 30.37 in1028.4 mb 0.00 in0.0 mm 0.00 in/hr0.0 mm/hr 0.00 in0.0 mm
05:29 PM 17.4°F-8.1°C 15.7°F-9.1°C 93% 17.0 mph NW27.4 kmh NW 23.0 mph37.0 kmh 30.37 in1028.4 mb 0.00 in0.0 mm 0.00 in/hr0.0 mm/hr 0.00 in0.0 mm
05:30 PM 17.4°F-8.1°C 15.7°F-9.1°C 93% 22.0 mph NW35.4 kmh NW 23.0 mph37.0 kmh 30.37 in1028.4 mb 0.00 in0.0 mm 0.00 in/hr0.0 mm/hr 0.00 in0.0 mm
05:31 PM 17.4°F-8.1°C 15.7°F-9.1°C 93% 20.0 mph NW32.2 kmh NW 23.0 mph37.0 kmh 30.37 in1028.4 mb 0.00 in0.0 mm 0.00 in/hr0.0 mm/hr 0.00 in0.0 mm
05:32 PM 17.3°F-8.2°C 15.6°F-9.1°C 93% 19.0 mph NW30.6 kmh NW 21.0 mph33.8 kmh 30.37 in1028.4 mb 0.00 in0.0 mm 0.00 in/hr0.0 mm/hr 0.00 in0.0 mm
05:33 PM 17.3°F-8.2°C 15.6°F-9.1°C 93% 19.0 mph NW30.6 kmh NW 22.0 mph35.4 kmh 30.37 in1028.4 mb 0.00 in0.0 mm 0.00 in/hr0.0 mm/hr 0.00 in0.0 mm
05:34 PM 17.3°F-8.2°C 15.6°F-9.1°C 93% 18.0 mph NW29.0 kmh NW 22.0 mph35.4 kmh 30.37 in1028.4 mb 0.00 in0.0 mm 0.00 in/hr0.0 mm/hr 0.00 in0.0 mm
05:35 PM 17.2°F-8.2°C 15.5°F-9.2°C 93% 18.0 mph NW29.0 kmh NW 22.0 mph35.4 kmh 30.37 in1028.4 mb 0.00 in0.0 mm 0.00 in/hr0.0 mm/hr 0.00 in0.0 mm
05:36 PM 17.2°F-8.2°C 15.5°F-9.2°C 93% 20.0 mph NW32.2 kmh NW 22.0 mph35.4 kmh 30.37 in1028.4 mb 0.00 in0.0 mm 0.00 in/hr0.0 mm/hr 0.00 in0.0 mm
05:37 PM 17.2°F-8.2°C 15.5°F-9.2°C 93% 20.0 mph NW32.2 kmh NW 22.0 mph35.4 kmh 30.37 in1028.4 mb 0.00 in0.0 mm 0.00 in/hr0.0 mm/hr 0.00 in0.0 mm
05:38 PM 17.2°F-8.2°C 15.5°F-9.2°C 93% 18.0 mph NW29.0 kmh NW 22.0 mph35.4 kmh 30.37 in1028.4 mb 0.00 in0.0 mm 0.00 in/hr0.0 mm/hr 0.00 in0.0 mm
05:39 PM 17.2°F-8.2°C 15.5°F-9.2°C 93% 18.0 mph NW29.0 kmh NW 22.0 mph35.4 kmh 30.37 in1028.4 mb 0.00 in0.0 mm 0.00 in/hr0.0 mm/hr 0.00 in0.0 mm
05:40 PM 17.1°F-8.3°C 15.4°F-9.2°C 93% 22.0 mph NW35.4 kmh NW 23.0 mph37.0 kmh 30.37 in1028.4 mb 0.00 in0.0 mm 0.00 in/hr0.0 mm/hr 0.00 in0.0 mm
05:41 PM 17.1°F-8.3°C 15.4°F-9.2°C 93% 16.0 mph NW25.7 kmh NW 23.0 mph37.0 kmh 30.37 in1028.4 mb 0.00 in0.0 mm 0.00 in/hr0.0 mm/hr 0.00 in0.0 mm
05:42 PM 17.1°F-8.3°C 15.4°F-9.2°C 93% 20.0 mph NW32.2 kmh NW 23.0 mph37.0 kmh 30.37 in1028.4 mb 0.00 in0.0 mm 0.00 in/hr0.0 mm/hr 0.00 in0.0 mm
05:43 PM 17.1°F-8.3°C 15.4°F-9.2°C 93% 18.0 mph NW29.0 kmh NW 23.0 mph37.0 kmh 30.38 in1028.8 mb 0.00 in0.0 mm 0.00 in/hr0.0 mm/hr 0.00 in0.0 mm
05:44 PM 17.0°F-8.3°C 15.3°F-9.3°C 93% 16.0 mph NW25.7 kmh NW 23.0 mph37.0 kmh 30.38 in1028.8 mb 0.00 in0.0 mm 0.00 in/hr0.0 mm/hr 0.00 in0.0 mm
05:45 PM 17.0°F-8.3°C 15.3°F-9.3°C 93% 17.0 mph NW27.4 kmh NW 23.0 mph37.0 kmh 30.38 in1028.8 mb 0.00 in0.0 mm 0.00 in/hr0.0 mm/hr 0.00 in0.0 mm
05:46 PM 17.0°F-8.3°C 15.3°F-9.3°C 93% 17.0 mph NW27.4 kmh NW 23.0 mph37.0 kmh 30.38 in1028.8 mb 0.00 in0.0 mm 0.00 in/hr0.0 mm/hr 0.00 in0.0 mm
05:47 PM 17.0°F-8.3°C 15.3°F-9.3°C 93% 18.0 mph NW29.0 kmh NW 23.0 mph37.0 kmh 30.38 in1028.8 mb 0.00 in0.0 mm 0.00 in/hr0.0 mm/hr 0.00 in0.0 mm
05:48 PM 16.9°F-8.4°C 15.0°F-9.4°C 92% 15.0 mph NW24.1 kmh NW 23.0 mph37.0 kmh 30.38 in1028.8 mb 0.00 in0.0 mm 0.00 in/hr0.0 mm/hr 0.00 in0.0 mm
05:49 PM 16.9°F-8.4°C 15.2°F-9.3°C 93% 14.0 mph NW22.5 kmh NW 23.0 mph37.0 kmh 30.38 in1028.8 mb 0.00 in0.0 mm 0.00 in/hr0.0 mm/hr 0.00 in0.0 mm
05:50 PM 16.9°F-8.4°C 15.2°F-9.3°C 93% 17.0 mph NW27.4 kmh NW 23.0 mph37.0 kmh 30.38 in1028.8 mb 0.00 in0.0 mm 0.00 in/hr0.0 mm/hr 0.00 in0.0 mm
05:51 PM 16.8°F-8.4°C 15.1°F-9.4°C 93% 14.0 mph NW22.5 kmh NW 23.0 mph37.0 kmh 30.38 in1028.8 mb 0.00 in0.0 mm 0.00 in/hr0.0 mm/hr 0.00 in0.0 mm
05:52 PM 16.8°F-8.4°C 15.1°F-9.4°C 93% 14.0 mph NW22.5 kmh NW 23.0 mph37.0 kmh 30.38 in1028.8 mb 0.00 in0.0 mm 0.00 in/hr0.0 mm/hr 0.00 in0.0 mm
05:53 PM 16.8°F-8.4°C 15.1°F-9.4°C 93% 17.0 mph NW27.4 kmh NW 23.0 mph37.0 kmh 30.38 in1028.8 mb 0.00 in0.0 mm 0.00 in/hr0.0 mm/hr 0.00 in0.0 mm
05:54 PM 16.8°F-8.4°C 15.1°F-9.4°C 93% 15.0 mph NW24.1 kmh NW 23.0 mph37.0 kmh 30.38 in1028.8 mb 0.00 in0.0 mm 0.00 in/hr0.0 mm/hr 0.00 in0.0 mm
05:55 PM 16.7°F-8.5°C 15.0°F-9.4°C 93% 15.0 mph NW24.1 kmh NW 23.0 mph37.0 kmh 30.38 in1028.8 mb 0.00 in0.0 mm 0.00 in/hr0.0 mm/hr 0.00 in0.0 mm
05:56 PM 16.7°F-8.5°C 15.0°F-9.4°C 93% 16.0 mph NW25.7 kmh NW 23.0 mph37.0 kmh 30.38 in1028.8 mb 0.00 in0.0 mm 0.00 in/hr0.0 mm/hr 0.00 in0.0 mm
05:57 PM 16.7°F-8.5°C 15.0°F-9.4°C 93% 15.0 mph NW24.1 kmh NW 23.0 mph37.0 kmh 30.38 in1028.8 mb 0.00 in0.0 mm 0.00 in/hr0.0 mm/hr 0.00 in0.0 mm
05:58 PM 16.7°F-8.5°C 15.0°F-9.4°C 93% 14.0 mph NW22.5 kmh NW 23.0 mph37.0 kmh 30.38 in1028.8 mb 0.00 in0.0 mm 0.00 in/hr0.0 mm/hr 0.00 in0.0 mm
05:59 PM 16.6°F-8.6°C 14.9°F-9.5°C 93% 16.0 mph WNW25.7 kmh WNW 23.0 mph37.0 kmh 30.38 in1028.8 mb 0.00 in0.0 mm 0.00 in/hr0.0 mm/hr 0.00 in0.0 mm
06:00 PM 16.6°F-8.6°C 14.9°F-9.5°C 93% 15.0 mph NW24.1 kmh NW 23.0 mph37.0 kmh 30.39 in1029.1 mb 0.00 in0.0 mm 0.00 in/hr0.0 mm/hr 0.00 in0.0 mm
06:01 PM 16.6°F-8.6°C 14.9°F-9.5°C 93% 16.0 mph WNW25.7 kmh WNW 23.0 mph37.0 kmh 30.38 in1028.8 mb 0.00 in0.0 mm 0.00 in/hr0.0 mm/hr 0.00 in0.0 mm
06:02 PM 16.6°F-8.6°C 14.9°F-9.5°C 93% 15.0 mph WNW24.1 kmh WNW 18.0 mph29.0 kmh 30.39 in1029.1 mb 0.00 in0.0 mm 0.00 in/hr0.0 mm/hr 0.00 in0.0 mm
06:03 PM 16.6°F-8.6°C 14.9°F-9.5°C 93% 16.0 mph WNW25.7 kmh WNW 18.0 mph29.0 kmh 30.39 in1029.1 mb 0.00 in0.0 mm 0.00 in/hr0.0 mm/hr 0.00 in0.0 mm
06:04 PM 16.5°F-8.6°C 14.8°F-9.6°C 93% 16.0 mph WNW25.7 kmh WNW 18.0 mph29.0 kmh 30.39 in1029.1 mb 0.00 in0.0 mm 0.00 in/hr0.0 mm/hr 0.00 in0.0 mm
06:05 PM 16.5°F-8.6°C 14.8°F-9.6°C 93% 18.0 mph WNW29.0 kmh WNW 18.0 mph29.0 kmh 30.38 in1028.8 mb 0.00 in0.0 mm 0.00 in/hr0.0 mm/hr 0.00 in0.0 mm
06:06 PM 16.4°F-8.7°C 14.7°F-9.6°C 93% 18.0 mph NW29.0 kmh NW 19.0 mph30.6 kmh 30.39 in1029.1 mb 0.00 in0.0 mm 0.00 in/hr0.0 mm/hr 0.00 in0.0 mm
06:07 PM 16.4°F-8.7°C 14.7°F-9.6°C 93% 15.0 mph WNW24.1 kmh WNW 19.0 mph30.6 kmh 30.39 in1029.1 mb 0.00 in0.0 mm 0.00 in/hr0.0 mm/hr 0.00 in0.0 mm
06:08 PM 16.3°F-8.7°C 14.4°F-9.8°C 92% 18.0 mph WNW29.0 kmh WNW 19.0 mph30.6 kmh 30.39 in1029.1 mb 0.00 in0.0 mm 0.00 in/hr0.0 mm/hr 0.00 in0.0 mm
06:09 PM 16.3°F-8.7°C 14.4°F-9.8°C 92% 17.0 mph WNW27.4 kmh WNW 20.0 mph32.2 kmh 30.39 in1029.1 mb 0.00 in0.0 mm 0.00 in/hr0.0 mm/hr 0.00 in0.0 mm
06:10 PM 16.3°F-8.7°C 14.4°F-9.8°C 92% 16.0 mph NW25.7 kmh NW 20.0 mph32.2 kmh 30.39 in1029.1 mb 0.00 in0.0 mm 0.00 in/hr0.0 mm/hr 0.00 in0.0 mm
06:11 PM 16.2°F-8.8°C 14.3°F-9.8°C 92% 14.0 mph NW22.5 kmh NW 20.0 mph32.2 kmh 30.39 in1029.1 mb 0.00 in0.0 mm 0.00 in/hr0.0 mm/hr 0.00 in0.0 mm
06:12 PM 16.2°F-8.8°C 14.3°F-9.8°C 92% 18.0 mph NW29.0 kmh NW 22.0 mph35.4 kmh 30.39 in1029.1 mb 0.00 in0.0 mm 0.00 in/hr0.0 mm/hr 0.00 in0.0 mm
06:13 PM 16.2°F-8.8°C 14.3°F-9.8°C 92% 18.0 mph NW29.0 kmh NW 22.0 mph35.4 kmh 30.39 in1029.1 mb 0.00 in0.0 mm 0.00 in/hr0.0 mm/hr 0.00 in0.0 mm
06:14 PM 16.1°F-8.8°C 14.2°F-9.9°C 92% 17.0 mph NW27.4 kmh NW 22.0 mph35.4 kmh 30.39 in1029.1 mb 0.00 in0.0 mm 0.00 in/hr0.0 mm/hr 0.00 in0.0 mm
06:15 PM 16.0°F-8.9°C 14.1°F-9.9°C 92% 19.0 mph NW30.6 kmh NW 22.0 mph35.4 kmh 30.39 in1029.1 mb 0.00 in0.0 mm 0.00 in/hr0.0 mm/hr 0.00 in0.0 mm
06:16 PM 16.0°F-8.9°C 14.1°F-9.9°C 92% 17.0 mph NW27.4 kmh NW 22.0 mph35.4 kmh 30.39 in1029.1 mb 0.00 in0.0 mm 0.00 in/hr0.0 mm/hr 0.00 in0.0 mm
06:17 PM 15.9°F-8.9°C 14.0°F-10.0°C 92% 19.0 mph NW30.6 kmh NW 22.0 mph35.4 kmh 30.39 in1029.1 mb 0.00 in0.0 mm 0.00 in/hr0.0 mm/hr 0.00 in0.0 mm
06:18 PM 15.9°F-8.9°C 14.0°F-10.0°C 92% 20.0 mph NW32.2 kmh NW 22.0 mph35.4 kmh 30.39 in1029.1 mb 0.00 in0.0 mm 0.00 in/hr0.0 mm/hr 0.00 in0.0 mm
06:19 PM 15.8°F-9.0°C 13.9°F-10.1°C 92% 17.0 mph NW27.4 kmh NW 22.0 mph35.4 kmh 30.39 in1029.1 mb 0.00 in0.0 mm 0.00 in/hr0.0 mm/hr 0.00 in0.0 mm
06:20 PM 15.8°F-9.0°C 13.9°F-10.1°C 92% 15.0 mph NW24.1 kmh NW 22.0 mph35.4 kmh 30.39 in1029.1 mb 0.00 in0.0 mm 0.00 in/hr0.0 mm/hr 0.00 in0.0 mm
06:21 PM 15.8°F-9.0°C 13.9°F-10.1°C 92% 19.0 mph NW30.6 kmh NW 22.0 mph35.4 kmh 30.39 in1029.1 mb 0.00 in0.0 mm 0.00 in/hr0.0 mm/hr 0.00 in0.0 mm
06:22 PM 15.7°F-9.1°C 13.8°F-10.1°C 92% 17.0 mph NW27.4 kmh NW 22.0 mph35.4 kmh 30.39 in1029.1 mb 0.00 in0.0 mm 0.00 in/hr0.0 mm/hr 0.00 in0.0 mm
06:23 PM 15.7°F-9.1°C 13.8°F-10.1°C 92% 16.0 mph NW25.7 kmh NW 22.0 mph35.4 kmh 30.39 in1029.1 mb 0.00 in0.0 mm 0.00 in/hr0.0 mm/hr 0.00 in0.0 mm
06:24 PM 15.7°F-9.1°C 13.8°F-10.1°C 92% 14.0 mph NW22.5 kmh NW 22.0 mph35.4 kmh 30.39 in1029.1 mb 0.00 in0.0 mm 0.00 in/hr0.0 mm/hr 0.00 in0.0 mm
06:25 PM 15.6°F-9.1°C 13.7°F-10.2°C 92% 13.0 mph NW20.9 kmh NW 22.0 mph35.4 kmh 30.39 in1029.1 mb 0.00 in0.0 mm 0.00 in/hr0.0 mm/hr 0.00 in0.0 mm
06:26 PM 15.6°F-9.1°C 13.7°F-10.2°C 92% 14.0 mph NW22.5 kmh NW 22.0 mph35.4 kmh 30.40 in1029.5 mb 0.00 in0.0 mm 0.00 in/hr0.0 mm/hr 0.00 in0.0 mm
06:27 PM 15.6°F-9.1°C 13.7°F-10.2°C 92% 11.0 mph NW17.7 kmh NW 22.0 mph35.4 kmh 30.40 in1029.5 mb 0.00 in0.0 mm 0.00 in/hr0.0 mm/hr 0.00 in0.0 mm
06:28 PM 15.6°F-9.1°C 13.7°F-10.2°C 92% 12.0 mph WNW19.3 kmh WNW 22.0 mph35.4 kmh 30.40 in1029.5 mb 0.00 in0.0 mm 0.00 in/hr0.0 mm/hr 0.00 in0.0 mm
06:29 PM 15.5°F-9.2°C 13.6°F-10.2°C 92% 14.0 mph NW22.5 kmh NW 22.0 mph35.4 kmh 30.39 in1029.1 mb 0.00 in0.0 mm 0.00 in/hr0.0 mm/hr 0.00 in0.0 mm
06:30 PM 15.5°F-9.2°C 13.6°F-10.2°C 92% 14.0 mph NW22.5 kmh NW 22.0 mph35.4 kmh 30.40 in1029.5 mb 0.00 in0.0 mm 0.00 in/hr0.0 mm/hr 0.00 in0.0 mm
06:31 PM 15.4°F-9.2°C 13.5°F-10.3°C 92% 14.0 mph NW22.5 kmh NW 22.0 mph35.4 kmh 30.40 in1029.5 mb 0.00 in0.0 mm 0.00 in/hr0.0 mm/hr 0.00 in0.0 mm
06:32 PM 15.4°F-9.2°C 13.5°F-10.3°C 92% 13.0 mph WNW20.9 kmh WNW 18.0 mph29.0 kmh 30.40 in1029.5 mb 0.00 in0.0 mm 0.00 in/hr0.0 mm/hr 0.00 in0.0 mm
06:33 PM 15.3°F-9.3°C 13.4°F-10.3°C 92% 13.0 mph NW20.9 kmh NW 18.0 mph29.0 kmh 30.39 in1029.1 mb 0.00 in0.0 mm 0.00 in/hr0.0 mm/hr 0.00 in0.0 mm
06:34 PM 15.3°F-9.3°C 13.4°F-10.3°C 92% 15.0 mph WNW24.1 kmh WNW 18.0 mph29.0 kmh 30.40 in1029.5 mb 0.00 in0.0 mm 0.00 in/hr0.0 mm/hr 0.00 in0.0 mm
06:35 PM 15.3°F-9.3°C 13.4°F-10.3°C 92% 17.0 mph WNW27.4 kmh WNW 18.0 mph29.0 kmh 30.40 in1029.5 mb 0.00 in0.0 mm 0.00 in/hr0.0 mm/hr 0.00 in0.0 mm
06:36 PM 15.2°F-9.3°C 13.3°F-10.4°C 92% 13.0 mph NW20.9 kmh NW 18.0 mph29.0 kmh 30.39 in1029.1 mb 0.00 in0.0 mm 0.00 in/hr0.0 mm/hr 0.00 in0.0 mm
06:37 PM 15.2°F-9.3°C 13.3°F-10.4°C 92% 16.0 mph NW25.7 kmh NW 18.0 mph29.0 kmh 30.40 in1029.5 mb 0.00 in0.0 mm 0.00 in/hr0.0 mm/hr 0.00 in0.0 mm
06:38 PM 15.1°F-9.4°C 13.2°F-10.4°C 92% 13.0 mph WNW20.9 kmh WNW 18.0 mph29.0 kmh 30.39 in1029.1 mb 0.00 in0.0 mm 0.00 in/hr0.0 mm/hr 0.00 in0.0 mm
06:39 PM 15.0°F-9.4°C 13.1°F-10.5°C 92% 13.0 mph WNW20.9 kmh WNW 18.0 mph29.0 kmh 30.39 in1029.1 mb 0.00 in0.0 mm 0.00 in/hr0.0 mm/hr 0.00 in0.0 mm
06:40 PM 15.0°F-9.4°C 13.1°F-10.5°C 92% 14.0 mph WNW22.5 kmh WNW 18.0 mph29.0 kmh 30.39 in1029.1 mb 0.00 in0.0 mm 0.00 in/hr0.0 mm/hr 0.00 in0.0 mm
06:41 PM 14.9°F-9.5°C 13.0°F-10.6°C 92% 14.0 mph NW22.5 kmh NW 18.0 mph29.0 kmh 30.39 in1029.1 mb 0.00 in0.0 mm 0.00 in/hr0.0 mm/hr 0.00 in0.0 mm
06:42 PM 14.9°F-9.5°C 13.0°F-10.6°C 92% 14.0 mph NW22.5 kmh NW 18.0 mph29.0 kmh 30.39 in1029.1 mb 0.00 in0.0 mm 0.00 in/hr0.0 mm/hr 0.00 in0.0 mm
06:43 PM 14.8°F-9.6°C 12.9°F-10.6°C 92% 14.0 mph NW22.5 kmh NW 18.0 mph29.0 kmh 30.39 in1029.1 mb 0.00 in0.0 mm 0.00 in/hr0.0 mm/hr 0.00 in0.0 mm
06:44 PM 14.8°F-9.6°C 12.9°F-10.6°C 92% 16.0 mph WNW25.7 kmh WNW 18.0 mph29.0 kmh 30.40 in1029.5 mb 0.00 in0.0 mm 0.00 in/hr0.0 mm/hr 0.00 in0.0 mm
06:45 PM 14.8°F-9.6°C 12.9°F-10.6°C 92% 17.0 mph NW27.4 kmh NW 18.0 mph29.0 kmh 30.40 in1029.5 mb 0.00 in0.0 mm 0.00 in/hr0.0 mm/hr 0.00 in0.0 mm
06:46 PM 14.7°F-9.6°C 12.8°F-10.7°C 92% 15.0 mph WNW24.1 kmh WNW 18.0 mph29.0 kmh 30.40 in1029.5 mb 0.00 in0.0 mm 0.00 in/hr0.0 mm/hr 0.00 in0.0 mm
06:47 PM 14.7°F-9.6°C 12.8°F-10.7°C 92% 14.0 mph NW22.5 kmh NW 18.0 mph29.0 kmh 30.40 in1029.5 mb 0.00 in0.0 mm 0.00 in/hr0.0 mm/hr 0.00 in0.0 mm
06:48 PM 14.7°F-9.6°C 12.8°F-10.7°C 92% 17.0 mph NW27.4 kmh NW 18.0 mph29.0 kmh 30.40 in1029.5 mb 0.00 in0.0 mm 0.00 in/hr0.0 mm/hr 0.00 in0.0 mm
06:49 PM 14.6°F-9.7°C 12.7°F-10.7°C 92% 15.0 mph NW24.1 kmh NW 19.0 mph30.6 kmh 30.40 in1029.5 mb 0.00 in0.0 mm 0.00 in/hr0.0 mm/hr 0.00 in0.0 mm
06:50 PM 14.6°F-9.7°C 12.7°F-10.7°C 92% 17.0 mph NW27.4 kmh NW 19.0 mph30.6 kmh 30.40 in1029.5 mb 0.00 in0.0 mm 0.00 in/hr0.0 mm/hr 0.00 in0.0 mm
06:51 PM 14.5°F-9.7°C 12.6°F-10.8°C 92% 16.0 mph NW25.7 kmh NW 19.0 mph30.6 kmh 30.40 in1029.5 mb 0.00 in0.0 mm 0.00 in/hr0.0 mm/hr 0.00 in0.0 mm
06:52 PM 14.5°F-9.7°C 12.6°F-10.8°C 92% 18.0 mph NW29.0 kmh NW 20.0 mph32.2 kmh 30.40 in1029.5 mb 0.00 in0.0 mm 0.00 in/hr0.0 mm/hr 0.00 in0.0 mm
06:53 PM 14.4°F-9.8°C 12.5°F-10.8°C 92% 14.0 mph NW22.5 kmh NW 20.0 mph32.2 kmh 30.40 in1029.5 mb 0.00 in0.0 mm 0.00 in/hr0.0 mm/hr 0.00 in0.0 mm
06:54 PM 14.4°F-9.8°C 12.5°F-10.8°C 92% 18.0 mph NW29.0 kmh NW 20.0 mph32.2 kmh 30.40 in1029.5 mb 0.00 in0.0 mm 0.00 in/hr0.0 mm/hr 0.00 in0.0 mm
06:55 PM 14.3°F-9.8°C 12.4°F-10.9°C 92% 17.0 mph NW27.4 kmh NW 20.0 mph32.2 kmh 30.40 in1029.5 mb 0.00 in0.0 mm 0.00 in/hr0.0 mm/hr 0.00 in0.0 mm
06:56 PM 14.2°F-9.9°C 12.3°F-10.9°C 92% 16.0 mph WNW25.7 kmh WNW 20.0 mph32.2 kmh 30.40 in1029.5 mb 0.00 in0.0 mm 0.00 in/hr0.0 mm/hr 0.00 in0.0 mm
06:57 PM 14.1°F-9.9°C 12.2°F-11.0°C 92% 16.0 mph NW25.7 kmh NW 21.0 mph33.8 kmh 30.40 in1029.5 mb 0.00 in0.0 mm 0.00 in/hr0.0 mm/hr 0.00 in0.0 mm
06:58 PM 14.0°F-10.0°C 12.1°F-11.1°C 92% 18.0 mph WNW29.0 kmh WNW 21.0 mph33.8 kmh 30.40 in1029.5 mb 0.00 in0.0 mm 0.00 in/hr0.0 mm/hr 0.00 in0.0 mm
06:59 PM 13.9°F-10.1°C 12.0°F-11.1°C 92% 17.0 mph NW27.4 kmh NW 21.0 mph33.8 kmh 30.40 in1029.5 mb 0.00 in0.0 mm 0.00 in/hr0.0 mm/hr 0.00 in0.0 mm
07:00 PM 13.9°F-10.1°C 12.0°F-11.1°C 92% 17.0 mph WNW27.4 kmh WNW 21.0 mph33.8 kmh 30.40 in1029.5 mb 0.00 in0.0 mm 0.00 in/hr0.0 mm/hr 0.00 in0.0 mm
07:01 PM 13.8°F-10.1°C 11.7°F-11.3°C 91% 19.0 mph NW30.6 kmh NW 21.0 mph33.8 kmh 30.40 in1029.5 mb 0.00 in0.0 mm 0.00 in/hr0.0 mm/hr 0.00 in0.0 mm
07:02 PM 13.7°F-10.2°C 11.6°F-11.3°C 91% 19.0 mph NW30.6 kmh NW 19.0 mph30.6 kmh 30.40 in1029.5 mb 0.00 in0.0 mm 0.00 in/hr0.0 mm/hr 0.00 in0.0 mm
07:03 PM 13.7°F-10.2°C 11.6°F-11.3°C 91% 19.0 mph NW30.6 kmh NW 21.0 mph33.8 kmh 30.40 in1029.5 mb 0.00 in0.0 mm 0.00 in/hr0.0 mm/hr 0.00 in0.0 mm
07:04 PM 13.6°F-10.2°C 11.5°F-11.4°C 91% 17.0 mph WNW27.4 kmh WNW 21.0 mph33.8 kmh 30.40 in1029.5 mb 0.00 in0.0 mm 0.00 in/hr0.0 mm/hr 0.00 in0.0 mm
07:05 PM 13.6°F-10.2°C 11.7°F-11.3°C 92% 18.0 mph WNW29.0 kmh WNW 21.0 mph33.8 kmh 30.40 in1029.5 mb 0.00 in0.0 mm 0.00 in/hr0.0 mm/hr 0.00 in0.0 mm
07:06 PM 13.5°F-10.3°C 11.6°F-11.3°C 92% 19.0 mph NW30.6 kmh NW 21.0 mph33.8 kmh 30.40 in1029.5 mb 0.00 in0.0 mm 0.00 in/hr0.0 mm/hr 0.00 in0.0 mm
07:07 PM 13.5°F-10.3°C 11.6°F-11.3°C 92% 15.0 mph NW24.1 kmh NW 21.0 mph33.8 kmh 30.40 in1029.5 mb 0.00 in0.0 mm 0.00 in/hr0.0 mm/hr 0.00 in0.0 mm
07:08 PM 13.4°F-10.3°C 11.5°F-11.4°C 92% 18.0 mph WNW29.0 kmh WNW 22.0 mph35.4 kmh 30.40 in1029.5 mb 0.00 in0.0 mm 0.00 in/hr0.0 mm/hr 0.00 in0.0 mm
07:09 PM 13.4°F-10.3°C 11.5°F-11.4°C 92% 17.0 mph WNW27.4 kmh WNW 22.0 mph35.4 kmh 30.40 in1029.5 mb 0.00 in0.0 mm 0.00 in/hr0.0 mm/hr 0.00 in0.0 mm
07:10 PM 13.3°F-10.4°C 11.4°F-11.4°C 92% 19.0 mph NW30.6 kmh NW 22.0 mph35.4 kmh 30.40 in1029.5 mb 0.00 in0.0 mm 0.00 in/hr0.0 mm/hr 0.00 in0.0 mm
07:11 PM 13.3°F-10.4°C 11.4°F-11.4°C 92% 15.0 mph WNW24.1 kmh WNW 22.0 mph35.4 kmh 30.40 in1029.5 mb 0.00 in0.0 mm 0.00 in/hr0.0 mm/hr 0.00 in0.0 mm
07:12 PM 13.3°F-10.4°C 11.2°F-11.6°C 91% 19.0 mph WNW30.6 kmh WNW 22.0 mph35.4 kmh 30.40 in1029.5 mb 0.00 in0.0 mm 0.00 in/hr0.0 mm/hr 0.00 in0.0 mm
07:13 PM 13.2°F-10.4°C 11.1°F-11.6°C 91% 21.0 mph NW33.8 kmh NW 22.0 mph35.4 kmh 30.41 in1029.8 mb 0.00 in0.0 mm 0.00 in/hr0.0 mm/hr 0.00 in0.0 mm
07:14 PM 13.2°F-10.4°C 11.1°F-11.6°C 91% 16.0 mph NW25.7 kmh NW 22.0 mph35.4 kmh 30.41 in1029.8 mb 0.00 in0.0 mm 0.00 in/hr0.0 mm/hr 0.00 in0.0 mm
07:15 PM 13.1°F-10.5°C 11.0°F-11.7°C 91% 17.0 mph NW27.4 kmh NW 22.0 mph35.4 kmh 30.41 in1029.8 mb 0.00 in0.0 mm 0.00 in/hr0.0 mm/hr 0.00 in0.0 mm
07:16 PM 13.1°F-10.5°C 11.0°F-11.7°C 91% 18.0 mph WNW29.0 kmh WNW 22.0 mph35.4 kmh 30.41 in1029.8 mb 0.00 in0.0 mm 0.00 in/hr0.0 mm/hr 0.00 in0.0 mm
07:17 PM 13.1°F-10.5°C 11.0°F-11.7°C 91% 21.0 mph WNW33.8 kmh WNW 23.0 mph37.0 kmh 30.41 in1029.8 mb 0.00 in0.0 mm 0.00 in/hr0.0 mm/hr 0.00 in0.0 mm
07:18 PM 13.0°F-10.6°C 10.9°F-11.7°C 91% 19.0 mph NW30.6 kmh NW 23.0 mph37.0 kmh 30.41 in1029.8 mb 0.00 in0.0 mm 0.00 in/hr0.0 mm/hr 0.00 in0.0 mm
07:19 PM 13.0°F-10.6°C 10.9°F-11.7°C 91% 15.0 mph NW24.1 kmh NW 23.0 mph37.0 kmh 30.41 in1029.8 mb 0.00 in0.0 mm 0.00 in/hr0.0 mm/hr 0.00 in0.0 mm
07:20 PM 13.0°F-10.6°C 10.9°F-11.7°C 91% 16.0 mph NW25.7 kmh NW 23.0 mph37.0 kmh 30.41 in1029.8 mb 0.00 in0.0 mm 0.00 in/hr0.0 mm/hr 0.00 in0.0 mm
07:21 PM 13.0°F-10.6°C 10.9°F-11.7°C 91% 17.0 mph WNW27.4 kmh WNW 23.0 mph37.0 kmh 30.41 in1029.8 mb 0.00 in0.0 mm 0.00 in/hr0.0 mm/hr 0.00 in0.0 mm
07:22 PM 12.9°F-10.6°C 10.8°F-11.8°C 91% 20.0 mph NW32.2 kmh NW 23.0 mph37.0 kmh 30.41 in1029.8 mb 0.00 in0.0 mm 0.00 in/hr0.0 mm/hr 0.00 in0.0 mm
07:23 PM 12.9°F-10.6°C 10.8°F-11.8°C 91% 17.0 mph